<?xml version="1.0" encoding="UTF-8" standalone="no" ?>
<gpx xmlns="http://www.topografix.com/GPX/1/1" xmlns:xsi="http://www.w3.org/2001/XMLSchema-instance" xsi:schemaLocation="http://www.topografix.com/GPX/1/1 http://www.topografix.com/GPX/1/1/gpx.xsd" version="1.1" creator="VisuGPX - https://www.visugpx.com">
  <metadata>
    <name>Petite et Grande Étoile</name>
    <desc><![CDATA[Superbes points de vues, côté Berre et Côté Baie. DFCI tout du long (sauf petit single vers le belvédère, praticable). ]]></desc>
  </metadata>
  <trk>
    <name><![CDATA[2020-10-11 18:59:35]]></name>
    <trkseg>
      <trkpt lat="43.38849" lon="5.3899">
        <ele>308.72</ele>
        <time>2020-10-11T13:09:31Z</time>
      </trkpt>
      <trkpt lat="43.38847" lon="5.3899">
        <ele>310.16</ele>
        <time>2020-10-11T13:09:53Z</time>
      </trkpt>
      <trkpt lat="43.38853" lon="5.39006">
        <ele>310.16</ele>
        <time>2020-10-11T13:10:03Z</time>
      </trkpt>
      <trkpt lat="43.38853" lon="5.39029">
        <ele>309.68</ele>
        <time>2020-10-11T13:10:16Z</time>
      </trkpt>
      <trkpt lat="43.38853" lon="5.39031">
        <ele>309.68</ele>
        <time>2020-10-11T13:10:17Z</time>
      </trkpt>
      <trkpt lat="43.38855" lon="5.39041">
        <ele>308.24</ele>
        <time>2020-10-11T13:10:33Z</time>
      </trkpt>
      <trkpt lat="43.38854" lon="5.3905">
        <ele>310.16</ele>
        <time>2020-10-11T13:10:41Z</time>
      </trkpt>
      <trkpt lat="43.38855" lon="5.39056">
        <ele>310.16</ele>
        <time>2020-10-11T13:10:45Z</time>
      </trkpt>
      <trkpt lat="43.38856" lon="5.39065">
        <ele>310.16</ele>
        <time>2020-10-11T13:10:52Z</time>
      </trkpt>
      <trkpt lat="43.38856" lon="5.39072">
        <ele>310.64</ele>
        <time>2020-10-11T13:10:56Z</time>
      </trkpt>
      <trkpt lat="43.38855" lon="5.3908">
        <ele>311.12</ele>
        <time>2020-10-11T13:11:03Z</time>
      </trkpt>
      <trkpt lat="43.38859" lon="5.39095">
        <ele>311.6</ele>
        <time>2020-10-11T13:11:16Z</time>
      </trkpt>
      <trkpt lat="43.3886" lon="5.39103">
        <ele>311.6</ele>
        <time>2020-10-11T13:11:22Z</time>
      </trkpt>
      <trkpt lat="43.38862" lon="5.39108">
        <ele>311.6</ele>
        <time>2020-10-11T13:11:25Z</time>
      </trkpt>
      <trkpt lat="43.38866" lon="5.39121">
        <ele>311.12</ele>
        <time>2020-10-11T13:11:38Z</time>
      </trkpt>
      <trkpt lat="43.38867" lon="5.39122">
        <ele>310.16</ele>
        <time>2020-10-11T13:12:02Z</time>
      </trkpt>
      <trkpt lat="43.38868" lon="5.3913">
        <ele>310.64</ele>
        <time>2020-10-11T13:12:20Z</time>
      </trkpt>
      <trkpt lat="43.38869" lon="5.39137">
        <ele>312.09</ele>
        <time>2020-10-11T13:12:32Z</time>
      </trkpt>
      <trkpt lat="43.38869" lon="5.39149">
        <ele>315.45</ele>
        <time>2020-10-11T13:12:43Z</time>
      </trkpt>
      <trkpt lat="43.38872" lon="5.39167">
        <ele>317.37</ele>
        <time>2020-10-11T13:12:57Z</time>
      </trkpt>
      <trkpt lat="43.38877" lon="5.39174">
        <ele>317.37</ele>
        <time>2020-10-11T13:13:10Z</time>
      </trkpt>
      <trkpt lat="43.38878" lon="5.39177">
        <ele>313.53</ele>
        <time>2020-10-11T13:13:34Z</time>
      </trkpt>
      <trkpt lat="43.38878" lon="5.39178">
        <ele>313.05</ele>
        <time>2020-10-11T13:13:39Z</time>
      </trkpt>
      <trkpt lat="43.38879" lon="5.3918">
        <ele>313.05</ele>
        <time>2020-10-11T13:13:41Z</time>
      </trkpt>
      <trkpt lat="43.38879" lon="5.39183">
        <ele>313.05</ele>
        <time>2020-10-11T13:13:43Z</time>
      </trkpt>
      <trkpt lat="43.38881" lon="5.39191">
        <ele>314.01</ele>
        <time>2020-10-11T13:13:49Z</time>
      </trkpt>
      <trkpt lat="43.38882" lon="5.39196">
        <ele>314.97</ele>
        <time>2020-10-11T13:13:53Z</time>
      </trkpt>
      <trkpt lat="43.38884" lon="5.39212">
        <ele>317.85</ele>
        <time>2020-10-11T13:14:06Z</time>
      </trkpt>
      <trkpt lat="43.38884" lon="5.39215">
        <ele>318.33</ele>
        <time>2020-10-11T13:14:08Z</time>
      </trkpt>
      <trkpt lat="43.38885" lon="5.39222">
        <ele>319.78</ele>
        <time>2020-10-11T13:14:14Z</time>
      </trkpt>
      <trkpt lat="43.3889" lon="5.39236">
        <ele>320.74</ele>
        <time>2020-10-11T13:14:24Z</time>
      </trkpt>
      <trkpt lat="43.38894" lon="5.39254">
        <ele>318.81</ele>
        <time>2020-10-11T13:14:38Z</time>
      </trkpt>
      <trkpt lat="43.38898" lon="5.39269">
        <ele>318.33</ele>
        <time>2020-10-11T13:14:50Z</time>
      </trkpt>
      <trkpt lat="43.389" lon="5.3928">
        <ele>319.3</ele>
        <time>2020-10-11T13:14:58Z</time>
      </trkpt>
      <trkpt lat="43.389" lon="5.39284">
        <ele>319.78</ele>
        <time>2020-10-11T13:15:01Z</time>
      </trkpt>
      <trkpt lat="43.38902" lon="5.39301">
        <ele>319.78</ele>
        <time>2020-10-11T13:15:13Z</time>
      </trkpt>
      <trkpt lat="43.38906" lon="5.39318">
        <ele>321.22</ele>
        <time>2020-10-11T13:15:26Z</time>
      </trkpt>
      <trkpt lat="43.38908" lon="5.39331">
        <ele>323.62</ele>
        <time>2020-10-11T13:15:37Z</time>
      </trkpt>
      <trkpt lat="43.38911" lon="5.39349">
        <ele>323.14</ele>
        <time>2020-10-11T13:15:50Z</time>
      </trkpt>
      <trkpt lat="43.38914" lon="5.39364">
        <ele>323.14</ele>
        <time>2020-10-11T13:16:01Z</time>
      </trkpt>
      <trkpt lat="43.38916" lon="5.39381">
        <ele>324.58</ele>
        <time>2020-10-11T13:16:13Z</time>
      </trkpt>
      <trkpt lat="43.38918" lon="5.39391">
        <ele>324.1</ele>
        <time>2020-10-11T13:16:21Z</time>
      </trkpt>
      <trkpt lat="43.38919" lon="5.39393">
        <ele>324.1</ele>
        <time>2020-10-11T13:16:23Z</time>
      </trkpt>
      <trkpt lat="43.38919" lon="5.39398">
        <ele>324.58</ele>
        <time>2020-10-11T13:16:27Z</time>
      </trkpt>
      <trkpt lat="43.38922" lon="5.39415">
        <ele>324.58</ele>
        <time>2020-10-11T13:16:40Z</time>
      </trkpt>
      <trkpt lat="43.38922" lon="5.39418">
        <ele>324.1</ele>
        <time>2020-10-11T13:16:42Z</time>
      </trkpt>
      <trkpt lat="43.38924" lon="5.39433">
        <ele>325.06</ele>
        <time>2020-10-11T13:16:53Z</time>
      </trkpt>
      <trkpt lat="43.38926" lon="5.39436">
        <ele>326.02</ele>
        <time>2020-10-11T13:17:05Z</time>
      </trkpt>
      <trkpt lat="43.38926" lon="5.39437">
        <ele>326.5</ele>
        <time>2020-10-11T13:17:17Z</time>
      </trkpt>
      <trkpt lat="43.38926" lon="5.39441">
        <ele>326.5</ele>
        <time>2020-10-11T13:17:20Z</time>
      </trkpt>
      <trkpt lat="43.38928" lon="5.39454">
        <ele>327.47</ele>
        <time>2020-10-11T13:17:30Z</time>
      </trkpt>
      <trkpt lat="43.38931" lon="5.3946">
        <ele>326.99</ele>
        <time>2020-10-11T13:17:35Z</time>
      </trkpt>
      <trkpt lat="43.38932" lon="5.39472">
        <ele>327.47</ele>
        <time>2020-10-11T13:17:48Z</time>
      </trkpt>
      <trkpt lat="43.38935" lon="5.39476">
        <ele>329.87</ele>
        <time>2020-10-11T13:17:59Z</time>
      </trkpt>
      <trkpt lat="43.38934" lon="5.39482">
        <ele>329.87</ele>
        <time>2020-10-11T13:18:06Z</time>
      </trkpt>
      <trkpt lat="43.38934" lon="5.39484">
        <ele>329.87</ele>
        <time>2020-10-11T13:18:08Z</time>
      </trkpt>
      <trkpt lat="43.38935" lon="5.39498">
        <ele>330.35</ele>
        <time>2020-10-11T13:18:20Z</time>
      </trkpt>
      <trkpt lat="43.38936" lon="5.39501">
        <ele>330.83</ele>
        <time>2020-10-11T13:18:22Z</time>
      </trkpt>
      <trkpt lat="43.38935" lon="5.39503">
        <ele>330.35</ele>
        <time>2020-10-11T13:18:24Z</time>
      </trkpt>
      <trkpt lat="43.38935" lon="5.39506">
        <ele>330.35</ele>
        <time>2020-10-11T13:18:26Z</time>
      </trkpt>
      <trkpt lat="43.38936" lon="5.39515">
        <ele>330.35</ele>
        <time>2020-10-11T13:18:33Z</time>
      </trkpt>
      <trkpt lat="43.38937" lon="5.39528">
        <ele>330.83</ele>
        <time>2020-10-11T13:18:42Z</time>
      </trkpt>
      <trkpt lat="43.3894" lon="5.39544">
        <ele>332.27</ele>
        <time>2020-10-11T13:18:54Z</time>
      </trkpt>
      <trkpt lat="43.3894" lon="5.39558">
        <ele>333.23</ele>
        <time>2020-10-11T13:19:04Z</time>
      </trkpt>
      <trkpt lat="43.38944" lon="5.39574">
        <ele>333.71</ele>
        <time>2020-10-11T13:19:16Z</time>
      </trkpt>
      <trkpt lat="43.38945" lon="5.39586">
        <ele>332.75</ele>
        <time>2020-10-11T13:19:25Z</time>
      </trkpt>
      <trkpt lat="43.38948" lon="5.39597">
        <ele>332.27</ele>
        <time>2020-10-11T13:19:37Z</time>
      </trkpt>
      <trkpt lat="43.38952" lon="5.39607">
        <ele>333.23</ele>
        <time>2020-10-11T13:19:49Z</time>
      </trkpt>
      <trkpt lat="43.38958" lon="5.39624">
        <ele>334.2</ele>
        <time>2020-10-11T13:20:02Z</time>
      </trkpt>
      <trkpt lat="43.38959" lon="5.3963">
        <ele>335.16</ele>
        <time>2020-10-11T13:20:07Z</time>
      </trkpt>
      <trkpt lat="43.38962" lon="5.39644">
        <ele>335.64</ele>
        <time>2020-10-11T13:20:19Z</time>
      </trkpt>
      <trkpt lat="43.38964" lon="5.39652">
        <ele>336.12</ele>
        <time>2020-10-11T13:20:26Z</time>
      </trkpt>
      <trkpt lat="43.38964" lon="5.39655">
        <ele>337.08</ele>
        <time>2020-10-11T13:20:29Z</time>
      </trkpt>
      <trkpt lat="43.38965" lon="5.39661">
        <ele>337.08</ele>
        <time>2020-10-11T13:20:33Z</time>
      </trkpt>
      <trkpt lat="43.38966" lon="5.39663">
        <ele>336.6</ele>
        <time>2020-10-11T13:20:35Z</time>
      </trkpt>
      <trkpt lat="43.38967" lon="5.39671">
        <ele>337.56</ele>
        <time>2020-10-11T13:20:41Z</time>
      </trkpt>
      <trkpt lat="43.38968" lon="5.39677">
        <ele>338.04</ele>
        <time>2020-10-11T13:20:46Z</time>
      </trkpt>
      <trkpt lat="43.3897" lon="5.39688">
        <ele>339.96</ele>
        <time>2020-10-11T13:20:55Z</time>
      </trkpt>
      <trkpt lat="43.38971" lon="5.3969">
        <ele>339.96</ele>
        <time>2020-10-11T13:20:57Z</time>
      </trkpt>
      <trkpt lat="43.38973" lon="5.39701">
        <ele>341.41</ele>
        <time>2020-10-11T13:21:08Z</time>
      </trkpt>
      <trkpt lat="43.38976" lon="5.39715">
        <ele>342.37</ele>
        <time>2020-10-11T13:21:19Z</time>
      </trkpt>
      <trkpt lat="43.38979" lon="5.39724">
        <ele>343.33</ele>
        <time>2020-10-11T13:21:27Z</time>
      </trkpt>
      <trkpt lat="43.38981" lon="5.39731">
        <ele>344.29</ele>
        <time>2020-10-11T13:21:34Z</time>
      </trkpt>
      <trkpt lat="43.38988" lon="5.39742">
        <ele>345.25</ele>
        <time>2020-10-11T13:21:46Z</time>
      </trkpt>
      <trkpt lat="43.38994" lon="5.39751">
        <ele>346.21</ele>
        <time>2020-10-11T13:21:56Z</time>
      </trkpt>
      <trkpt lat="43.39" lon="5.3976">
        <ele>347.17</ele>
        <time>2020-10-11T13:22:07Z</time>
      </trkpt>
      <trkpt lat="43.39008" lon="5.39772">
        <ele>348.13</ele>
        <time>2020-10-11T13:22:20Z</time>
      </trkpt>
      <trkpt lat="43.39015" lon="5.39781">
        <ele>349.1</ele>
        <time>2020-10-11T13:22:31Z</time>
      </trkpt>
      <trkpt lat="43.39025" lon="5.39787">
        <ele>347.65</ele>
        <time>2020-10-11T13:22:43Z</time>
      </trkpt>
      <trkpt lat="43.39035" lon="5.39789">
        <ele>348.13</ele>
        <time>2020-10-11T13:22:52Z</time>
      </trkpt>
      <trkpt lat="43.39045" lon="5.39785">
        <ele>349.58</ele>
        <time>2020-10-11T13:23:05Z</time>
      </trkpt>
      <trkpt lat="43.39054" lon="5.39779">
        <ele>350.06</ele>
        <time>2020-10-11T13:23:17Z</time>
      </trkpt>
      <trkpt lat="43.3906" lon="5.39774">
        <ele>351.5</ele>
        <time>2020-10-11T13:23:29Z</time>
      </trkpt>
      <trkpt lat="43.39063" lon="5.3977">
        <ele>352.46</ele>
        <time>2020-10-11T13:23:44Z</time>
      </trkpt>
      <trkpt lat="43.39068" lon="5.39773">
        <ele>352.46</ele>
        <time>2020-10-11T13:24:01Z</time>
      </trkpt>
      <trkpt lat="43.39076" lon="5.39778">
        <ele>351.98</ele>
        <time>2020-10-11T13:24:12Z</time>
      </trkpt>
      <trkpt lat="43.39084" lon="5.39784">
        <ele>351.02</ele>
        <time>2020-10-11T13:24:23Z</time>
      </trkpt>
      <trkpt lat="43.39086" lon="5.3979">
        <ele>351.5</ele>
        <time>2020-10-11T13:24:29Z</time>
      </trkpt>
      <trkpt lat="43.39087" lon="5.39794">
        <ele>351.98</ele>
        <time>2020-10-11T13:24:34Z</time>
      </trkpt>
      <trkpt lat="43.39089" lon="5.39796">
        <ele>351.98</ele>
        <time>2020-10-11T13:24:36Z</time>
      </trkpt>
      <trkpt lat="43.39095" lon="5.39806">
        <ele>354.86</ele>
        <time>2020-10-11T13:24:49Z</time>
      </trkpt>
      <trkpt lat="43.39099" lon="5.39815">
        <ele>356.79</ele>
        <time>2020-10-11T13:25:00Z</time>
      </trkpt>
      <trkpt lat="43.39105" lon="5.39825">
        <ele>358.71</ele>
        <time>2020-10-11T13:25:11Z</time>
      </trkpt>
      <trkpt lat="43.39105" lon="5.39824">
        <ele>358.23</ele>
        <time>2020-10-11T13:25:30Z</time>
      </trkpt>
      <trkpt lat="43.39107" lon="5.39831">
        <ele>359.19</ele>
        <time>2020-10-11T13:25:38Z</time>
      </trkpt>
      <trkpt lat="43.39108" lon="5.39845">
        <ele>360.63</ele>
        <time>2020-10-11T13:25:49Z</time>
      </trkpt>
      <trkpt lat="43.39108" lon="5.39857">
        <ele>361.11</ele>
        <time>2020-10-11T13:25:59Z</time>
      </trkpt>
      <trkpt lat="43.39107" lon="5.39868">
        <ele>361.11</ele>
        <time>2020-10-11T13:26:10Z</time>
      </trkpt>
      <trkpt lat="43.3911" lon="5.39885">
        <ele>362.07</ele>
        <time>2020-10-11T13:26:23Z</time>
      </trkpt>
      <trkpt lat="43.39109" lon="5.39898">
        <ele>362.07</ele>
        <time>2020-10-11T13:26:35Z</time>
      </trkpt>
      <trkpt lat="43.39109" lon="5.39909">
        <ele>361.59</ele>
        <time>2020-10-11T13:26:44Z</time>
      </trkpt>
      <trkpt lat="43.39108" lon="5.39921">
        <ele>362.07</ele>
        <time>2020-10-11T13:26:54Z</time>
      </trkpt>
      <trkpt lat="43.39107" lon="5.39935">
        <ele>363.52</ele>
        <time>2020-10-11T13:27:07Z</time>
      </trkpt>
      <trkpt lat="43.39107" lon="5.3994">
        <ele>364</ele>
        <time>2020-10-11T13:27:10Z</time>
      </trkpt>
      <trkpt lat="43.39108" lon="5.39955">
        <ele>365.92</ele>
        <time>2020-10-11T13:27:22Z</time>
      </trkpt>
      <trkpt lat="43.39107" lon="5.3997">
        <ele>366.88</ele>
        <time>2020-10-11T13:27:34Z</time>
      </trkpt>
      <trkpt lat="43.39109" lon="5.39986">
        <ele>367.36</ele>
        <time>2020-10-11T13:27:48Z</time>
      </trkpt>
      <trkpt lat="43.39109" lon="5.39987">
        <ele>367.36</ele>
        <time>2020-10-11T13:27:49Z</time>
      </trkpt>
      <trkpt lat="43.3911" lon="5.3999">
        <ele>368.32</ele>
        <time>2020-10-11T13:27:52Z</time>
      </trkpt>
      <trkpt lat="43.39109" lon="5.40002">
        <ele>369.28</ele>
        <time>2020-10-11T13:28:03Z</time>
      </trkpt>
      <trkpt lat="43.39109" lon="5.40008">
        <ele>368.8</ele>
        <time>2020-10-11T13:28:09Z</time>
      </trkpt>
      <trkpt lat="43.39108" lon="5.40012">
        <ele>368.32</ele>
        <time>2020-10-11T13:28:12Z</time>
      </trkpt>
      <trkpt lat="43.39113" lon="5.40026">
        <ele>369.76</ele>
        <time>2020-10-11T13:28:24Z</time>
      </trkpt>
      <trkpt lat="43.39112" lon="5.40043">
        <ele>367.36</ele>
        <time>2020-10-11T13:28:35Z</time>
      </trkpt>
      <trkpt lat="43.39111" lon="5.40044">
        <ele>367.36</ele>
        <time>2020-10-11T13:28:36Z</time>
      </trkpt>
      <trkpt lat="43.39111" lon="5.40057">
        <ele>366.4</ele>
        <time>2020-10-11T13:28:48Z</time>
      </trkpt>
      <trkpt lat="43.39112" lon="5.40061">
        <ele>365.92</ele>
        <time>2020-10-11T13:29:02Z</time>
      </trkpt>
      <trkpt lat="43.39114" lon="5.40063">
        <ele>366.88</ele>
        <time>2020-10-11T13:29:04Z</time>
      </trkpt>
      <trkpt lat="43.39115" lon="5.40074">
        <ele>367.84</ele>
        <time>2020-10-11T13:29:12Z</time>
      </trkpt>
      <trkpt lat="43.39116" lon="5.40086">
        <ele>370.24</ele>
        <time>2020-10-11T13:29:26Z</time>
      </trkpt>
      <trkpt lat="43.39117" lon="5.40095">
        <ele>371.21</ele>
        <time>2020-10-11T13:29:36Z</time>
      </trkpt>
      <trkpt lat="43.39121" lon="5.40112">
        <ele>373.13</ele>
        <time>2020-10-11T13:29:44Z</time>
      </trkpt>
      <trkpt lat="43.39124" lon="5.40118">
        <ele>373.61</ele>
        <time>2020-10-11T13:29:48Z</time>
      </trkpt>
      <trkpt lat="43.39126" lon="5.40121">
        <ele>373.61</ele>
        <time>2020-10-11T13:29:50Z</time>
      </trkpt>
      <trkpt lat="43.39136" lon="5.40138">
        <ele>374.09</ele>
        <time>2020-10-11T13:30:02Z</time>
      </trkpt>
      <trkpt lat="43.39139" lon="5.40146">
        <ele>374.57</ele>
        <time>2020-10-11T13:30:09Z</time>
      </trkpt>
      <trkpt lat="43.39146" lon="5.40155">
        <ele>374.09</ele>
        <time>2020-10-11T13:30:18Z</time>
      </trkpt>
      <trkpt lat="43.39148" lon="5.40157">
        <ele>374.09</ele>
        <time>2020-10-11T13:30:20Z</time>
      </trkpt>
      <trkpt lat="43.3915" lon="5.40161">
        <ele>373.61</ele>
        <time>2020-10-11T13:30:23Z</time>
      </trkpt>
      <trkpt lat="43.39165" lon="5.40166">
        <ele>374.57</ele>
        <time>2020-10-11T13:30:36Z</time>
      </trkpt>
      <trkpt lat="43.39179" lon="5.40153">
        <ele>376.97</ele>
        <time>2020-10-11T13:30:52Z</time>
      </trkpt>
      <trkpt lat="43.39182" lon="5.40146">
        <ele>376.49</ele>
        <time>2020-10-11T13:30:58Z</time>
      </trkpt>
      <trkpt lat="43.39185" lon="5.40133">
        <ele>375.05</ele>
        <time>2020-10-11T13:31:07Z</time>
      </trkpt>
      <trkpt lat="43.39194" lon="5.40124">
        <ele>375.05</ele>
        <time>2020-10-11T13:31:21Z</time>
      </trkpt>
      <trkpt lat="43.39197" lon="5.40124">
        <ele>375.53</ele>
        <time>2020-10-11T13:31:25Z</time>
      </trkpt>
      <trkpt lat="43.39202" lon="5.40127">
        <ele>375.05</ele>
        <time>2020-10-11T13:31:31Z</time>
      </trkpt>
      <trkpt lat="43.39205" lon="5.40129">
        <ele>374.57</ele>
        <time>2020-10-11T13:31:36Z</time>
      </trkpt>
      <trkpt lat="43.39208" lon="5.40132">
        <ele>374.57</ele>
        <time>2020-10-11T13:31:39Z</time>
      </trkpt>
      <trkpt lat="43.39217" lon="5.40141">
        <ele>374.09</ele>
        <time>2020-10-11T13:31:50Z</time>
      </trkpt>
      <trkpt lat="43.39221" lon="5.40144">
        <ele>374.09</ele>
        <time>2020-10-11T13:31:55Z</time>
      </trkpt>
      <trkpt lat="43.39224" lon="5.40149">
        <ele>373.61</ele>
        <time>2020-10-11T13:31:59Z</time>
      </trkpt>
      <trkpt lat="43.39228" lon="5.40154">
        <ele>373.61</ele>
        <time>2020-10-11T13:32:04Z</time>
      </trkpt>
      <trkpt lat="43.39236" lon="5.40162">
        <ele>373.61</ele>
        <time>2020-10-11T13:32:13Z</time>
      </trkpt>
      <trkpt lat="43.39241" lon="5.40166">
        <ele>373.61</ele>
        <time>2020-10-11T13:32:19Z</time>
      </trkpt>
      <trkpt lat="43.39251" lon="5.40169">
        <ele>374.09</ele>
        <time>2020-10-11T13:32:29Z</time>
      </trkpt>
      <trkpt lat="43.39259" lon="5.40178">
        <ele>373.61</ele>
        <time>2020-10-11T13:32:42Z</time>
      </trkpt>
      <trkpt lat="43.39262" lon="5.40185">
        <ele>373.61</ele>
        <time>2020-10-11T13:32:48Z</time>
      </trkpt>
      <trkpt lat="43.39262" lon="5.40187">
        <ele>373.61</ele>
        <time>2020-10-11T13:32:50Z</time>
      </trkpt>
      <trkpt lat="43.39265" lon="5.40201">
        <ele>373.61</ele>
        <time>2020-10-11T13:33:00Z</time>
      </trkpt>
      <trkpt lat="43.39265" lon="5.40203">
        <ele>374.09</ele>
        <time>2020-10-11T13:33:02Z</time>
      </trkpt>
      <trkpt lat="43.39266" lon="5.40215">
        <ele>375.05</ele>
        <time>2020-10-11T13:33:12Z</time>
      </trkpt>
      <trkpt lat="43.3927" lon="5.40224">
        <ele>374.57</ele>
        <time>2020-10-11T13:33:19Z</time>
      </trkpt>
      <trkpt lat="43.39272" lon="5.40228">
        <ele>374.09</ele>
        <time>2020-10-11T13:33:23Z</time>
      </trkpt>
      <trkpt lat="43.39276" lon="5.40231">
        <ele>374.09</ele>
        <time>2020-10-11T13:33:27Z</time>
      </trkpt>
      <trkpt lat="43.39283" lon="5.40233">
        <ele>374.57</ele>
        <time>2020-10-11T13:33:35Z</time>
      </trkpt>
      <trkpt lat="43.39284" lon="5.40232">
        <ele>375.05</ele>
        <time>2020-10-11T13:33:37Z</time>
      </trkpt>
      <trkpt lat="43.39294" lon="5.40235">
        <ele>376.01</ele>
        <time>2020-10-11T13:33:48Z</time>
      </trkpt>
      <trkpt lat="43.39302" lon="5.40239">
        <ele>378.9</ele>
        <time>2020-10-11T13:33:59Z</time>
      </trkpt>
      <trkpt lat="43.39305" lon="5.40237">
        <ele>381.3</ele>
        <time>2020-10-11T13:34:09Z</time>
      </trkpt>
      <trkpt lat="43.39309" lon="5.40238">
        <ele>383.22</ele>
        <time>2020-10-11T13:34:19Z</time>
      </trkpt>
      <trkpt lat="43.39314" lon="5.40243">
        <ele>384.66</ele>
        <time>2020-10-11T13:34:30Z</time>
      </trkpt>
      <trkpt lat="43.39318" lon="5.40246">
        <ele>385.15</ele>
        <time>2020-10-11T13:34:42Z</time>
      </trkpt>
      <trkpt lat="43.39322" lon="5.40249">
        <ele>388.51</ele>
        <time>2020-10-11T13:34:55Z</time>
      </trkpt>
      <trkpt lat="43.39329" lon="5.40254">
        <ele>389.95</ele>
        <time>2020-10-11T13:35:06Z</time>
      </trkpt>
      <trkpt lat="43.39337" lon="5.40262">
        <ele>389.47</ele>
        <time>2020-10-11T13:35:17Z</time>
      </trkpt>
      <trkpt lat="43.39345" lon="5.4027">
        <ele>389.47</ele>
        <time>2020-10-11T13:35:28Z</time>
      </trkpt>
      <trkpt lat="43.39349" lon="5.40275">
        <ele>389.95</ele>
        <time>2020-10-11T13:35:34Z</time>
      </trkpt>
      <trkpt lat="43.39364" lon="5.40274">
        <ele>390.43</ele>
        <time>2020-10-11T13:35:49Z</time>
      </trkpt>
      <trkpt lat="43.39366" lon="5.40272">
        <ele>390.43</ele>
        <time>2020-10-11T13:35:51Z</time>
      </trkpt>
      <trkpt lat="43.39374" lon="5.40264">
        <ele>391.87</ele>
        <time>2020-10-11T13:36:02Z</time>
      </trkpt>
      <trkpt lat="43.39382" lon="5.40258">
        <ele>392.36</ele>
        <time>2020-10-11T13:36:13Z</time>
      </trkpt>
      <trkpt lat="43.39391" lon="5.40256">
        <ele>392.84</ele>
        <time>2020-10-11T13:36:23Z</time>
      </trkpt>
      <trkpt lat="43.39399" lon="5.40256">
        <ele>391.87</ele>
        <time>2020-10-11T13:36:33Z</time>
      </trkpt>
      <trkpt lat="43.39405" lon="5.4026">
        <ele>392.36</ele>
        <time>2020-10-11T13:36:42Z</time>
      </trkpt>
      <trkpt lat="43.3941" lon="5.40268">
        <ele>392.36</ele>
        <time>2020-10-11T13:36:52Z</time>
      </trkpt>
      <trkpt lat="43.39411" lon="5.40275">
        <ele>393.32</ele>
        <time>2020-10-11T13:37:02Z</time>
      </trkpt>
      <trkpt lat="43.39413" lon="5.40278">
        <ele>392.36</ele>
        <time>2020-10-11T13:37:09Z</time>
      </trkpt>
      <trkpt lat="43.39414" lon="5.40279">
        <ele>393.32</ele>
        <time>2020-10-11T13:37:19Z</time>
      </trkpt>
      <trkpt lat="43.39413" lon="5.40277">
        <ele>393.8</ele>
        <time>2020-10-11T13:37:21Z</time>
      </trkpt>
      <trkpt lat="43.39413" lon="5.40275">
        <ele>394.28</ele>
        <time>2020-10-11T13:37:28Z</time>
      </trkpt>
      <trkpt lat="43.39413" lon="5.40278">
        <ele>393.32</ele>
        <time>2020-10-11T13:37:40Z</time>
      </trkpt>
      <trkpt lat="43.39414" lon="5.40281">
        <ele>392.36</ele>
        <time>2020-10-11T13:37:58Z</time>
      </trkpt>
      <trkpt lat="43.39415" lon="5.40289">
        <ele>393.32</ele>
        <time>2020-10-11T13:38:12Z</time>
      </trkpt>
      <trkpt lat="43.39413" lon="5.40304">
        <ele>393.8</ele>
        <time>2020-10-11T13:38:24Z</time>
      </trkpt>
      <trkpt lat="43.39409" lon="5.40313">
        <ele>394.76</ele>
        <time>2020-10-11T13:38:35Z</time>
      </trkpt>
      <trkpt lat="43.39406" lon="5.40322">
        <ele>396.2</ele>
        <time>2020-10-11T13:38:46Z</time>
      </trkpt>
      <trkpt lat="43.39401" lon="5.40331">
        <ele>397.16</ele>
        <time>2020-10-11T13:38:56Z</time>
      </trkpt>
      <trkpt lat="43.39393" lon="5.40341">
        <ele>401.01</ele>
        <time>2020-10-11T13:39:09Z</time>
      </trkpt>
      <trkpt lat="43.39387" lon="5.40351">
        <ele>401.97</ele>
        <time>2020-10-11T13:39:20Z</time>
      </trkpt>
      <trkpt lat="43.39383" lon="5.40358">
        <ele>402.93</ele>
        <time>2020-10-11T13:39:34Z</time>
      </trkpt>
      <trkpt lat="43.39375" lon="5.40363">
        <ele>402.93</ele>
        <time>2020-10-11T13:39:45Z</time>
      </trkpt>
      <trkpt lat="43.39371" lon="5.40365">
        <ele>403.41</ele>
        <time>2020-10-11T13:39:51Z</time>
      </trkpt>
      <trkpt lat="43.39363" lon="5.40371">
        <ele>404.37</ele>
        <time>2020-10-11T13:40:03Z</time>
      </trkpt>
      <trkpt lat="43.39352" lon="5.40379">
        <ele>403.41</ele>
        <time>2020-10-11T13:40:16Z</time>
      </trkpt>
      <trkpt lat="43.39344" lon="5.40386">
        <ele>402.93</ele>
        <time>2020-10-11T13:40:28Z</time>
      </trkpt>
      <trkpt lat="43.39339" lon="5.40391">
        <ele>403.41</ele>
        <time>2020-10-11T13:40:37Z</time>
      </trkpt>
      <trkpt lat="43.39329" lon="5.40394">
        <ele>403.89</ele>
        <time>2020-10-11T13:40:48Z</time>
      </trkpt>
      <trkpt lat="43.39316" lon="5.404">
        <ele>404.85</ele>
        <time>2020-10-11T13:41:04Z</time>
      </trkpt>
      <trkpt lat="43.39312" lon="5.40402">
        <ele>403.89</ele>
        <time>2020-10-11T13:41:11Z</time>
      </trkpt>
      <trkpt lat="43.39303" lon="5.40402">
        <ele>404.37</ele>
        <time>2020-10-11T13:41:24Z</time>
      </trkpt>
      <trkpt lat="43.39302" lon="5.40402">
        <ele>404.85</ele>
        <time>2020-10-11T13:41:27Z</time>
      </trkpt>
      <trkpt lat="43.39292" lon="5.40407">
        <ele>406.29</ele>
        <time>2020-10-11T13:41:39Z</time>
      </trkpt>
      <trkpt lat="43.39288" lon="5.40409">
        <ele>407.26</ele>
        <time>2020-10-11T13:41:44Z</time>
      </trkpt>
      <trkpt lat="43.39281" lon="5.40413">
        <ele>407.74</ele>
        <time>2020-10-11T13:41:52Z</time>
      </trkpt>
      <trkpt lat="43.39275" lon="5.40416">
        <ele>407.74</ele>
        <time>2020-10-11T13:41:59Z</time>
      </trkpt>
      <trkpt lat="43.39275" lon="5.40422">
        <ele>407.74</ele>
        <time>2020-10-11T13:42:14Z</time>
      </trkpt>
      <trkpt lat="43.39276" lon="5.40423">
        <ele>406.29</ele>
        <time>2020-10-11T13:42:41Z</time>
      </trkpt>
      <trkpt lat="43.39274" lon="5.40424">
        <ele>405.81</ele>
        <time>2020-10-11T13:43:00Z</time>
      </trkpt>
      <trkpt lat="43.39258" lon="5.40428">
        <ele>407.26</ele>
        <time>2020-10-11T13:43:14Z</time>
      </trkpt>
      <trkpt lat="43.39248" lon="5.4043">
        <ele>407.74</ele>
        <time>2020-10-11T13:43:27Z</time>
      </trkpt>
      <trkpt lat="43.39236" lon="5.40429">
        <ele>409.18</ele>
        <time>2020-10-11T13:43:41Z</time>
      </trkpt>
      <trkpt lat="43.39231" lon="5.40427">
        <ele>411.1</ele>
        <time>2020-10-11T13:43:53Z</time>
      </trkpt>
      <trkpt lat="43.3922" lon="5.40417">
        <ele>412.54</ele>
        <time>2020-10-11T13:44:08Z</time>
      </trkpt>
      <trkpt lat="43.39217" lon="5.40416">
        <ele>412.06</ele>
        <time>2020-10-11T13:44:11Z</time>
      </trkpt>
      <trkpt lat="43.39213" lon="5.40413">
        <ele>412.54</ele>
        <time>2020-10-11T13:44:15Z</time>
      </trkpt>
      <trkpt lat="43.39202" lon="5.40408">
        <ele>412.54</ele>
        <time>2020-10-11T13:44:28Z</time>
      </trkpt>
      <trkpt lat="43.392" lon="5.40408">
        <ele>412.54</ele>
        <time>2020-10-11T13:44:29Z</time>
      </trkpt>
      <trkpt lat="43.39186" lon="5.40409">
        <ele>413.5</ele>
        <time>2020-10-11T13:44:44Z</time>
      </trkpt>
      <trkpt lat="43.39177" lon="5.40414">
        <ele>416.87</ele>
        <time>2020-10-11T13:44:58Z</time>
      </trkpt>
      <trkpt lat="43.39181" lon="5.40423">
        <ele>418.31</ele>
        <time>2020-10-11T13:45:12Z</time>
      </trkpt>
      <trkpt lat="43.39189" lon="5.40426">
        <ele>421.19</ele>
        <time>2020-10-11T13:45:23Z</time>
      </trkpt>
      <trkpt lat="43.39198" lon="5.40429">
        <ele>424.56</ele>
        <time>2020-10-11T13:45:35Z</time>
      </trkpt>
      <trkpt lat="43.39198" lon="5.40429">
        <ele>424.56</ele>
        <time>2020-10-11T13:45:36Z</time>
      </trkpt>
      <trkpt lat="43.39207" lon="5.40439">
        <ele>425.52</ele>
        <time>2020-10-11T13:45:49Z</time>
      </trkpt>
      <trkpt lat="43.39211" lon="5.40443">
        <ele>425.52</ele>
        <time>2020-10-11T13:45:56Z</time>
      </trkpt>
      <trkpt lat="43.39216" lon="5.40452">
        <ele>424.56</ele>
        <time>2020-10-11T13:46:07Z</time>
      </trkpt>
      <trkpt lat="43.39222" lon="5.40461">
        <ele>427.44</ele>
        <time>2020-10-11T13:46:19Z</time>
      </trkpt>
      <trkpt lat="43.39223" lon="5.40462">
        <ele>427.44</ele>
        <time>2020-10-11T13:46:20Z</time>
      </trkpt>
      <trkpt lat="43.39235" lon="5.40469">
        <ele>430.81</ele>
        <time>2020-10-11T13:46:34Z</time>
      </trkpt>
      <trkpt lat="43.39243" lon="5.40471">
        <ele>430.81</ele>
        <time>2020-10-11T13:46:44Z</time>
      </trkpt>
      <trkpt lat="43.39251" lon="5.40474">
        <ele>429.85</ele>
        <time>2020-10-11T13:46:55Z</time>
      </trkpt>
      <trkpt lat="43.39256" lon="5.40481">
        <ele>431.29</ele>
        <time>2020-10-11T13:47:06Z</time>
      </trkpt>
      <trkpt lat="43.39263" lon="5.4049">
        <ele>432.25</ele>
        <time>2020-10-11T13:47:18Z</time>
      </trkpt>
      <trkpt lat="43.39271" lon="5.40499">
        <ele>433.21</ele>
        <time>2020-10-11T13:47:31Z</time>
      </trkpt>
      <trkpt lat="43.39274" lon="5.40505">
        <ele>433.21</ele>
        <time>2020-10-11T13:47:59Z</time>
      </trkpt>
      <trkpt lat="43.39277" lon="5.40505">
        <ele>433.69</ele>
        <time>2020-10-11T13:48:04Z</time>
      </trkpt>
      <trkpt lat="43.39284" lon="5.40507">
        <ele>434.65</ele>
        <time>2020-10-11T13:48:12Z</time>
      </trkpt>
      <trkpt lat="43.3929" lon="5.40504">
        <ele>436.1</ele>
        <time>2020-10-11T13:48:26Z</time>
      </trkpt>
      <trkpt lat="43.39294" lon="5.40505">
        <ele>436.58</ele>
        <time>2020-10-11T13:48:40Z</time>
      </trkpt>
      <trkpt lat="43.39299" lon="5.40506">
        <ele>437.54</ele>
        <time>2020-10-11T13:48:51Z</time>
      </trkpt>
      <trkpt lat="43.39302" lon="5.40504">
        <ele>435.61</ele>
        <time>2020-10-11T13:49:11Z</time>
      </trkpt>
      <trkpt lat="43.39306" lon="5.40508">
        <ele>435.13</ele>
        <time>2020-10-11T13:49:33Z</time>
      </trkpt>
      <trkpt lat="43.39308" lon="5.4051">
        <ele>436.1</ele>
        <time>2020-10-11T13:49:37Z</time>
      </trkpt>
      <trkpt lat="43.39311" lon="5.40512">
        <ele>437.06</ele>
        <time>2020-10-11T13:49:40Z</time>
      </trkpt>
      <trkpt lat="43.39317" lon="5.40515">
        <ele>440.9</ele>
        <time>2020-10-11T13:49:50Z</time>
      </trkpt>
      <trkpt lat="43.39322" lon="5.40518">
        <ele>444.27</ele>
        <time>2020-10-11T13:50:01Z</time>
      </trkpt>
      <trkpt lat="43.39324" lon="5.40518">
        <ele>444.75</ele>
        <time>2020-10-11T13:50:05Z</time>
      </trkpt>
      <trkpt lat="43.39332" lon="5.40521">
        <ele>446.19</ele>
        <time>2020-10-11T13:50:16Z</time>
      </trkpt>
      <trkpt lat="43.39334" lon="5.40522">
        <ele>447.15</ele>
        <time>2020-10-11T13:50:21Z</time>
      </trkpt>
      <trkpt lat="43.39341" lon="5.40527">
        <ele>447.63</ele>
        <time>2020-10-11T13:50:30Z</time>
      </trkpt>
      <trkpt lat="43.39343" lon="5.40529">
        <ele>448.11</ele>
        <time>2020-10-11T13:50:34Z</time>
      </trkpt>
      <trkpt lat="43.3935" lon="5.40534">
        <ele>449.07</ele>
        <time>2020-10-11T13:50:42Z</time>
      </trkpt>
      <trkpt lat="43.39352" lon="5.40536">
        <ele>449.07</ele>
        <time>2020-10-11T13:50:45Z</time>
      </trkpt>
      <trkpt lat="43.3936" lon="5.4054">
        <ele>449.55</ele>
        <time>2020-10-11T13:50:55Z</time>
      </trkpt>
      <trkpt lat="43.39367" lon="5.40547">
        <ele>450.52</ele>
        <time>2020-10-11T13:51:05Z</time>
      </trkpt>
      <trkpt lat="43.39371" lon="5.4055">
        <ele>450.52</ele>
        <time>2020-10-11T13:51:14Z</time>
      </trkpt>
      <trkpt lat="43.39372" lon="5.40553">
        <ele>448.11</ele>
        <time>2020-10-11T13:51:29Z</time>
      </trkpt>
      <trkpt lat="43.39375" lon="5.40558">
        <ele>448.11</ele>
        <time>2020-10-11T13:51:39Z</time>
      </trkpt>
      <trkpt lat="43.39378" lon="5.40558">
        <ele>450.03</ele>
        <time>2020-10-11T13:51:58Z</time>
      </trkpt>
      <trkpt lat="43.39378" lon="5.40565">
        <ele>451</ele>
        <time>2020-10-11T13:52:08Z</time>
      </trkpt>
      <trkpt lat="43.3938" lon="5.4057">
        <ele>451.48</ele>
        <time>2020-10-11T13:52:13Z</time>
      </trkpt>
      <trkpt lat="43.39384" lon="5.40583">
        <ele>452.92</ele>
        <time>2020-10-11T13:52:27Z</time>
      </trkpt>
      <trkpt lat="43.39384" lon="5.40583">
        <ele>453.4</ele>
        <time>2020-10-11T13:52:28Z</time>
      </trkpt>
      <trkpt lat="43.39387" lon="5.40591">
        <ele>454.36</ele>
        <time>2020-10-11T13:52:36Z</time>
      </trkpt>
      <trkpt lat="43.3939" lon="5.40602">
        <ele>455.8</ele>
        <time>2020-10-11T13:52:47Z</time>
      </trkpt>
      <trkpt lat="43.39392" lon="5.40609">
        <ele>457.24</ele>
        <time>2020-10-11T13:52:54Z</time>
      </trkpt>
      <trkpt lat="43.39394" lon="5.40616">
        <ele>456.76</ele>
        <time>2020-10-11T13:53:07Z</time>
      </trkpt>
      <trkpt lat="43.39397" lon="5.40629">
        <ele>455.8</ele>
        <time>2020-10-11T13:53:17Z</time>
      </trkpt>
      <trkpt lat="43.39399" lon="5.40633">
        <ele>456.28</ele>
        <time>2020-10-11T13:53:22Z</time>
      </trkpt>
      <trkpt lat="43.39406" lon="5.40645">
        <ele>455.8</ele>
        <time>2020-10-11T13:53:33Z</time>
      </trkpt>
      <trkpt lat="43.39412" lon="5.40656">
        <ele>457.24</ele>
        <time>2020-10-11T13:53:44Z</time>
      </trkpt>
      <trkpt lat="43.39417" lon="5.40665">
        <ele>459.65</ele>
        <time>2020-10-11T13:53:54Z</time>
      </trkpt>
      <trkpt lat="43.39426" lon="5.40673">
        <ele>460.13</ele>
        <time>2020-10-11T13:54:05Z</time>
      </trkpt>
      <trkpt lat="43.39434" lon="5.40681">
        <ele>460.13</ele>
        <time>2020-10-11T13:54:16Z</time>
      </trkpt>
      <trkpt lat="43.39442" lon="5.40692">
        <ele>462.05</ele>
        <time>2020-10-11T13:54:28Z</time>
      </trkpt>
      <trkpt lat="43.39446" lon="5.40703">
        <ele>462.05</ele>
        <time>2020-10-11T13:54:40Z</time>
      </trkpt>
      <trkpt lat="43.39445" lon="5.40706">
        <ele>462.05</ele>
        <time>2020-10-11T13:54:45Z</time>
      </trkpt>
      <trkpt lat="43.39441" lon="5.4071">
        <ele>462.05</ele>
        <time>2020-10-11T13:54:59Z</time>
      </trkpt>
      <trkpt lat="43.39439" lon="5.40708">
        <ele>463.49</ele>
        <time>2020-10-11T13:55:22Z</time>
      </trkpt>
      <trkpt lat="43.39442" lon="5.40709">
        <ele>463.01</ele>
        <time>2020-10-11T13:55:47Z</time>
      </trkpt>
      <trkpt lat="43.39437" lon="5.40711">
        <ele>462.05</ele>
        <time>2020-10-11T13:55:59Z</time>
      </trkpt>
      <trkpt lat="43.39435" lon="5.40712">
        <ele>463.49</ele>
        <time>2020-10-11T13:56:13Z</time>
      </trkpt>
      <trkpt lat="43.3943" lon="5.40709">
        <ele>465.42</ele>
        <time>2020-10-11T13:56:24Z</time>
      </trkpt>
      <trkpt lat="43.39422" lon="5.40708">
        <ele>467.82</ele>
        <time>2020-10-11T13:56:36Z</time>
      </trkpt>
      <trkpt lat="43.39414" lon="5.40708">
        <ele>468.78</ele>
        <time>2020-10-11T13:56:47Z</time>
      </trkpt>
      <trkpt lat="43.39408" lon="5.40711">
        <ele>470.7</ele>
        <time>2020-10-11T13:56:58Z</time>
      </trkpt>
      <trkpt lat="43.39401" lon="5.40711">
        <ele>471.66</ele>
        <time>2020-10-11T13:57:11Z</time>
      </trkpt>
      <trkpt lat="43.39395" lon="5.40713">
        <ele>472.14</ele>
        <time>2020-10-11T13:57:24Z</time>
      </trkpt>
      <trkpt lat="43.39393" lon="5.40711">
        <ele>471.18</ele>
        <time>2020-10-11T13:57:38Z</time>
      </trkpt>
      <trkpt lat="43.39393" lon="5.40713">
        <ele>472.63</ele>
        <time>2020-10-11T13:58:01Z</time>
      </trkpt>
      <trkpt lat="43.3939" lon="5.40713">
        <ele>475.03</ele>
        <time>2020-10-11T13:58:14Z</time>
      </trkpt>
      <trkpt lat="43.39383" lon="5.40714">
        <ele>475.51</ele>
        <time>2020-10-11T13:58:27Z</time>
      </trkpt>
      <trkpt lat="43.39381" lon="5.40717">
        <ele>475.99</ele>
        <time>2020-10-11T13:58:44Z</time>
      </trkpt>
      <trkpt lat="43.39381" lon="5.40718">
        <ele>476.95</ele>
        <time>2020-10-11T13:59:05Z</time>
      </trkpt>
      <trkpt lat="43.39375" lon="5.40716">
        <ele>479.84</ele>
        <time>2020-10-11T13:59:21Z</time>
      </trkpt>
      <trkpt lat="43.39368" lon="5.40713">
        <ele>483.2</ele>
        <time>2020-10-11T13:59:32Z</time>
      </trkpt>
      <trkpt lat="43.3936" lon="5.40715">
        <ele>484.16</ele>
        <time>2020-10-11T13:59:47Z</time>
      </trkpt>
      <trkpt lat="43.39357" lon="5.40713">
        <ele>486.56</ele>
        <time>2020-10-11T14:00:05Z</time>
      </trkpt>
      <trkpt lat="43.39357" lon="5.40715">
        <ele>486.56</ele>
        <time>2020-10-11T14:00:17Z</time>
      </trkpt>
      <trkpt lat="43.39354" lon="5.40709">
        <ele>484.16</ele>
        <time>2020-10-11T14:00:39Z</time>
      </trkpt>
      <trkpt lat="43.39353" lon="5.40708">
        <ele>484.16</ele>
        <time>2020-10-11T14:00:40Z</time>
      </trkpt>
      <trkpt lat="43.39348" lon="5.40704">
        <ele>486.08</ele>
        <time>2020-10-11T14:00:52Z</time>
      </trkpt>
      <trkpt lat="43.3934" lon="5.40701">
        <ele>488.01</ele>
        <time>2020-10-11T14:01:04Z</time>
      </trkpt>
      <trkpt lat="43.39335" lon="5.40702">
        <ele>489.45</ele>
        <time>2020-10-11T14:01:18Z</time>
      </trkpt>
      <trkpt lat="43.39333" lon="5.40703">
        <ele>489.93</ele>
        <time>2020-10-11T14:01:33Z</time>
      </trkpt>
      <trkpt lat="43.39325" lon="5.40702">
        <ele>492.81</ele>
        <time>2020-10-11T14:01:48Z</time>
      </trkpt>
      <trkpt lat="43.39319" lon="5.40706">
        <ele>493.77</ele>
        <time>2020-10-11T14:02:00Z</time>
      </trkpt>
      <trkpt lat="43.39316" lon="5.40707">
        <ele>492.33</ele>
        <time>2020-10-11T14:02:24Z</time>
      </trkpt>
      <trkpt lat="43.39315" lon="5.40707">
        <ele>491.85</ele>
        <time>2020-10-11T14:02:43Z</time>
      </trkpt>
      <trkpt lat="43.39315" lon="5.40706">
        <ele>490.41</ele>
        <time>2020-10-11T14:03:03Z</time>
      </trkpt>
      <trkpt lat="43.39316" lon="5.40705">
        <ele>490.89</ele>
        <time>2020-10-11T14:03:21Z</time>
      </trkpt>
      <trkpt lat="43.39316" lon="5.40706">
        <ele>491.37</ele>
        <time>2020-10-11T14:03:41Z</time>
      </trkpt>
      <trkpt lat="43.39308" lon="5.40707">
        <ele>492.33</ele>
        <time>2020-10-11T14:03:53Z</time>
      </trkpt>
      <trkpt lat="43.393" lon="5.40708">
        <ele>495.22</ele>
        <time>2020-10-11T14:04:04Z</time>
      </trkpt>
      <trkpt lat="43.3929" lon="5.40709">
        <ele>497.62</ele>
        <time>2020-10-11T14:04:15Z</time>
      </trkpt>
      <trkpt lat="43.39284" lon="5.40712">
        <ele>498.1</ele>
        <time>2020-10-11T14:04:28Z</time>
      </trkpt>
      <trkpt lat="43.39282" lon="5.40712">
        <ele>496.18</ele>
        <time>2020-10-11T14:04:46Z</time>
      </trkpt>
      <trkpt lat="43.39281" lon="5.40712">
        <ele>495.22</ele>
        <time>2020-10-11T14:04:59Z</time>
      </trkpt>
      <trkpt lat="43.39275" lon="5.40711">
        <ele>494.74</ele>
        <time>2020-10-11T14:05:09Z</time>
      </trkpt>
      <trkpt lat="43.39274" lon="5.40711">
        <ele>495.22</ele>
        <time>2020-10-11T14:05:10Z</time>
      </trkpt>
      <trkpt lat="43.39268" lon="5.40714">
        <ele>495.22</ele>
        <time>2020-10-11T14:05:18Z</time>
      </trkpt>
      <trkpt lat="43.39263" lon="5.40714">
        <ele>495.7</ele>
        <time>2020-10-11T14:05:23Z</time>
      </trkpt>
      <trkpt lat="43.39261" lon="5.40713">
        <ele>496.18</ele>
        <time>2020-10-11T14:05:25Z</time>
      </trkpt>
      <trkpt lat="43.39258" lon="5.40717">
        <ele>495.7</ele>
        <time>2020-10-11T14:05:29Z</time>
      </trkpt>
      <trkpt lat="43.39251" lon="5.40716">
        <ele>497.62</ele>
        <time>2020-10-11T14:05:42Z</time>
      </trkpt>
      <trkpt lat="43.39246" lon="5.40717">
        <ele>498.1</ele>
        <time>2020-10-11T14:05:53Z</time>
      </trkpt>
      <trkpt lat="43.39244" lon="5.40716">
        <ele>499.06</ele>
        <time>2020-10-11T14:06:07Z</time>
      </trkpt>
      <trkpt lat="43.39244" lon="5.40718">
        <ele>499.54</ele>
        <time>2020-10-11T14:06:26Z</time>
      </trkpt>
      <trkpt lat="43.3924" lon="5.40715">
        <ele>498.58</ele>
        <time>2020-10-11T14:06:37Z</time>
      </trkpt>
      <trkpt lat="43.39239" lon="5.40715">
        <ele>498.58</ele>
        <time>2020-10-11T14:06:39Z</time>
      </trkpt>
      <trkpt lat="43.39229" lon="5.40711">
        <ele>500.5</ele>
        <time>2020-10-11T14:06:50Z</time>
      </trkpt>
      <trkpt lat="43.39221" lon="5.40708">
        <ele>500.98</ele>
        <time>2020-10-11T14:07:00Z</time>
      </trkpt>
      <trkpt lat="43.39213" lon="5.40707">
        <ele>502.43</ele>
        <time>2020-10-11T14:07:12Z</time>
      </trkpt>
      <trkpt lat="43.39207" lon="5.40709">
        <ele>505.79</ele>
        <time>2020-10-11T14:07:25Z</time>
      </trkpt>
      <trkpt lat="43.39202" lon="5.40709">
        <ele>506.75</ele>
        <time>2020-10-11T14:07:39Z</time>
      </trkpt>
      <trkpt lat="43.39199" lon="5.40711">
        <ele>508.67</ele>
        <time>2020-10-11T14:07:59Z</time>
      </trkpt>
      <trkpt lat="43.39192" lon="5.40715">
        <ele>511.56</ele>
        <time>2020-10-11T14:08:12Z</time>
      </trkpt>
      <trkpt lat="43.39187" lon="5.40717">
        <ele>513</ele>
        <time>2020-10-11T14:08:17Z</time>
      </trkpt>
      <trkpt lat="43.39178" lon="5.40723">
        <ele>515.4</ele>
        <time>2020-10-11T14:08:28Z</time>
      </trkpt>
      <trkpt lat="43.39172" lon="5.4073">
        <ele>517.33</ele>
        <time>2020-10-11T14:08:39Z</time>
      </trkpt>
      <trkpt lat="43.39168" lon="5.40735">
        <ele>518.77</ele>
        <time>2020-10-11T14:08:50Z</time>
      </trkpt>
      <trkpt lat="43.39166" lon="5.40736">
        <ele>519.25</ele>
        <time>2020-10-11T14:08:53Z</time>
      </trkpt>
      <trkpt lat="43.39164" lon="5.40736">
        <ele>519.73</ele>
        <time>2020-10-11T14:08:55Z</time>
      </trkpt>
      <trkpt lat="43.39157" lon="5.40744">
        <ele>521.65</ele>
        <time>2020-10-11T14:09:08Z</time>
      </trkpt>
      <trkpt lat="43.39154" lon="5.40748">
        <ele>523.09</ele>
        <time>2020-10-11T14:09:25Z</time>
      </trkpt>
      <trkpt lat="43.39153" lon="5.40748">
        <ele>522.13</ele>
        <time>2020-10-11T14:09:51Z</time>
      </trkpt>
      <trkpt lat="43.39153" lon="5.40748">
        <ele>522.13</ele>
        <time>2020-10-11T14:10:17Z</time>
      </trkpt>
      <trkpt lat="43.39152" lon="5.40746">
        <ele>521.17</ele>
        <time>2020-10-11T14:10:40Z</time>
      </trkpt>
      <trkpt lat="43.39154" lon="5.40747">
        <ele>521.17</ele>
        <time>2020-10-11T14:11:03Z</time>
      </trkpt>
      <trkpt lat="43.39153" lon="5.4075">
        <ele>521.65</ele>
        <time>2020-10-11T14:11:06Z</time>
      </trkpt>
      <trkpt lat="43.39145" lon="5.40759">
        <ele>525.02</ele>
        <time>2020-10-11T14:11:18Z</time>
      </trkpt>
      <trkpt lat="43.39135" lon="5.40766">
        <ele>528.86</ele>
        <time>2020-10-11T14:11:30Z</time>
      </trkpt>
      <trkpt lat="43.39128" lon="5.4077">
        <ele>531.75</ele>
        <time>2020-10-11T14:11:42Z</time>
      </trkpt>
      <trkpt lat="43.39121" lon="5.40775">
        <ele>533.19</ele>
        <time>2020-10-11T14:11:54Z</time>
      </trkpt>
      <trkpt lat="43.39113" lon="5.40783">
        <ele>535.11</ele>
        <time>2020-10-11T14:12:07Z</time>
      </trkpt>
      <trkpt lat="43.39102" lon="5.40792">
        <ele>538.48</ele>
        <time>2020-10-11T14:12:23Z</time>
      </trkpt>
      <trkpt lat="43.39095" lon="5.40798">
        <ele>539.92</ele>
        <time>2020-10-11T14:12:35Z</time>
      </trkpt>
      <trkpt lat="43.3909" lon="5.40802">
        <ele>539.92</ele>
        <time>2020-10-11T14:12:47Z</time>
      </trkpt>
      <trkpt lat="43.39089" lon="5.408">
        <ele>539.92</ele>
        <time>2020-10-11T14:12:58Z</time>
      </trkpt>
      <trkpt lat="43.39091" lon="5.40796">
        <ele>538.96</ele>
        <time>2020-10-11T14:13:12Z</time>
      </trkpt>
      <trkpt lat="43.39094" lon="5.4079">
        <ele>538.48</ele>
        <time>2020-10-11T14:13:19Z</time>
      </trkpt>
      <trkpt lat="43.39097" lon="5.40784">
        <ele>538.96</ele>
        <time>2020-10-11T14:13:25Z</time>
      </trkpt>
      <trkpt lat="43.39102" lon="5.40768">
        <ele>541.84</ele>
        <time>2020-10-11T14:13:39Z</time>
      </trkpt>
      <trkpt lat="43.39104" lon="5.40759">
        <ele>541.84</ele>
        <time>2020-10-11T14:13:50Z</time>
      </trkpt>
      <trkpt lat="43.39104" lon="5.40757">
        <ele>541.84</ele>
        <time>2020-10-11T14:14:03Z</time>
      </trkpt>
      <trkpt lat="43.39102" lon="5.40749">
        <ele>543.28</ele>
        <time>2020-10-11T14:14:15Z</time>
      </trkpt>
      <trkpt lat="43.391" lon="5.40744">
        <ele>542.8</ele>
        <time>2020-10-11T14:14:29Z</time>
      </trkpt>
      <trkpt lat="43.39098" lon="5.40738">
        <ele>542.32</ele>
        <time>2020-10-11T14:14:47Z</time>
      </trkpt>
      <trkpt lat="43.39094" lon="5.40735">
        <ele>541.84</ele>
        <time>2020-10-11T14:15:03Z</time>
      </trkpt>
      <trkpt lat="43.39096" lon="5.40733">
        <ele>542.32</ele>
        <time>2020-10-11T14:15:19Z</time>
      </trkpt>
      <trkpt lat="43.39093" lon="5.40732">
        <ele>541.36</ele>
        <time>2020-10-11T14:15:35Z</time>
      </trkpt>
      <trkpt lat="43.39094" lon="5.40731">
        <ele>542.8</ele>
        <time>2020-10-11T14:15:58Z</time>
      </trkpt>
      <trkpt lat="43.39094" lon="5.4073">
        <ele>543.28</ele>
        <time>2020-10-11T14:16:25Z</time>
      </trkpt>
      <trkpt lat="43.39093" lon="5.40732">
        <ele>543.76</ele>
        <time>2020-10-11T14:16:43Z</time>
      </trkpt>
      <trkpt lat="43.39092" lon="5.40733">
        <ele>546.65</ele>
        <time>2020-10-11T14:16:53Z</time>
      </trkpt>
      <trkpt lat="43.39091" lon="5.40733">
        <ele>547.61</ele>
        <time>2020-10-11T14:17:08Z</time>
      </trkpt>
      <trkpt lat="43.39092" lon="5.40732">
        <ele>547.13</ele>
        <time>2020-10-11T14:17:37Z</time>
      </trkpt>
      <trkpt lat="43.39091" lon="5.40733">
        <ele>544.72</ele>
        <time>2020-10-11T14:18:11Z</time>
      </trkpt>
      <trkpt lat="43.39092" lon="5.40735">
        <ele>544.24</ele>
        <time>2020-10-11T14:18:18Z</time>
      </trkpt>
      <trkpt lat="43.39093" lon="5.40735">
        <ele>543.76</ele>
        <time>2020-10-11T14:18:31Z</time>
      </trkpt>
      <trkpt lat="43.39093" lon="5.40735">
        <ele>543.28</ele>
        <time>2020-10-11T14:18:45Z</time>
      </trkpt>
      <trkpt lat="43.39093" lon="5.40732">
        <ele>542.8</ele>
        <time>2020-10-11T14:18:58Z</time>
      </trkpt>
      <trkpt lat="43.39094" lon="5.40731">
        <ele>543.28</ele>
        <time>2020-10-11T14:19:20Z</time>
      </trkpt>
      <trkpt lat="43.39095" lon="5.4073">
        <ele>544.24</ele>
        <time>2020-10-11T14:19:33Z</time>
      </trkpt>
      <trkpt lat="43.39095" lon="5.4073">
        <ele>545.2</ele>
        <time>2020-10-11T14:19:52Z</time>
      </trkpt>
      <trkpt lat="43.39094" lon="5.40733">
        <ele>544.72</ele>
        <time>2020-10-11T14:20:09Z</time>
      </trkpt>
      <trkpt lat="43.39094" lon="5.40733">
        <ele>543.76</ele>
        <time>2020-10-11T14:20:24Z</time>
      </trkpt>
      <trkpt lat="43.39094" lon="5.40733">
        <ele>543.28</ele>
        <time>2020-10-11T14:20:42Z</time>
      </trkpt>
      <trkpt lat="43.39093" lon="5.40735">
        <ele>541.84</ele>
        <time>2020-10-11T14:20:53Z</time>
      </trkpt>
      <trkpt lat="43.39094" lon="5.40734">
        <ele>541.84</ele>
        <time>2020-10-11T14:21:13Z</time>
      </trkpt>
      <trkpt lat="43.39093" lon="5.40734">
        <ele>541.84</ele>
        <time>2020-10-11T14:21:20Z</time>
      </trkpt>
      <trkpt lat="43.39092" lon="5.40735">
        <ele>542.8</ele>
        <time>2020-10-11T14:21:23Z</time>
      </trkpt>
      <trkpt lat="43.39095" lon="5.40737">
        <ele>544.24</ele>
        <time>2020-10-11T14:21:37Z</time>
      </trkpt>
      <trkpt lat="43.39096" lon="5.40738">
        <ele>544.24</ele>
        <time>2020-10-11T14:21:41Z</time>
      </trkpt>
      <trkpt lat="43.39101" lon="5.40745">
        <ele>543.28</ele>
        <time>2020-10-11T14:21:49Z</time>
      </trkpt>
      <trkpt lat="43.39099" lon="5.40754">
        <ele>540.88</ele>
        <time>2020-10-11T14:22:02Z</time>
      </trkpt>
      <trkpt lat="43.39098" lon="5.40756">
        <ele>540.4</ele>
        <time>2020-10-11T14:22:04Z</time>
      </trkpt>
      <trkpt lat="43.39097" lon="5.4076">
        <ele>540.4</ele>
        <time>2020-10-11T14:22:07Z</time>
      </trkpt>
      <trkpt lat="43.39096" lon="5.40764">
        <ele>539.92</ele>
        <time>2020-10-11T14:22:10Z</time>
      </trkpt>
      <trkpt lat="43.39093" lon="5.40774">
        <ele>539.44</ele>
        <time>2020-10-11T14:22:18Z</time>
      </trkpt>
      <trkpt lat="43.39087" lon="5.40792">
        <ele>539.44</ele>
        <time>2020-10-11T14:22:32Z</time>
      </trkpt>
      <trkpt lat="43.39085" lon="5.408">
        <ele>537.99</ele>
        <time>2020-10-11T14:22:37Z</time>
      </trkpt>
      <trkpt lat="43.39082" lon="5.40808">
        <ele>536.07</ele>
        <time>2020-10-11T14:22:44Z</time>
      </trkpt>
      <trkpt lat="43.39076" lon="5.4082">
        <ele>536.55</ele>
        <time>2020-10-11T14:22:53Z</time>
      </trkpt>
      <trkpt lat="43.39075" lon="5.40822">
        <ele>536.07</ele>
        <time>2020-10-11T14:22:55Z</time>
      </trkpt>
      <trkpt lat="43.39071" lon="5.40835">
        <ele>537.03</ele>
        <time>2020-10-11T14:23:08Z</time>
      </trkpt>
      <trkpt lat="43.39071" lon="5.40836">
        <ele>537.03</ele>
        <time>2020-10-11T14:23:09Z</time>
      </trkpt>
      <trkpt lat="43.39067" lon="5.40845">
        <ele>537.03</ele>
        <time>2020-10-11T14:23:21Z</time>
      </trkpt>
      <trkpt lat="43.39065" lon="5.40852">
        <ele>536.55</ele>
        <time>2020-10-11T14:23:29Z</time>
      </trkpt>
      <trkpt lat="43.39059" lon="5.40867">
        <ele>536.07</ele>
        <time>2020-10-11T14:23:40Z</time>
      </trkpt>
      <trkpt lat="43.39056" lon="5.40878">
        <ele>535.11</ele>
        <time>2020-10-11T14:23:53Z</time>
      </trkpt>
      <trkpt lat="43.39052" lon="5.40886">
        <ele>534.15</ele>
        <time>2020-10-11T14:24:01Z</time>
      </trkpt>
      <trkpt lat="43.3905" lon="5.40898">
        <ele>534.63</ele>
        <time>2020-10-11T14:24:12Z</time>
      </trkpt>
      <trkpt lat="43.39048" lon="5.40903">
        <ele>533.67</ele>
        <time>2020-10-11T14:24:16Z</time>
      </trkpt>
      <trkpt lat="43.39043" lon="5.40915">
        <ele>533.67</ele>
        <time>2020-10-11T14:24:27Z</time>
      </trkpt>
      <trkpt lat="43.39042" lon="5.4092">
        <ele>535.59</ele>
        <time>2020-10-11T14:24:38Z</time>
      </trkpt>
      <trkpt lat="43.39042" lon="5.40924">
        <ele>535.59</ele>
        <time>2020-10-11T14:24:55Z</time>
      </trkpt>
      <trkpt lat="43.39044" lon="5.40925">
        <ele>536.07</ele>
        <time>2020-10-11T14:25:12Z</time>
      </trkpt>
      <trkpt lat="43.39043" lon="5.40926">
        <ele>534.63</ele>
        <time>2020-10-11T14:25:24Z</time>
      </trkpt>
      <trkpt lat="43.39041" lon="5.40931">
        <ele>534.15</ele>
        <time>2020-10-11T14:25:36Z</time>
      </trkpt>
      <trkpt lat="43.39041" lon="5.40932">
        <ele>533.67</ele>
        <time>2020-10-11T14:25:38Z</time>
      </trkpt>
      <trkpt lat="43.39041" lon="5.40928">
        <ele>533.19</ele>
        <time>2020-10-11T14:25:41Z</time>
      </trkpt>
      <trkpt lat="43.39037" lon="5.40927">
        <ele>533.19</ele>
        <time>2020-10-11T14:25:52Z</time>
      </trkpt>
      <trkpt lat="43.39035" lon="5.40926">
        <ele>531.75</ele>
        <time>2020-10-11T14:26:19Z</time>
      </trkpt>
      <trkpt lat="43.39037" lon="5.40928">
        <ele>532.23</ele>
        <time>2020-10-11T14:26:26Z</time>
      </trkpt>
      <trkpt lat="43.39039" lon="5.40932">
        <ele>532.23</ele>
        <time>2020-10-11T14:26:29Z</time>
      </trkpt>
      <trkpt lat="43.39034" lon="5.40948">
        <ele>534.15</ele>
        <time>2020-10-11T14:26:40Z</time>
      </trkpt>
      <trkpt lat="43.39032" lon="5.40951">
        <ele>534.63</ele>
        <time>2020-10-11T14:26:42Z</time>
      </trkpt>
      <trkpt lat="43.39031" lon="5.40958">
        <ele>534.63</ele>
        <time>2020-10-11T14:26:46Z</time>
      </trkpt>
      <trkpt lat="43.39028" lon="5.40968">
        <ele>535.11</ele>
        <time>2020-10-11T14:26:52Z</time>
      </trkpt>
      <trkpt lat="43.39023" lon="5.40994">
        <ele>533.67</ele>
        <time>2020-10-11T14:27:04Z</time>
      </trkpt>
      <trkpt lat="43.39023" lon="5.41011">
        <ele>531.27</ele>
        <time>2020-10-11T14:27:19Z</time>
      </trkpt>
      <trkpt lat="43.39024" lon="5.41022">
        <ele>528.86</ele>
        <time>2020-10-11T14:27:29Z</time>
      </trkpt>
      <trkpt lat="43.39024" lon="5.41032">
        <ele>527.9</ele>
        <time>2020-10-11T14:27:38Z</time>
      </trkpt>
      <trkpt lat="43.39025" lon="5.41038">
        <ele>528.86</ele>
        <time>2020-10-11T14:27:52Z</time>
      </trkpt>
      <trkpt lat="43.39025" lon="5.41047">
        <ele>528.38</ele>
        <time>2020-10-11T14:28:01Z</time>
      </trkpt>
      <trkpt lat="43.39024" lon="5.41057">
        <ele>526.46</ele>
        <time>2020-10-11T14:28:11Z</time>
      </trkpt>
      <trkpt lat="43.39023" lon="5.41062">
        <ele>525.98</ele>
        <time>2020-10-11T14:28:15Z</time>
      </trkpt>
      <trkpt lat="43.3902" lon="5.41075">
        <ele>525.98</ele>
        <time>2020-10-11T14:28:28Z</time>
      </trkpt>
      <trkpt lat="43.39018" lon="5.41081">
        <ele>526.94</ele>
        <time>2020-10-11T14:28:34Z</time>
      </trkpt>
      <trkpt lat="43.39016" lon="5.41086">
        <ele>526.46</ele>
        <time>2020-10-11T14:28:38Z</time>
      </trkpt>
      <trkpt lat="43.39011" lon="5.41102">
        <ele>524.54</ele>
        <time>2020-10-11T14:28:50Z</time>
      </trkpt>
      <trkpt lat="43.39008" lon="5.41113">
        <ele>521.17</ele>
        <time>2020-10-11T14:28:59Z</time>
      </trkpt>
      <trkpt lat="43.39006" lon="5.41128">
        <ele>516.85</ele>
        <time>2020-10-11T14:29:11Z</time>
      </trkpt>
      <trkpt lat="43.39004" lon="5.41143">
        <ele>515.4</ele>
        <time>2020-10-11T14:29:22Z</time>
      </trkpt>
      <trkpt lat="43.39004" lon="5.41148">
        <ele>513.96</ele>
        <time>2020-10-11T14:29:26Z</time>
      </trkpt>
      <trkpt lat="43.39002" lon="5.41159">
        <ele>510.6</ele>
        <time>2020-10-11T14:29:35Z</time>
      </trkpt>
      <trkpt lat="43.39" lon="5.41173">
        <ele>509.16</ele>
        <time>2020-10-11T14:29:48Z</time>
      </trkpt>
      <trkpt lat="43.39002" lon="5.4119">
        <ele>507.23</ele>
        <time>2020-10-11T14:30:01Z</time>
      </trkpt>
      <trkpt lat="43.39004" lon="5.41202">
        <ele>511.56</ele>
        <time>2020-10-11T14:30:15Z</time>
      </trkpt>
      <trkpt lat="43.39006" lon="5.41208">
        <ele>513</ele>
        <time>2020-10-11T14:30:19Z</time>
      </trkpt>
      <trkpt lat="43.39008" lon="5.41215">
        <ele>514.44</ele>
        <time>2020-10-11T14:30:25Z</time>
      </trkpt>
      <trkpt lat="43.3901" lon="5.4122">
        <ele>515.4</ele>
        <time>2020-10-11T14:30:29Z</time>
      </trkpt>
      <trkpt lat="43.39013" lon="5.4123">
        <ele>516.37</ele>
        <time>2020-10-11T14:30:37Z</time>
      </trkpt>
      <trkpt lat="43.39016" lon="5.41249">
        <ele>516.85</ele>
        <time>2020-10-11T14:30:51Z</time>
      </trkpt>
      <trkpt lat="43.39017" lon="5.41263">
        <ele>520.21</ele>
        <time>2020-10-11T14:31:02Z</time>
      </trkpt>
      <trkpt lat="43.39018" lon="5.41279">
        <ele>522.13</ele>
        <time>2020-10-11T14:31:14Z</time>
      </trkpt>
      <trkpt lat="43.39017" lon="5.41286">
        <ele>522.13</ele>
        <time>2020-10-11T14:31:19Z</time>
      </trkpt>
      <trkpt lat="43.39016" lon="5.41304">
        <ele>522.61</ele>
        <time>2020-10-11T14:31:31Z</time>
      </trkpt>
      <trkpt lat="43.39016" lon="5.41314">
        <ele>523.09</ele>
        <time>2020-10-11T14:31:37Z</time>
      </trkpt>
      <trkpt lat="43.39014" lon="5.41323">
        <ele>524.54</ele>
        <time>2020-10-11T14:31:44Z</time>
      </trkpt>
      <trkpt lat="43.3901" lon="5.41333">
        <ele>525.02</ele>
        <time>2020-10-11T14:31:53Z</time>
      </trkpt>
      <trkpt lat="43.39007" lon="5.41341">
        <ele>525.02</ele>
        <time>2020-10-11T14:31:59Z</time>
      </trkpt>
      <trkpt lat="43.39005" lon="5.41344">
        <ele>525.02</ele>
        <time>2020-10-11T14:32:01Z</time>
      </trkpt>
      <trkpt lat="43.39004" lon="5.41347">
        <ele>524.54</ele>
        <time>2020-10-11T14:32:03Z</time>
      </trkpt>
      <trkpt lat="43.39002" lon="5.4135">
        <ele>524.06</ele>
        <time>2020-10-11T14:32:06Z</time>
      </trkpt>
      <trkpt lat="43.39001" lon="5.41352">
        <ele>524.06</ele>
        <time>2020-10-11T14:32:08Z</time>
      </trkpt>
      <trkpt lat="43.38992" lon="5.41364">
        <ele>522.13</ele>
        <time>2020-10-11T14:32:19Z</time>
      </trkpt>
      <trkpt lat="43.38982" lon="5.41374">
        <ele>523.58</ele>
        <time>2020-10-11T14:32:31Z</time>
      </trkpt>
      <trkpt lat="43.38979" lon="5.41378">
        <ele>524.54</ele>
        <time>2020-10-11T14:32:36Z</time>
      </trkpt>
      <trkpt lat="43.38975" lon="5.41388">
        <ele>525.02</ele>
        <time>2020-10-11T14:32:44Z</time>
      </trkpt>
      <trkpt lat="43.38969" lon="5.41397">
        <ele>527.9</ele>
        <time>2020-10-11T14:32:56Z</time>
      </trkpt>
      <trkpt lat="43.38964" lon="5.41409">
        <ele>530.79</ele>
        <time>2020-10-11T14:33:08Z</time>
      </trkpt>
      <trkpt lat="43.38962" lon="5.41414">
        <ele>531.27</ele>
        <time>2020-10-11T14:33:13Z</time>
      </trkpt>
      <trkpt lat="43.38958" lon="5.41427">
        <ele>529.34</ele>
        <time>2020-10-11T14:33:23Z</time>
      </trkpt>
      <trkpt lat="43.38954" lon="5.41438">
        <ele>531.27</ele>
        <time>2020-10-11T14:33:33Z</time>
      </trkpt>
      <trkpt lat="43.38953" lon="5.41439">
        <ele>531.27</ele>
        <time>2020-10-11T14:33:34Z</time>
      </trkpt>
      <trkpt lat="43.38952" lon="5.41443">
        <ele>531.27</ele>
        <time>2020-10-11T14:33:38Z</time>
      </trkpt>
      <trkpt lat="43.38948" lon="5.41452">
        <ele>531.75</ele>
        <time>2020-10-11T14:33:46Z</time>
      </trkpt>
      <trkpt lat="43.38943" lon="5.41465">
        <ele>533.67</ele>
        <time>2020-10-11T14:33:57Z</time>
      </trkpt>
      <trkpt lat="43.38943" lon="5.4147">
        <ele>534.15</ele>
        <time>2020-10-11T14:34:01Z</time>
      </trkpt>
      <trkpt lat="43.38941" lon="5.41485">
        <ele>536.55</ele>
        <time>2020-10-11T14:34:13Z</time>
      </trkpt>
      <trkpt lat="43.38941" lon="5.41487">
        <ele>536.55</ele>
        <time>2020-10-11T14:34:14Z</time>
      </trkpt>
      <trkpt lat="43.38941" lon="5.41497">
        <ele>536.07</ele>
        <time>2020-10-11T14:34:21Z</time>
      </trkpt>
      <trkpt lat="43.3894" lon="5.4151">
        <ele>536.55</ele>
        <time>2020-10-11T14:34:31Z</time>
      </trkpt>
      <trkpt lat="43.38938" lon="5.41521">
        <ele>537.51</ele>
        <time>2020-10-11T14:34:40Z</time>
      </trkpt>
      <trkpt lat="43.38936" lon="5.41528">
        <ele>537.51</ele>
        <time>2020-10-11T14:34:46Z</time>
      </trkpt>
      <trkpt lat="43.38934" lon="5.41537">
        <ele>537.99</ele>
        <time>2020-10-11T14:34:59Z</time>
      </trkpt>
      <trkpt lat="43.3893" lon="5.41546">
        <ele>537.03</ele>
        <time>2020-10-11T14:35:10Z</time>
      </trkpt>
      <trkpt lat="43.38928" lon="5.41551">
        <ele>537.03</ele>
        <time>2020-10-11T14:35:15Z</time>
      </trkpt>
      <trkpt lat="43.38925" lon="5.41555">
        <ele>536.07</ele>
        <time>2020-10-11T14:35:22Z</time>
      </trkpt>
      <trkpt lat="43.38922" lon="5.4156">
        <ele>536.07</ele>
        <time>2020-10-11T14:35:33Z</time>
      </trkpt>
      <trkpt lat="43.3892" lon="5.41562">
        <ele>534.15</ele>
        <time>2020-10-11T14:36:02Z</time>
      </trkpt>
      <trkpt lat="43.3892" lon="5.41563">
        <ele>532.23</ele>
        <time>2020-10-11T14:36:21Z</time>
      </trkpt>
      <trkpt lat="43.3892" lon="5.41563">
        <ele>531.75</ele>
        <time>2020-10-11T14:36:43Z</time>
      </trkpt>
      <trkpt lat="43.3892" lon="5.41564">
        <ele>532.71</ele>
        <time>2020-10-11T14:36:56Z</time>
      </trkpt>
      <trkpt lat="43.3892" lon="5.41564">
        <ele>532.71</ele>
        <time>2020-10-11T14:36:58Z</time>
      </trkpt>
      <trkpt lat="43.38919" lon="5.4157">
        <ele>534.15</ele>
        <time>2020-10-11T14:37:10Z</time>
      </trkpt>
      <trkpt lat="43.38918" lon="5.41572">
        <ele>534.15</ele>
        <time>2020-10-11T14:37:25Z</time>
      </trkpt>
      <trkpt lat="43.38918" lon="5.41575">
        <ele>533.67</ele>
        <time>2020-10-11T14:37:48Z</time>
      </trkpt>
      <trkpt lat="43.38917" lon="5.41579">
        <ele>530.79</ele>
        <time>2020-10-11T14:38:05Z</time>
      </trkpt>
      <trkpt lat="43.38917" lon="5.41581">
        <ele>530.79</ele>
        <time>2020-10-11T14:38:23Z</time>
      </trkpt>
      <trkpt lat="43.38918" lon="5.4158">
        <ele>531.75</ele>
        <time>2020-10-11T14:38:42Z</time>
      </trkpt>
      <trkpt lat="43.3892" lon="5.41579">
        <ele>530.79</ele>
        <time>2020-10-11T14:39:05Z</time>
      </trkpt>
      <trkpt lat="43.38915" lon="5.41585">
        <ele>530.79</ele>
        <time>2020-10-11T14:39:26Z</time>
      </trkpt>
      <trkpt lat="43.38915" lon="5.41585">
        <ele>531.27</ele>
        <time>2020-10-11T14:39:43Z</time>
      </trkpt>
      <trkpt lat="43.38914" lon="5.41586">
        <ele>531.27</ele>
        <time>2020-10-11T14:39:45Z</time>
      </trkpt>
      <trkpt lat="43.3891" lon="5.41591">
        <ele>532.23</ele>
        <time>2020-10-11T14:39:56Z</time>
      </trkpt>
      <trkpt lat="43.38909" lon="5.41593">
        <ele>532.23</ele>
        <time>2020-10-11T14:39:59Z</time>
      </trkpt>
      <trkpt lat="43.38904" lon="5.41601">
        <ele>530.79</ele>
        <time>2020-10-11T14:40:10Z</time>
      </trkpt>
      <trkpt lat="43.38895" lon="5.41611">
        <ele>529.34</ele>
        <time>2020-10-11T14:40:23Z</time>
      </trkpt>
      <trkpt lat="43.38888" lon="5.41621">
        <ele>529.34</ele>
        <time>2020-10-11T14:40:35Z</time>
      </trkpt>
      <trkpt lat="43.38881" lon="5.41626">
        <ele>528.38</ele>
        <time>2020-10-11T14:40:46Z</time>
      </trkpt>
      <trkpt lat="43.3888" lon="5.41629">
        <ele>529.34</ele>
        <time>2020-10-11T14:41:06Z</time>
      </trkpt>
      <trkpt lat="43.38877" lon="5.4163">
        <ele>528.86</ele>
        <time>2020-10-11T14:41:25Z</time>
      </trkpt>
      <trkpt lat="43.38872" lon="5.41632">
        <ele>527.42</ele>
        <time>2020-10-11T14:41:35Z</time>
      </trkpt>
      <trkpt lat="43.38866" lon="5.41634">
        <ele>525.02</ele>
        <time>2020-10-11T14:41:45Z</time>
      </trkpt>
      <trkpt lat="43.3886" lon="5.41639">
        <ele>525.5</ele>
        <time>2020-10-11T14:41:55Z</time>
      </trkpt>
      <trkpt lat="43.38857" lon="5.41643">
        <ele>525.98</ele>
        <time>2020-10-11T14:42:01Z</time>
      </trkpt>
      <trkpt lat="43.38854" lon="5.41651">
        <ele>525.5</ele>
        <time>2020-10-11T14:42:07Z</time>
      </trkpt>
      <trkpt lat="43.38854" lon="5.41654">
        <ele>524.54</ele>
        <time>2020-10-11T14:42:09Z</time>
      </trkpt>
      <trkpt lat="43.38851" lon="5.4166">
        <ele>523.09</ele>
        <time>2020-10-11T14:42:13Z</time>
      </trkpt>
      <trkpt lat="43.38849" lon="5.41668">
        <ele>522.13</ele>
        <time>2020-10-11T14:42:20Z</time>
      </trkpt>
      <trkpt lat="43.38846" lon="5.41683">
        <ele>520.21</ele>
        <time>2020-10-11T14:42:33Z</time>
      </trkpt>
      <trkpt lat="43.38841" lon="5.41691">
        <ele>519.73</ele>
        <time>2020-10-11T14:42:43Z</time>
      </trkpt>
      <trkpt lat="43.3884" lon="5.41694">
        <ele>519.25</ele>
        <time>2020-10-11T14:42:45Z</time>
      </trkpt>
      <trkpt lat="43.38838" lon="5.417">
        <ele>519.25</ele>
        <time>2020-10-11T14:42:49Z</time>
      </trkpt>
      <trkpt lat="43.38834" lon="5.41704">
        <ele>518.29</ele>
        <time>2020-10-11T14:42:53Z</time>
      </trkpt>
      <trkpt lat="43.38826" lon="5.41715">
        <ele>518.29</ele>
        <time>2020-10-11T14:43:04Z</time>
      </trkpt>
      <trkpt lat="43.38818" lon="5.41724">
        <ele>517.33</ele>
        <time>2020-10-11T14:43:15Z</time>
      </trkpt>
      <trkpt lat="43.38811" lon="5.41733">
        <ele>516.85</ele>
        <time>2020-10-11T14:43:26Z</time>
      </trkpt>
      <trkpt lat="43.38803" lon="5.41736">
        <ele>517.81</ele>
        <time>2020-10-11T14:43:33Z</time>
      </trkpt>
      <trkpt lat="43.38799" lon="5.41743">
        <ele>519.25</ele>
        <time>2020-10-11T14:43:44Z</time>
      </trkpt>
      <trkpt lat="43.38791" lon="5.4175">
        <ele>517.33</ele>
        <time>2020-10-11T14:43:55Z</time>
      </trkpt>
      <trkpt lat="43.38781" lon="5.41761">
        <ele>517.33</ele>
        <time>2020-10-11T14:44:05Z</time>
      </trkpt>
      <trkpt lat="43.38773" lon="5.4177">
        <ele>517.81</ele>
        <time>2020-10-11T14:44:14Z</time>
      </trkpt>
      <trkpt lat="43.3877" lon="5.41772">
        <ele>518.77</ele>
        <time>2020-10-11T14:44:17Z</time>
      </trkpt>
      <trkpt lat="43.38761" lon="5.41783">
        <ele>522.13</ele>
        <time>2020-10-11T14:44:30Z</time>
      </trkpt>
      <trkpt lat="43.38753" lon="5.41793">
        <ele>522.61</ele>
        <time>2020-10-11T14:44:42Z</time>
      </trkpt>
      <trkpt lat="43.38748" lon="5.41799">
        <ele>523.58</ele>
        <time>2020-10-11T14:44:47Z</time>
      </trkpt>
      <trkpt lat="43.38738" lon="5.41811">
        <ele>525.5</ele>
        <time>2020-10-11T14:44:59Z</time>
      </trkpt>
      <trkpt lat="43.38731" lon="5.41823">
        <ele>527.42</ele>
        <time>2020-10-11T14:45:11Z</time>
      </trkpt>
      <trkpt lat="43.38722" lon="5.41833">
        <ele>528.38</ele>
        <time>2020-10-11T14:45:22Z</time>
      </trkpt>
      <trkpt lat="43.38713" lon="5.41843">
        <ele>529.34</ele>
        <time>2020-10-11T14:45:34Z</time>
      </trkpt>
      <trkpt lat="43.38705" lon="5.41851">
        <ele>529.34</ele>
        <time>2020-10-11T14:45:46Z</time>
      </trkpt>
      <trkpt lat="43.38697" lon="5.41863">
        <ele>530.3</ele>
        <time>2020-10-11T14:45:58Z</time>
      </trkpt>
      <trkpt lat="43.38696" lon="5.41864">
        <ele>530.79</ele>
        <time>2020-10-11T14:45:59Z</time>
      </trkpt>
      <trkpt lat="43.38691" lon="5.41874">
        <ele>533.19</ele>
        <time>2020-10-11T14:46:11Z</time>
      </trkpt>
      <trkpt lat="43.3869" lon="5.41875">
        <ele>533.19</ele>
        <time>2020-10-11T14:46:12Z</time>
      </trkpt>
      <trkpt lat="43.38682" lon="5.41888">
        <ele>532.71</ele>
        <time>2020-10-11T14:46:24Z</time>
      </trkpt>
      <trkpt lat="43.3868" lon="5.41894">
        <ele>530.79</ele>
        <time>2020-10-11T14:46:30Z</time>
      </trkpt>
      <trkpt lat="43.38672" lon="5.41905">
        <ele>529.82</ele>
        <time>2020-10-11T14:46:40Z</time>
      </trkpt>
      <trkpt lat="43.38671" lon="5.41907">
        <ele>529.34</ele>
        <time>2020-10-11T14:46:42Z</time>
      </trkpt>
      <trkpt lat="43.38662" lon="5.41919">
        <ele>528.86</ele>
        <time>2020-10-11T14:46:52Z</time>
      </trkpt>
      <trkpt lat="43.38655" lon="5.4193">
        <ele>527.42</ele>
        <time>2020-10-11T14:47:03Z</time>
      </trkpt>
      <trkpt lat="43.3865" lon="5.41935">
        <ele>526.46</ele>
        <time>2020-10-11T14:47:08Z</time>
      </trkpt>
      <trkpt lat="43.38645" lon="5.41942">
        <ele>525.98</ele>
        <time>2020-10-11T14:47:14Z</time>
      </trkpt>
      <trkpt lat="43.38641" lon="5.41948">
        <ele>525.98</ele>
        <time>2020-10-11T14:47:29Z</time>
      </trkpt>
      <trkpt lat="43.38639" lon="5.41948">
        <ele>525.98</ele>
        <time>2020-10-11T14:47:41Z</time>
      </trkpt>
      <trkpt lat="43.38629" lon="5.41955">
        <ele>526.46</ele>
        <time>2020-10-11T14:47:52Z</time>
      </trkpt>
      <trkpt lat="43.38624" lon="5.41961">
        <ele>526.94</ele>
        <time>2020-10-11T14:47:59Z</time>
      </trkpt>
      <trkpt lat="43.38623" lon="5.41963">
        <ele>526.94</ele>
        <time>2020-10-11T14:48:01Z</time>
      </trkpt>
      <trkpt lat="43.38618" lon="5.41971">
        <ele>525.5</ele>
        <time>2020-10-11T14:48:08Z</time>
      </trkpt>
      <trkpt lat="43.38618" lon="5.41976">
        <ele>525.5</ele>
        <time>2020-10-11T14:48:11Z</time>
      </trkpt>
      <trkpt lat="43.38618" lon="5.41978">
        <ele>525.5</ele>
        <time>2020-10-11T14:48:13Z</time>
      </trkpt>
      <trkpt lat="43.38618" lon="5.41985">
        <ele>524.54</ele>
        <time>2020-10-11T14:48:26Z</time>
      </trkpt>
      <trkpt lat="43.38619" lon="5.41986">
        <ele>526.94</ele>
        <time>2020-10-11T14:48:48Z</time>
      </trkpt>
      <trkpt lat="43.3862" lon="5.4199">
        <ele>532.71</ele>
        <time>2020-10-11T14:49:08Z</time>
      </trkpt>
      <trkpt lat="43.3862" lon="5.41991">
        <ele>532.71</ele>
        <time>2020-10-11T14:49:10Z</time>
      </trkpt>
      <trkpt lat="43.38613" lon="5.4199">
        <ele>535.11</ele>
        <time>2020-10-11T14:49:17Z</time>
      </trkpt>
      <trkpt lat="43.38601" lon="5.42001">
        <ele>537.99</ele>
        <time>2020-10-11T14:49:32Z</time>
      </trkpt>
      <trkpt lat="43.386" lon="5.42002">
        <ele>538.48</ele>
        <time>2020-10-11T14:49:33Z</time>
      </trkpt>
      <trkpt lat="43.38597" lon="5.42007">
        <ele>538.96</ele>
        <time>2020-10-11T14:49:37Z</time>
      </trkpt>
      <trkpt lat="43.38593" lon="5.42012">
        <ele>539.44</ele>
        <time>2020-10-11T14:49:44Z</time>
      </trkpt>
      <trkpt lat="43.38587" lon="5.4202">
        <ele>543.28</ele>
        <time>2020-10-11T14:49:53Z</time>
      </trkpt>
      <trkpt lat="43.38583" lon="5.42027">
        <ele>546.17</ele>
        <time>2020-10-11T14:50:00Z</time>
      </trkpt>
      <trkpt lat="43.38583" lon="5.4203">
        <ele>546.65</ele>
        <time>2020-10-11T14:50:02Z</time>
      </trkpt>
      <trkpt lat="43.38578" lon="5.42046">
        <ele>547.13</ele>
        <time>2020-10-11T14:50:14Z</time>
      </trkpt>
      <trkpt lat="43.38577" lon="5.42051">
        <ele>547.61</ele>
        <time>2020-10-11T14:50:18Z</time>
      </trkpt>
      <trkpt lat="43.38572" lon="5.42074">
        <ele>552.9</ele>
        <time>2020-10-11T14:50:35Z</time>
      </trkpt>
      <trkpt lat="43.3857" lon="5.42093">
        <ele>557.7</ele>
        <time>2020-10-11T14:50:49Z</time>
      </trkpt>
      <trkpt lat="43.38565" lon="5.42103">
        <ele>557.7</ele>
        <time>2020-10-11T14:50:59Z</time>
      </trkpt>
      <trkpt lat="43.38562" lon="5.42111">
        <ele>555.78</ele>
        <time>2020-10-11T14:51:04Z</time>
      </trkpt>
      <trkpt lat="43.38559" lon="5.4212">
        <ele>554.34</ele>
        <time>2020-10-11T14:51:12Z</time>
      </trkpt>
      <trkpt lat="43.38558" lon="5.42123">
        <ele>554.34</ele>
        <time>2020-10-11T14:51:14Z</time>
      </trkpt>
      <trkpt lat="43.38551" lon="5.42137">
        <ele>554.34</ele>
        <time>2020-10-11T14:51:26Z</time>
      </trkpt>
      <trkpt lat="43.38549" lon="5.42149">
        <ele>552.9</ele>
        <time>2020-10-11T14:51:37Z</time>
      </trkpt>
      <trkpt lat="43.38549" lon="5.42158">
        <ele>550.01</ele>
        <time>2020-10-11T14:51:48Z</time>
      </trkpt>
      <trkpt lat="43.38545" lon="5.42172">
        <ele>548.57</ele>
        <time>2020-10-11T14:52:00Z</time>
      </trkpt>
      <trkpt lat="43.38543" lon="5.4218">
        <ele>550.49</ele>
        <time>2020-10-11T14:52:10Z</time>
      </trkpt>
      <trkpt lat="43.38541" lon="5.42183">
        <ele>550.49</ele>
        <time>2020-10-11T14:52:13Z</time>
      </trkpt>
      <trkpt lat="43.38535" lon="5.42196">
        <ele>551.45</ele>
        <time>2020-10-11T14:52:25Z</time>
      </trkpt>
      <trkpt lat="43.38532" lon="5.42205">
        <ele>550.01</ele>
        <time>2020-10-11T14:52:34Z</time>
      </trkpt>
      <trkpt lat="43.38532" lon="5.42208">
        <ele>549.05</ele>
        <time>2020-10-11T14:52:47Z</time>
      </trkpt>
      <trkpt lat="43.38532" lon="5.42209">
        <ele>546.65</ele>
        <time>2020-10-11T14:53:17Z</time>
      </trkpt>
      <trkpt lat="43.3853" lon="5.4221">
        <ele>543.76</ele>
        <time>2020-10-11T14:53:32Z</time>
      </trkpt>
      <trkpt lat="43.38529" lon="5.42212">
        <ele>540.88</ele>
        <time>2020-10-11T14:54:01Z</time>
      </trkpt>
      <trkpt lat="43.38526" lon="5.42214">
        <ele>538.48</ele>
        <time>2020-10-11T14:54:19Z</time>
      </trkpt>
      <trkpt lat="43.38524" lon="5.42215">
        <ele>536.55</ele>
        <time>2020-10-11T14:54:31Z</time>
      </trkpt>
      <trkpt lat="43.38522" lon="5.42218">
        <ele>535.59</ele>
        <time>2020-10-11T14:54:36Z</time>
      </trkpt>
      <trkpt lat="43.3852" lon="5.42228">
        <ele>537.03</ele>
        <time>2020-10-11T14:54:45Z</time>
      </trkpt>
      <trkpt lat="43.38517" lon="5.42232">
        <ele>537.51</ele>
        <time>2020-10-11T14:54:51Z</time>
      </trkpt>
      <trkpt lat="43.38511" lon="5.42246">
        <ele>540.4</ele>
        <time>2020-10-11T14:55:04Z</time>
      </trkpt>
      <trkpt lat="43.38511" lon="5.42247">
        <ele>540.4</ele>
        <time>2020-10-11T14:55:05Z</time>
      </trkpt>
      <trkpt lat="43.38505" lon="5.4226">
        <ele>542.32</ele>
        <time>2020-10-11T14:55:17Z</time>
      </trkpt>
      <trkpt lat="43.38502" lon="5.42267">
        <ele>543.76</ele>
        <time>2020-10-11T14:55:23Z</time>
      </trkpt>
      <trkpt lat="43.38499" lon="5.42274">
        <ele>544.24</ele>
        <time>2020-10-11T14:55:31Z</time>
      </trkpt>
      <trkpt lat="43.38498" lon="5.42277">
        <ele>544.24</ele>
        <time>2020-10-11T14:55:33Z</time>
      </trkpt>
      <trkpt lat="43.38493" lon="5.42288">
        <ele>545.69</ele>
        <time>2020-10-11T14:55:44Z</time>
      </trkpt>
      <trkpt lat="43.38489" lon="5.42295">
        <ele>546.65</ele>
        <time>2020-10-11T14:55:50Z</time>
      </trkpt>
      <trkpt lat="43.38487" lon="5.42299">
        <ele>547.61</ele>
        <time>2020-10-11T14:55:53Z</time>
      </trkpt>
      <trkpt lat="43.38482" lon="5.42313">
        <ele>548.57</ele>
        <time>2020-10-11T14:56:04Z</time>
      </trkpt>
      <trkpt lat="43.38476" lon="5.42324">
        <ele>550.01</ele>
        <time>2020-10-11T14:56:14Z</time>
      </trkpt>
      <trkpt lat="43.38475" lon="5.4233">
        <ele>549.05</ele>
        <time>2020-10-11T14:56:26Z</time>
      </trkpt>
      <trkpt lat="43.38472" lon="5.42339">
        <ele>549.53</ele>
        <time>2020-10-11T14:56:39Z</time>
      </trkpt>
      <trkpt lat="43.3847" lon="5.42351">
        <ele>549.53</ele>
        <time>2020-10-11T14:56:50Z</time>
      </trkpt>
      <trkpt lat="43.38465" lon="5.42368">
        <ele>549.53</ele>
        <time>2020-10-11T14:57:03Z</time>
      </trkpt>
      <trkpt lat="43.38464" lon="5.42375">
        <ele>549.05</ele>
        <time>2020-10-11T14:57:12Z</time>
      </trkpt>
      <trkpt lat="43.38461" lon="5.42384">
        <ele>548.57</ele>
        <time>2020-10-11T14:57:23Z</time>
      </trkpt>
      <trkpt lat="43.38458" lon="5.42391">
        <ele>548.09</ele>
        <time>2020-10-11T14:57:35Z</time>
      </trkpt>
      <trkpt lat="43.38456" lon="5.42399">
        <ele>548.09</ele>
        <time>2020-10-11T14:57:46Z</time>
      </trkpt>
      <trkpt lat="43.38453" lon="5.42406">
        <ele>548.09</ele>
        <time>2020-10-11T14:57:52Z</time>
      </trkpt>
      <trkpt lat="43.38445" lon="5.4242">
        <ele>547.61</ele>
        <time>2020-10-11T14:58:05Z</time>
      </trkpt>
      <trkpt lat="43.38443" lon="5.42425">
        <ele>547.61</ele>
        <time>2020-10-11T14:58:09Z</time>
      </trkpt>
      <trkpt lat="43.38433" lon="5.42438">
        <ele>546.65</ele>
        <time>2020-10-11T14:58:23Z</time>
      </trkpt>
      <trkpt lat="43.3843" lon="5.4244">
        <ele>546.65</ele>
        <time>2020-10-11T14:58:29Z</time>
      </trkpt>
      <trkpt lat="43.38422" lon="5.42444">
        <ele>543.76</ele>
        <time>2020-10-11T14:58:41Z</time>
      </trkpt>
      <trkpt lat="43.38419" lon="5.42445">
        <ele>542.8</ele>
        <time>2020-10-11T14:58:46Z</time>
      </trkpt>
      <trkpt lat="43.38413" lon="5.42447">
        <ele>541.36</ele>
        <time>2020-10-11T14:58:57Z</time>
      </trkpt>
      <trkpt lat="43.38406" lon="5.42447">
        <ele>538.96</ele>
        <time>2020-10-11T14:59:08Z</time>
      </trkpt>
      <trkpt lat="43.38406" lon="5.42447">
        <ele>538.96</ele>
        <time>2020-10-11T14:59:09Z</time>
      </trkpt>
      <trkpt lat="43.38393" lon="5.42444">
        <ele>537.51</ele>
        <time>2020-10-11T14:59:21Z</time>
      </trkpt>
      <trkpt lat="43.38393" lon="5.42446">
        <ele>537.51</ele>
        <time>2020-10-11T14:59:34Z</time>
      </trkpt>
      <trkpt lat="43.38387" lon="5.42445">
        <ele>537.99</ele>
        <time>2020-10-11T14:59:50Z</time>
      </trkpt>
      <trkpt lat="43.3838" lon="5.42443">
        <ele>540.88</ele>
        <time>2020-10-11T15:00:00Z</time>
      </trkpt>
      <trkpt lat="43.38379" lon="5.42442">
        <ele>541.36</ele>
        <time>2020-10-11T15:00:03Z</time>
      </trkpt>
      <trkpt lat="43.38377" lon="5.42438">
        <ele>541.84</ele>
        <time>2020-10-11T15:00:06Z</time>
      </trkpt>
      <trkpt lat="43.38374" lon="5.42436">
        <ele>541.84</ele>
        <time>2020-10-11T15:00:08Z</time>
      </trkpt>
      <trkpt lat="43.38368" lon="5.4243">
        <ele>542.8</ele>
        <time>2020-10-11T15:00:15Z</time>
      </trkpt>
      <trkpt lat="43.38365" lon="5.42426">
        <ele>543.28</ele>
        <time>2020-10-11T15:00:20Z</time>
      </trkpt>
      <trkpt lat="43.38363" lon="5.42425">
        <ele>543.28</ele>
        <time>2020-10-11T15:00:22Z</time>
      </trkpt>
      <trkpt lat="43.3836" lon="5.42421">
        <ele>543.28</ele>
        <time>2020-10-11T15:00:26Z</time>
      </trkpt>
      <trkpt lat="43.38351" lon="5.4241">
        <ele>542.8</ele>
        <time>2020-10-11T15:00:38Z</time>
      </trkpt>
      <trkpt lat="43.38341" lon="5.42399">
        <ele>543.28</ele>
        <time>2020-10-11T15:00:51Z</time>
      </trkpt>
      <trkpt lat="43.38337" lon="5.42391">
        <ele>542.32</ele>
        <time>2020-10-11T15:00:56Z</time>
      </trkpt>
      <trkpt lat="43.38328" lon="5.42382">
        <ele>539.92</ele>
        <time>2020-10-11T15:01:06Z</time>
      </trkpt>
      <trkpt lat="43.38318" lon="5.42368">
        <ele>539.92</ele>
        <time>2020-10-11T15:01:18Z</time>
      </trkpt>
      <trkpt lat="43.38313" lon="5.4236">
        <ele>538.96</ele>
        <time>2020-10-11T15:01:25Z</time>
      </trkpt>
      <trkpt lat="43.38308" lon="5.42355">
        <ele>537.99</ele>
        <time>2020-10-11T15:01:31Z</time>
      </trkpt>
      <trkpt lat="43.38303" lon="5.42353">
        <ele>537.99</ele>
        <time>2020-10-11T15:01:37Z</time>
      </trkpt>
      <trkpt lat="43.38294" lon="5.42352">
        <ele>537.99</ele>
        <time>2020-10-11T15:01:47Z</time>
      </trkpt>
      <trkpt lat="43.38293" lon="5.42354">
        <ele>538.96</ele>
        <time>2020-10-11T15:02:02Z</time>
      </trkpt>
      <trkpt lat="43.38292" lon="5.4236">
        <ele>538.48</ele>
        <time>2020-10-11T15:02:06Z</time>
      </trkpt>
      <trkpt lat="43.38294" lon="5.42372">
        <ele>537.03</ele>
        <time>2020-10-11T15:02:17Z</time>
      </trkpt>
      <trkpt lat="43.38297" lon="5.42376">
        <ele>534.63</ele>
        <time>2020-10-11T15:02:35Z</time>
      </trkpt>
      <trkpt lat="43.38295" lon="5.4238">
        <ele>530.79</ele>
        <time>2020-10-11T15:03:05Z</time>
      </trkpt>
      <trkpt lat="43.38297" lon="5.42378">
        <ele>533.67</ele>
        <time>2020-10-11T15:03:33Z</time>
      </trkpt>
      <trkpt lat="43.38295" lon="5.42371">
        <ele>537.51</ele>
        <time>2020-10-11T15:04:05Z</time>
      </trkpt>
      <trkpt lat="43.38293" lon="5.4237">
        <ele>541.36</ele>
        <time>2020-10-11T15:04:31Z</time>
      </trkpt>
      <trkpt lat="43.38292" lon="5.42369">
        <ele>543.76</ele>
        <time>2020-10-11T15:04:57Z</time>
      </trkpt>
      <trkpt lat="43.3829" lon="5.42366">
        <ele>545.2</ele>
        <time>2020-10-11T15:05:12Z</time>
      </trkpt>
      <trkpt lat="43.38292" lon="5.42367">
        <ele>544.24</ele>
        <time>2020-10-11T15:05:41Z</time>
      </trkpt>
      <trkpt lat="43.38293" lon="5.42373">
        <ele>543.76</ele>
        <time>2020-10-11T15:06:02Z</time>
      </trkpt>
      <trkpt lat="43.38293" lon="5.42377">
        <ele>541.84</ele>
        <time>2020-10-11T15:06:31Z</time>
      </trkpt>
      <trkpt lat="43.3829" lon="5.42381">
        <ele>542.32</ele>
        <time>2020-10-11T15:06:57Z</time>
      </trkpt>
      <trkpt lat="43.38272" lon="5.42408">
        <ele>542.8</ele>
        <time>2020-10-11T15:07:15Z</time>
      </trkpt>
      <trkpt lat="43.38289" lon="5.42379">
        <ele>541.36</ele>
        <time>2020-10-11T15:07:46Z</time>
      </trkpt>
      <trkpt lat="43.3829" lon="5.42377">
        <ele>541.84</ele>
        <time>2020-10-11T15:08:17Z</time>
      </trkpt>
      <trkpt lat="43.38291" lon="5.42373">
        <ele>539.44</ele>
        <time>2020-10-11T15:08:45Z</time>
      </trkpt>
      <trkpt lat="43.38283" lon="5.42386">
        <ele>539.44</ele>
        <time>2020-10-11T15:09:10Z</time>
      </trkpt>
      <trkpt lat="43.38286" lon="5.42386">
        <ele>540.88</ele>
        <time>2020-10-11T15:09:34Z</time>
      </trkpt>
      <trkpt lat="43.38289" lon="5.42385">
        <ele>541.36</ele>
        <time>2020-10-11T15:10:04Z</time>
      </trkpt>
      <trkpt lat="43.38291" lon="5.42378">
        <ele>541.36</ele>
        <time>2020-10-11T15:10:35Z</time>
      </trkpt>
      <trkpt lat="43.38294" lon="5.4237">
        <ele>543.28</ele>
        <time>2020-10-11T15:10:57Z</time>
      </trkpt>
      <trkpt lat="43.38294" lon="5.42367">
        <ele>544.24</ele>
        <time>2020-10-11T15:11:25Z</time>
      </trkpt>
      <trkpt lat="43.38302" lon="5.42355">
        <ele>543.28</ele>
        <time>2020-10-11T15:11:55Z</time>
      </trkpt>
      <trkpt lat="43.38303" lon="5.42361">
        <ele>542.32</ele>
        <time>2020-10-11T15:12:21Z</time>
      </trkpt>
      <trkpt lat="43.38304" lon="5.42374">
        <ele>540.88</ele>
        <time>2020-10-11T15:12:52Z</time>
      </trkpt>
      <trkpt lat="43.38315" lon="5.42384">
        <ele>532.71</ele>
        <time>2020-10-11T15:13:17Z</time>
      </trkpt>
      <trkpt lat="43.38314" lon="5.42386">
        <ele>530.79</ele>
        <time>2020-10-11T15:13:45Z</time>
      </trkpt>
      <trkpt lat="43.38308" lon="5.42383">
        <ele>530.79</ele>
        <time>2020-10-11T15:14:22Z</time>
      </trkpt>
      <trkpt lat="43.38307" lon="5.4238">
        <ele>531.27</ele>
        <time>2020-10-11T15:15:03Z</time>
      </trkpt>
      <trkpt lat="43.38301" lon="5.42379">
        <ele>539.92</ele>
        <time>2020-10-11T15:15:48Z</time>
      </trkpt>
      <trkpt lat="43.383" lon="5.42378">
        <ele>539.44</ele>
        <time>2020-10-11T15:16:28Z</time>
      </trkpt>
      <trkpt lat="43.383" lon="5.42376">
        <ele>539.92</ele>
        <time>2020-10-11T15:17:07Z</time>
      </trkpt>
      <trkpt lat="43.383" lon="5.42377">
        <ele>537.51</ele>
        <time>2020-10-11T15:17:46Z</time>
      </trkpt>
      <trkpt lat="43.38298" lon="5.42378">
        <ele>539.44</ele>
        <time>2020-10-11T15:18:23Z</time>
      </trkpt>
      <trkpt lat="43.38299" lon="5.42379">
        <ele>537.51</ele>
        <time>2020-10-11T15:19:02Z</time>
      </trkpt>
      <trkpt lat="43.38301" lon="5.42379">
        <ele>535.59</ele>
        <time>2020-10-11T15:19:49Z</time>
      </trkpt>
      <trkpt lat="43.383" lon="5.42379">
        <ele>535.59</ele>
        <time>2020-10-11T15:20:26Z</time>
      </trkpt>
      <trkpt lat="43.38294" lon="5.42376">
        <ele>539.44</ele>
        <time>2020-10-11T15:21:07Z</time>
      </trkpt>
      <trkpt lat="43.38295" lon="5.42374">
        <ele>539.92</ele>
        <time>2020-10-11T15:21:48Z</time>
      </trkpt>
      <trkpt lat="43.38301" lon="5.42376">
        <ele>536.55</ele>
        <time>2020-10-11T15:22:32Z</time>
      </trkpt>
      <trkpt lat="43.38301" lon="5.42379">
        <ele>535.11</ele>
        <time>2020-10-11T15:23:21Z</time>
      </trkpt>
      <trkpt lat="43.38302" lon="5.42377">
        <ele>535.59</ele>
        <time>2020-10-11T15:23:55Z</time>
      </trkpt>
      <trkpt lat="43.38295" lon="5.42375">
        <ele>543.76</ele>
        <time>2020-10-11T15:24:13Z</time>
      </trkpt>
      <trkpt lat="43.38295" lon="5.42375">
        <ele>546.17</ele>
        <time>2020-10-11T15:24:25Z</time>
      </trkpt>
      <trkpt lat="43.38294" lon="5.42381">
        <ele>544.72</ele>
        <time>2020-10-11T15:24:37Z</time>
      </trkpt>
      <trkpt lat="43.38295" lon="5.42389">
        <ele>543.76</ele>
        <time>2020-10-11T15:24:43Z</time>
      </trkpt>
      <trkpt lat="43.38295" lon="5.4239">
        <ele>543.76</ele>
        <time>2020-10-11T15:24:44Z</time>
      </trkpt>
      <trkpt lat="43.38296" lon="5.42396">
        <ele>544.24</ele>
        <time>2020-10-11T15:24:48Z</time>
      </trkpt>
      <trkpt lat="43.38297" lon="5.42397">
        <ele>546.17</ele>
        <time>2020-10-11T15:25:02Z</time>
      </trkpt>
      <trkpt lat="43.38298" lon="5.42409">
        <ele>545.69</ele>
        <time>2020-10-11T15:25:17Z</time>
      </trkpt>
      <trkpt lat="43.38303" lon="5.42421">
        <ele>544.24</ele>
        <time>2020-10-11T15:25:29Z</time>
      </trkpt>
      <trkpt lat="43.38304" lon="5.42428">
        <ele>544.24</ele>
        <time>2020-10-11T15:25:35Z</time>
      </trkpt>
      <trkpt lat="43.38302" lon="5.4243">
        <ele>542.32</ele>
        <time>2020-10-11T15:25:50Z</time>
      </trkpt>
      <trkpt lat="43.38302" lon="5.4243">
        <ele>544.24</ele>
        <time>2020-10-11T15:26:27Z</time>
      </trkpt>
      <trkpt lat="43.38303" lon="5.42429">
        <ele>546.65</ele>
        <time>2020-10-11T15:26:46Z</time>
      </trkpt>
      <trkpt lat="43.38302" lon="5.42421">
        <ele>547.61</ele>
        <time>2020-10-11T15:26:51Z</time>
      </trkpt>
      <trkpt lat="43.38302" lon="5.42419">
        <ele>547.61</ele>
        <time>2020-10-11T15:26:52Z</time>
      </trkpt>
      <trkpt lat="43.38297" lon="5.42404">
        <ele>548.09</ele>
        <time>2020-10-11T15:27:04Z</time>
      </trkpt>
      <trkpt lat="43.38297" lon="5.42393">
        <ele>548.57</ele>
        <time>2020-10-11T15:27:11Z</time>
      </trkpt>
      <trkpt lat="43.38297" lon="5.42385">
        <ele>548.09</ele>
        <time>2020-10-11T15:27:16Z</time>
      </trkpt>
      <trkpt lat="43.38295" lon="5.42371">
        <ele>546.17</ele>
        <time>2020-10-11T15:27:30Z</time>
      </trkpt>
      <trkpt lat="43.38295" lon="5.42373">
        <ele>545.2</ele>
        <time>2020-10-11T15:27:47Z</time>
      </trkpt>
      <trkpt lat="43.38297" lon="5.42367">
        <ele>545.69</ele>
        <time>2020-10-11T15:28:01Z</time>
      </trkpt>
      <trkpt lat="43.38297" lon="5.42365">
        <ele>545.2</ele>
        <time>2020-10-11T15:28:02Z</time>
      </trkpt>
      <trkpt lat="43.38295" lon="5.42357">
        <ele>543.76</ele>
        <time>2020-10-11T15:28:09Z</time>
      </trkpt>
      <trkpt lat="43.383" lon="5.42355">
        <ele>543.28</ele>
        <time>2020-10-11T15:28:14Z</time>
      </trkpt>
      <trkpt lat="43.38313" lon="5.42364">
        <ele>541.36</ele>
        <time>2020-10-11T15:28:27Z</time>
      </trkpt>
      <trkpt lat="43.38317" lon="5.42371">
        <ele>540.88</ele>
        <time>2020-10-11T15:28:32Z</time>
      </trkpt>
      <trkpt lat="43.38325" lon="5.42385">
        <ele>541.36</ele>
        <time>2020-10-11T15:28:43Z</time>
      </trkpt>
      <trkpt lat="43.38329" lon="5.42391">
        <ele>540.88</ele>
        <time>2020-10-11T15:28:49Z</time>
      </trkpt>
      <trkpt lat="43.38332" lon="5.424">
        <ele>541.36</ele>
        <time>2020-10-11T15:28:55Z</time>
      </trkpt>
      <trkpt lat="43.38341" lon="5.42412">
        <ele>544.24</ele>
        <time>2020-10-11T15:29:08Z</time>
      </trkpt>
      <trkpt lat="43.38349" lon="5.42421">
        <ele>545.69</ele>
        <time>2020-10-11T15:29:19Z</time>
      </trkpt>
      <trkpt lat="43.38359" lon="5.4243">
        <ele>548.09</ele>
        <time>2020-10-11T15:29:31Z</time>
      </trkpt>
      <trkpt lat="43.38359" lon="5.42431">
        <ele>548.57</ele>
        <time>2020-10-11T15:29:32Z</time>
      </trkpt>
      <trkpt lat="43.38366" lon="5.42438">
        <ele>550.49</ele>
        <time>2020-10-11T15:29:43Z</time>
      </trkpt>
      <trkpt lat="43.38373" lon="5.42445">
        <ele>551.93</ele>
        <time>2020-10-11T15:29:55Z</time>
      </trkpt>
      <trkpt lat="43.38375" lon="5.42445">
        <ele>550.97</ele>
        <time>2020-10-11T15:29:58Z</time>
      </trkpt>
      <trkpt lat="43.38381" lon="5.42448">
        <ele>547.61</ele>
        <time>2020-10-11T15:30:09Z</time>
      </trkpt>
      <trkpt lat="43.38386" lon="5.4245">
        <ele>544.72</ele>
        <time>2020-10-11T15:30:21Z</time>
      </trkpt>
      <trkpt lat="43.38389" lon="5.4245">
        <ele>544.24</ele>
        <time>2020-10-11T15:30:24Z</time>
      </trkpt>
      <trkpt lat="43.38401" lon="5.42453">
        <ele>546.17</ele>
        <time>2020-10-11T15:30:37Z</time>
      </trkpt>
      <trkpt lat="43.38408" lon="5.42453">
        <ele>550.01</ele>
        <time>2020-10-11T15:30:48Z</time>
      </trkpt>
      <trkpt lat="43.38413" lon="5.42454">
        <ele>552.9</ele>
        <time>2020-10-11T15:30:58Z</time>
      </trkpt>
      <trkpt lat="43.38419" lon="5.4245">
        <ele>554.34</ele>
        <time>2020-10-11T15:31:09Z</time>
      </trkpt>
      <trkpt lat="43.38423" lon="5.4245">
        <ele>555.78</ele>
        <time>2020-10-11T15:31:25Z</time>
      </trkpt>
      <trkpt lat="43.38435" lon="5.42438">
        <ele>557.22</ele>
        <time>2020-10-11T15:31:37Z</time>
      </trkpt>
      <trkpt lat="43.38443" lon="5.42424">
        <ele>557.7</ele>
        <time>2020-10-11T15:31:49Z</time>
      </trkpt>
      <trkpt lat="43.38453" lon="5.42409">
        <ele>558.18</ele>
        <time>2020-10-11T15:32:02Z</time>
      </trkpt>
      <trkpt lat="43.38461" lon="5.42394">
        <ele>556.74</ele>
        <time>2020-10-11T15:32:14Z</time>
      </trkpt>
      <trkpt lat="43.38463" lon="5.42389">
        <ele>555.78</ele>
        <time>2020-10-11T15:32:18Z</time>
      </trkpt>
      <trkpt lat="43.38464" lon="5.42383">
        <ele>554.34</ele>
        <time>2020-10-11T15:32:22Z</time>
      </trkpt>
      <trkpt lat="43.38467" lon="5.42376">
        <ele>553.38</ele>
        <time>2020-10-11T15:32:26Z</time>
      </trkpt>
      <trkpt lat="43.38469" lon="5.42369">
        <ele>551.45</ele>
        <time>2020-10-11T15:32:30Z</time>
      </trkpt>
      <trkpt lat="43.38471" lon="5.42362">
        <ele>550.01</ele>
        <time>2020-10-11T15:32:35Z</time>
      </trkpt>
      <trkpt lat="43.38477" lon="5.42345">
        <ele>548.09</ele>
        <time>2020-10-11T15:32:47Z</time>
      </trkpt>
      <trkpt lat="43.38479" lon="5.42339">
        <ele>547.61</ele>
        <time>2020-10-11T15:32:51Z</time>
      </trkpt>
      <trkpt lat="43.3848" lon="5.42336">
        <ele>547.61</ele>
        <time>2020-10-11T15:32:53Z</time>
      </trkpt>
      <trkpt lat="43.38483" lon="5.42327">
        <ele>546.65</ele>
        <time>2020-10-11T15:32:59Z</time>
      </trkpt>
      <trkpt lat="43.38486" lon="5.4232">
        <ele>545.69</ele>
        <time>2020-10-11T15:33:04Z</time>
      </trkpt>
      <trkpt lat="43.38488" lon="5.42313">
        <ele>544.72</ele>
        <time>2020-10-11T15:33:09Z</time>
      </trkpt>
      <trkpt lat="43.38493" lon="5.42299">
        <ele>542.8</ele>
        <time>2020-10-11T15:33:18Z</time>
      </trkpt>
      <trkpt lat="43.38501" lon="5.42283">
        <ele>541.36</ele>
        <time>2020-10-11T15:33:29Z</time>
      </trkpt>
      <trkpt lat="43.38506" lon="5.42274">
        <ele>540.4</ele>
        <time>2020-10-11T15:33:35Z</time>
      </trkpt>
      <trkpt lat="43.38511" lon="5.42262">
        <ele>537.51</ele>
        <time>2020-10-11T15:33:44Z</time>
      </trkpt>
      <trkpt lat="43.38514" lon="5.42254">
        <ele>536.07</ele>
        <time>2020-10-11T15:33:51Z</time>
      </trkpt>
      <trkpt lat="43.38516" lon="5.42247">
        <ele>535.59</ele>
        <time>2020-10-11T15:33:56Z</time>
      </trkpt>
      <trkpt lat="43.38522" lon="5.42232">
        <ele>535.11</ele>
        <time>2020-10-11T15:34:08Z</time>
      </trkpt>
      <trkpt lat="43.38522" lon="5.4223">
        <ele>535.11</ele>
        <time>2020-10-11T15:34:09Z</time>
      </trkpt>
      <trkpt lat="43.38528" lon="5.42217">
        <ele>534.15</ele>
        <time>2020-10-11T15:34:19Z</time>
      </trkpt>
      <trkpt lat="43.38535" lon="5.42204">
        <ele>533.67</ele>
        <time>2020-10-11T15:34:29Z</time>
      </trkpt>
      <trkpt lat="43.38544" lon="5.42188">
        <ele>532.71</ele>
        <time>2020-10-11T15:34:43Z</time>
      </trkpt>
      <trkpt lat="43.38545" lon="5.42185">
        <ele>533.19</ele>
        <time>2020-10-11T15:34:56Z</time>
      </trkpt>
      <trkpt lat="43.38548" lon="5.42185">
        <ele>533.19</ele>
        <time>2020-10-11T15:34:59Z</time>
      </trkpt>
      <trkpt lat="43.38557" lon="5.42195">
        <ele>534.15</ele>
        <time>2020-10-11T15:35:12Z</time>
      </trkpt>
      <trkpt lat="43.38557" lon="5.42196">
        <ele>534.15</ele>
        <time>2020-10-11T15:35:13Z</time>
      </trkpt>
      <trkpt lat="43.38564" lon="5.4221">
        <ele>536.07</ele>
        <time>2020-10-11T15:35:24Z</time>
      </trkpt>
      <trkpt lat="43.38575" lon="5.42224">
        <ele>536.07</ele>
        <time>2020-10-11T15:35:38Z</time>
      </trkpt>
      <trkpt lat="43.38576" lon="5.42224">
        <ele>536.55</ele>
        <time>2020-10-11T15:35:40Z</time>
      </trkpt>
      <trkpt lat="43.38584" lon="5.42237">
        <ele>537.51</ele>
        <time>2020-10-11T15:35:51Z</time>
      </trkpt>
      <trkpt lat="43.38587" lon="5.42241">
        <ele>537.51</ele>
        <time>2020-10-11T15:35:55Z</time>
      </trkpt>
      <trkpt lat="43.38591" lon="5.42255">
        <ele>538.96</ele>
        <time>2020-10-11T15:36:07Z</time>
      </trkpt>
      <trkpt lat="43.38592" lon="5.42258">
        <ele>541.84</ele>
        <time>2020-10-11T15:36:25Z</time>
      </trkpt>
      <trkpt lat="43.38592" lon="5.42265">
        <ele>543.76</ele>
        <time>2020-10-11T15:36:36Z</time>
      </trkpt>
      <trkpt lat="43.38589" lon="5.42278">
        <ele>547.61</ele>
        <time>2020-10-11T15:36:47Z</time>
      </trkpt>
      <trkpt lat="43.38587" lon="5.42279">
        <ele>548.57</ele>
        <time>2020-10-11T15:36:49Z</time>
      </trkpt>
      <trkpt lat="43.3858" lon="5.42284">
        <ele>551.93</ele>
        <time>2020-10-11T15:36:57Z</time>
      </trkpt>
      <trkpt lat="43.38568" lon="5.42293">
        <ele>553.38</ele>
        <time>2020-10-11T15:37:11Z</time>
      </trkpt>
      <trkpt lat="43.38561" lon="5.42301">
        <ele>554.82</ele>
        <time>2020-10-11T15:37:22Z</time>
      </trkpt>
      <trkpt lat="43.38557" lon="5.42306">
        <ele>556.74</ele>
        <time>2020-10-11T15:37:34Z</time>
      </trkpt>
      <trkpt lat="43.38558" lon="5.42314">
        <ele>553.38</ele>
        <time>2020-10-11T15:37:59Z</time>
      </trkpt>
      <trkpt lat="43.38558" lon="5.42315">
        <ele>550.49</ele>
        <time>2020-10-11T15:38:15Z</time>
      </trkpt>
      <trkpt lat="43.38558" lon="5.42314">
        <ele>550.01</ele>
        <time>2020-10-11T15:38:28Z</time>
      </trkpt>
      <trkpt lat="43.38561" lon="5.42311">
        <ele>550.01</ele>
        <time>2020-10-11T15:38:43Z</time>
      </trkpt>
      <trkpt lat="43.38566" lon="5.42307">
        <ele>550.01</ele>
        <time>2020-10-11T15:38:50Z</time>
      </trkpt>
      <trkpt lat="43.38578" lon="5.42298">
        <ele>549.05</ele>
        <time>2020-10-11T15:39:02Z</time>
      </trkpt>
      <trkpt lat="43.38579" lon="5.42296">
        <ele>549.53</ele>
        <time>2020-10-11T15:39:04Z</time>
      </trkpt>
      <trkpt lat="43.38587" lon="5.4229">
        <ele>548.09</ele>
        <time>2020-10-11T15:39:11Z</time>
      </trkpt>
      <trkpt lat="43.38591" lon="5.42284">
        <ele>546.65</ele>
        <time>2020-10-11T15:39:16Z</time>
      </trkpt>
      <trkpt lat="43.38593" lon="5.42279">
        <ele>545.2</ele>
        <time>2020-10-11T15:39:19Z</time>
      </trkpt>
      <trkpt lat="43.38593" lon="5.42275">
        <ele>544.72</ele>
        <time>2020-10-11T15:39:21Z</time>
      </trkpt>
      <trkpt lat="43.38594" lon="5.42269">
        <ele>543.76</ele>
        <time>2020-10-11T15:39:25Z</time>
      </trkpt>
      <trkpt lat="43.38592" lon="5.42255">
        <ele>540.88</ele>
        <time>2020-10-11T15:39:36Z</time>
      </trkpt>
      <trkpt lat="43.38584" lon="5.4224">
        <ele>538.96</ele>
        <time>2020-10-11T15:39:47Z</time>
      </trkpt>
      <trkpt lat="43.38578" lon="5.42231">
        <ele>537.99</ele>
        <time>2020-10-11T15:39:56Z</time>
      </trkpt>
      <trkpt lat="43.38573" lon="5.42224">
        <ele>537.51</ele>
        <time>2020-10-11T15:40:03Z</time>
      </trkpt>
      <trkpt lat="43.38564" lon="5.42211">
        <ele>536.07</ele>
        <time>2020-10-11T15:40:15Z</time>
      </trkpt>
      <trkpt lat="43.38561" lon="5.42206">
        <ele>535.11</ele>
        <time>2020-10-11T15:40:19Z</time>
      </trkpt>
      <trkpt lat="43.3856" lon="5.42201">
        <ele>534.63</ele>
        <time>2020-10-11T15:40:23Z</time>
      </trkpt>
      <trkpt lat="43.38554" lon="5.42187">
        <ele>534.15</ele>
        <time>2020-10-11T15:40:36Z</time>
      </trkpt>
      <trkpt lat="43.38553" lon="5.42183">
        <ele>534.15</ele>
        <time>2020-10-11T15:40:49Z</time>
      </trkpt>
      <trkpt lat="43.38551" lon="5.42176">
        <ele>533.67</ele>
        <time>2020-10-11T15:41:03Z</time>
      </trkpt>
      <trkpt lat="43.38551" lon="5.4217">
        <ele>534.63</ele>
        <time>2020-10-11T15:41:20Z</time>
      </trkpt>
      <trkpt lat="43.38552" lon="5.42166">
        <ele>534.63</ele>
        <time>2020-10-11T15:41:29Z</time>
      </trkpt>
      <trkpt lat="43.38554" lon="5.42162">
        <ele>532.23</ele>
        <time>2020-10-11T15:41:43Z</time>
      </trkpt>
      <trkpt lat="43.38554" lon="5.42161">
        <ele>532.71</ele>
        <time>2020-10-11T15:42:02Z</time>
      </trkpt>
      <trkpt lat="43.38552" lon="5.42163">
        <ele>533.19</ele>
        <time>2020-10-11T15:42:18Z</time>
      </trkpt>
      <trkpt lat="43.3855" lon="5.42165">
        <ele>534.15</ele>
        <time>2020-10-11T15:42:47Z</time>
      </trkpt>
      <trkpt lat="43.38552" lon="5.42161">
        <ele>534.63</ele>
        <time>2020-10-11T15:43:00Z</time>
      </trkpt>
      <trkpt lat="43.38552" lon="5.42156">
        <ele>534.63</ele>
        <time>2020-10-11T15:43:06Z</time>
      </trkpt>
      <trkpt lat="43.3856" lon="5.42135">
        <ele>533.67</ele>
        <time>2020-10-11T15:43:20Z</time>
      </trkpt>
      <trkpt lat="43.38564" lon="5.42123">
        <ele>533.19</ele>
        <time>2020-10-11T15:43:27Z</time>
      </trkpt>
      <trkpt lat="43.38565" lon="5.42117">
        <ele>532.71</ele>
        <time>2020-10-11T15:43:30Z</time>
      </trkpt>
      <trkpt lat="43.38571" lon="5.42107">
        <ele>532.71</ele>
        <time>2020-10-11T15:43:37Z</time>
      </trkpt>
      <trkpt lat="43.38574" lon="5.42101">
        <ele>533.19</ele>
        <time>2020-10-11T15:43:41Z</time>
      </trkpt>
      <trkpt lat="43.38576" lon="5.42093">
        <ele>532.23</ele>
        <time>2020-10-11T15:43:54Z</time>
      </trkpt>
      <trkpt lat="43.38582" lon="5.42078">
        <ele>533.19</ele>
        <time>2020-10-11T15:44:05Z</time>
      </trkpt>
      <trkpt lat="43.38586" lon="5.42062">
        <ele>532.71</ele>
        <time>2020-10-11T15:44:15Z</time>
      </trkpt>
      <trkpt lat="43.38591" lon="5.42043">
        <ele>531.75</ele>
        <time>2020-10-11T15:44:28Z</time>
      </trkpt>
      <trkpt lat="43.38591" lon="5.42037">
        <ele>531.27</ele>
        <time>2020-10-11T15:44:34Z</time>
      </trkpt>
      <trkpt lat="43.38595" lon="5.42029">
        <ele>531.27</ele>
        <time>2020-10-11T15:44:39Z</time>
      </trkpt>
      <trkpt lat="43.386" lon="5.42019">
        <ele>530.79</ele>
        <time>2020-10-11T15:44:48Z</time>
      </trkpt>
      <trkpt lat="43.38604" lon="5.42004">
        <ele>529.82</ele>
        <time>2020-10-11T15:45:00Z</time>
      </trkpt>
      <trkpt lat="43.38612" lon="5.41986">
        <ele>526.94</ele>
        <time>2020-10-11T15:45:13Z</time>
      </trkpt>
      <trkpt lat="43.38617" lon="5.41978">
        <ele>526.46</ele>
        <time>2020-10-11T15:45:22Z</time>
      </trkpt>
      <trkpt lat="43.38629" lon="5.41964">
        <ele>528.38</ele>
        <time>2020-10-11T15:45:37Z</time>
      </trkpt>
      <trkpt lat="43.38638" lon="5.41955">
        <ele>528.38</ele>
        <time>2020-10-11T15:45:48Z</time>
      </trkpt>
      <trkpt lat="43.3865" lon="5.41939">
        <ele>529.34</ele>
        <time>2020-10-11T15:46:02Z</time>
      </trkpt>
      <trkpt lat="43.38661" lon="5.41924">
        <ele>530.79</ele>
        <time>2020-10-11T15:46:15Z</time>
      </trkpt>
      <trkpt lat="43.38673" lon="5.4191">
        <ele>530.79</ele>
        <time>2020-10-11T15:46:29Z</time>
      </trkpt>
      <trkpt lat="43.38684" lon="5.41896">
        <ele>532.71</ele>
        <time>2020-10-11T15:46:42Z</time>
      </trkpt>
      <trkpt lat="43.38685" lon="5.41895">
        <ele>532.71</ele>
        <time>2020-10-11T15:46:44Z</time>
      </trkpt>
      <trkpt lat="43.38687" lon="5.41892">
        <ele>532.71</ele>
        <time>2020-10-11T15:46:46Z</time>
      </trkpt>
      <trkpt lat="43.38689" lon="5.41888">
        <ele>531.27</ele>
        <time>2020-10-11T15:47:01Z</time>
      </trkpt>
      <trkpt lat="43.38698" lon="5.41877">
        <ele>530.3</ele>
        <time>2020-10-11T15:47:13Z</time>
      </trkpt>
      <trkpt lat="43.3871" lon="5.41861">
        <ele>529.82</ele>
        <time>2020-10-11T15:47:26Z</time>
      </trkpt>
      <trkpt lat="43.38719" lon="5.41849">
        <ele>526.94</ele>
        <time>2020-10-11T15:47:37Z</time>
      </trkpt>
      <trkpt lat="43.38729" lon="5.41836">
        <ele>525.02</ele>
        <time>2020-10-11T15:47:51Z</time>
      </trkpt>
      <trkpt lat="43.3874" lon="5.41823">
        <ele>523.09</ele>
        <time>2020-10-11T15:48:03Z</time>
      </trkpt>
      <trkpt lat="43.38741" lon="5.41821">
        <ele>523.09</ele>
        <time>2020-10-11T15:48:05Z</time>
      </trkpt>
      <trkpt lat="43.38746" lon="5.41816">
        <ele>522.13</ele>
        <time>2020-10-11T15:48:09Z</time>
      </trkpt>
      <trkpt lat="43.38754" lon="5.41802">
        <ele>519.73</ele>
        <time>2020-10-11T15:48:22Z</time>
      </trkpt>
      <trkpt lat="43.38757" lon="5.418">
        <ele>520.21</ele>
        <time>2020-10-11T15:48:24Z</time>
      </trkpt>
      <trkpt lat="43.38768" lon="5.41787">
        <ele>521.65</ele>
        <time>2020-10-11T15:48:37Z</time>
      </trkpt>
      <trkpt lat="43.38777" lon="5.41773">
        <ele>522.13</ele>
        <time>2020-10-11T15:48:48Z</time>
      </trkpt>
      <trkpt lat="43.38789" lon="5.41758">
        <ele>524.06</ele>
        <time>2020-10-11T15:49:00Z</time>
      </trkpt>
      <trkpt lat="43.38793" lon="5.41753">
        <ele>523.58</ele>
        <time>2020-10-11T15:49:06Z</time>
      </trkpt>
      <trkpt lat="43.38804" lon="5.41744">
        <ele>524.54</ele>
        <time>2020-10-11T15:49:19Z</time>
      </trkpt>
      <trkpt lat="43.38811" lon="5.41728">
        <ele>525.02</ele>
        <time>2020-10-11T15:49:30Z</time>
      </trkpt>
      <trkpt lat="43.38813" lon="5.41723">
        <ele>524.54</ele>
        <time>2020-10-11T15:49:32Z</time>
      </trkpt>
      <trkpt lat="43.38813" lon="5.4172">
        <ele>524.06</ele>
        <time>2020-10-11T15:49:34Z</time>
      </trkpt>
      <trkpt lat="43.38816" lon="5.41705">
        <ele>521.65</ele>
        <time>2020-10-11T15:49:48Z</time>
      </trkpt>
      <trkpt lat="43.38819" lon="5.41694">
        <ele>521.65</ele>
        <time>2020-10-11T15:50:00Z</time>
      </trkpt>
      <trkpt lat="43.38821" lon="5.41687">
        <ele>522.61</ele>
        <time>2020-10-11T15:50:06Z</time>
      </trkpt>
      <trkpt lat="43.38821" lon="5.41684">
        <ele>523.09</ele>
        <time>2020-10-11T15:50:08Z</time>
      </trkpt>
      <trkpt lat="43.38824" lon="5.41668">
        <ele>524.06</ele>
        <time>2020-10-11T15:50:19Z</time>
      </trkpt>
      <trkpt lat="43.38824" lon="5.41664">
        <ele>520.69</ele>
        <time>2020-10-11T15:50:35Z</time>
      </trkpt>
      <trkpt lat="43.38825" lon="5.4166">
        <ele>519.73</ele>
        <time>2020-10-11T15:50:48Z</time>
      </trkpt>
      <trkpt lat="43.38826" lon="5.41654">
        <ele>519.25</ele>
        <time>2020-10-11T15:50:52Z</time>
      </trkpt>
      <trkpt lat="43.38826" lon="5.41651">
        <ele>519.73</ele>
        <time>2020-10-11T15:50:54Z</time>
      </trkpt>
      <trkpt lat="43.38826" lon="5.41645">
        <ele>520.21</ele>
        <time>2020-10-11T15:50:58Z</time>
      </trkpt>
      <trkpt lat="43.38827" lon="5.41632">
        <ele>520.69</ele>
        <time>2020-10-11T15:51:06Z</time>
      </trkpt>
      <trkpt lat="43.3883" lon="5.41618">
        <ele>521.17</ele>
        <time>2020-10-11T15:51:16Z</time>
      </trkpt>
      <trkpt lat="43.38831" lon="5.4161">
        <ele>522.61</ele>
        <time>2020-10-11T15:51:22Z</time>
      </trkpt>
      <trkpt lat="43.38837" lon="5.41593">
        <ele>523.58</ele>
        <time>2020-10-11T15:51:36Z</time>
      </trkpt>
      <trkpt lat="43.38838" lon="5.4159">
        <ele>524.06</ele>
        <time>2020-10-11T15:51:38Z</time>
      </trkpt>
      <trkpt lat="43.38846" lon="5.41574">
        <ele>523.58</ele>
        <time>2020-10-11T15:51:51Z</time>
      </trkpt>
      <trkpt lat="43.38847" lon="5.41572">
        <ele>523.58</ele>
        <time>2020-10-11T15:51:53Z</time>
      </trkpt>
      <trkpt lat="43.38848" lon="5.41569">
        <ele>523.09</ele>
        <time>2020-10-11T15:51:55Z</time>
      </trkpt>
      <trkpt lat="43.38851" lon="5.41564">
        <ele>522.61</ele>
        <time>2020-10-11T15:51:59Z</time>
      </trkpt>
      <trkpt lat="43.38851" lon="5.41561">
        <ele>522.61</ele>
        <time>2020-10-11T15:52:01Z</time>
      </trkpt>
      <trkpt lat="43.38854" lon="5.41556">
        <ele>522.13</ele>
        <time>2020-10-11T15:52:05Z</time>
      </trkpt>
      <trkpt lat="43.38855" lon="5.41553">
        <ele>522.13</ele>
        <time>2020-10-11T15:52:07Z</time>
      </trkpt>
      <trkpt lat="43.38859" lon="5.41539">
        <ele>520.21</ele>
        <time>2020-10-11T15:52:16Z</time>
      </trkpt>
      <trkpt lat="43.3886" lon="5.41536">
        <ele>519.73</ele>
        <time>2020-10-11T15:52:18Z</time>
      </trkpt>
      <trkpt lat="43.38862" lon="5.41531">
        <ele>518.77</ele>
        <time>2020-10-11T15:52:21Z</time>
      </trkpt>
      <trkpt lat="43.38862" lon="5.41528">
        <ele>518.29</ele>
        <time>2020-10-11T15:52:23Z</time>
      </trkpt>
      <trkpt lat="43.38863" lon="5.41523">
        <ele>517.81</ele>
        <time>2020-10-11T15:52:26Z</time>
      </trkpt>
      <trkpt lat="43.38865" lon="5.41516">
        <ele>516.85</ele>
        <time>2020-10-11T15:52:31Z</time>
      </trkpt>
      <trkpt lat="43.38864" lon="5.41503">
        <ele>515.4</ele>
        <time>2020-10-11T15:52:40Z</time>
      </trkpt>
      <trkpt lat="43.38863" lon="5.41496">
        <ele>513.96</ele>
        <time>2020-10-11T15:52:48Z</time>
      </trkpt>
      <trkpt lat="43.38863" lon="5.41494">
        <ele>513.48</ele>
        <time>2020-10-11T15:52:50Z</time>
      </trkpt>
      <trkpt lat="43.3886" lon="5.41486">
        <ele>513.48</ele>
        <time>2020-10-11T15:52:56Z</time>
      </trkpt>
      <trkpt lat="43.38858" lon="5.41484">
        <ele>513.48</ele>
        <time>2020-10-11T15:52:58Z</time>
      </trkpt>
      <trkpt lat="43.38857" lon="5.4148">
        <ele>513</ele>
        <time>2020-10-11T15:53:01Z</time>
      </trkpt>
      <trkpt lat="43.38855" lon="5.41477">
        <ele>513</ele>
        <time>2020-10-11T15:53:03Z</time>
      </trkpt>
      <trkpt lat="43.38854" lon="5.41473">
        <ele>512.52</ele>
        <time>2020-10-11T15:53:06Z</time>
      </trkpt>
      <trkpt lat="43.38851" lon="5.41466">
        <ele>511.56</ele>
        <time>2020-10-11T15:53:11Z</time>
      </trkpt>
      <trkpt lat="43.38849" lon="5.41464">
        <ele>511.56</ele>
        <time>2020-10-11T15:53:13Z</time>
      </trkpt>
      <trkpt lat="43.38843" lon="5.41453">
        <ele>510.12</ele>
        <time>2020-10-11T15:53:23Z</time>
      </trkpt>
      <trkpt lat="43.38839" lon="5.41441">
        <ele>508.67</ele>
        <time>2020-10-11T15:53:32Z</time>
      </trkpt>
      <trkpt lat="43.38838" lon="5.41438">
        <ele>508.67</ele>
        <time>2020-10-11T15:53:35Z</time>
      </trkpt>
      <trkpt lat="43.38835" lon="5.41429">
        <ele>508.67</ele>
        <time>2020-10-11T15:53:42Z</time>
      </trkpt>
      <trkpt lat="43.38833" lon="5.41414">
        <ele>507.23</ele>
        <time>2020-10-11T15:53:52Z</time>
      </trkpt>
      <trkpt lat="43.38832" lon="5.41401">
        <ele>507.23</ele>
        <time>2020-10-11T15:54:02Z</time>
      </trkpt>
      <trkpt lat="43.38832" lon="5.41394">
        <ele>506.75</ele>
        <time>2020-10-11T15:54:06Z</time>
      </trkpt>
      <trkpt lat="43.38832" lon="5.41392">
        <ele>507.23</ele>
        <time>2020-10-11T15:54:08Z</time>
      </trkpt>
      <trkpt lat="43.3883" lon="5.41381">
        <ele>507.23</ele>
        <time>2020-10-11T15:54:16Z</time>
      </trkpt>
      <trkpt lat="43.3883" lon="5.41378">
        <ele>506.75</ele>
        <time>2020-10-11T15:54:18Z</time>
      </trkpt>
      <trkpt lat="43.38829" lon="5.41365">
        <ele>507.71</ele>
        <time>2020-10-11T15:54:28Z</time>
      </trkpt>
      <trkpt lat="43.38823" lon="5.41347">
        <ele>507.23</ele>
        <time>2020-10-11T15:54:41Z</time>
      </trkpt>
      <trkpt lat="43.38816" lon="5.41339">
        <ele>507.23</ele>
        <time>2020-10-11T15:54:51Z</time>
      </trkpt>
      <trkpt lat="43.38804" lon="5.41336">
        <ele>507.23</ele>
        <time>2020-10-11T15:55:04Z</time>
      </trkpt>
      <trkpt lat="43.3879" lon="5.41334">
        <ele>507.71</ele>
        <time>2020-10-11T15:55:16Z</time>
      </trkpt>
      <trkpt lat="43.38787" lon="5.41334">
        <ele>508.19</ele>
        <time>2020-10-11T15:55:18Z</time>
      </trkpt>
      <trkpt lat="43.38774" lon="5.41333">
        <ele>507.71</ele>
        <time>2020-10-11T15:55:30Z</time>
      </trkpt>
      <trkpt lat="43.38766" lon="5.41331">
        <ele>505.31</ele>
        <time>2020-10-11T15:55:40Z</time>
      </trkpt>
      <trkpt lat="43.38763" lon="5.41328">
        <ele>504.83</ele>
        <time>2020-10-11T15:55:45Z</time>
      </trkpt>
      <trkpt lat="43.38761" lon="5.41326">
        <ele>504.35</ele>
        <time>2020-10-11T15:55:49Z</time>
      </trkpt>
      <trkpt lat="43.3876" lon="5.41323">
        <ele>504.35</ele>
        <time>2020-10-11T15:55:52Z</time>
      </trkpt>
      <trkpt lat="43.38747" lon="5.4131">
        <ele>503.87</ele>
        <time>2020-10-11T15:56:06Z</time>
      </trkpt>
      <trkpt lat="43.38746" lon="5.41309">
        <ele>503.87</ele>
        <time>2020-10-11T15:56:07Z</time>
      </trkpt>
      <trkpt lat="43.38745" lon="5.41307">
        <ele>503.87</ele>
        <time>2020-10-11T15:56:10Z</time>
      </trkpt>
      <trkpt lat="43.3874" lon="5.41302">
        <ele>503.87</ele>
        <time>2020-10-11T15:56:15Z</time>
      </trkpt>
      <trkpt lat="43.38733" lon="5.41298">
        <ele>503.39</ele>
        <time>2020-10-11T15:56:22Z</time>
      </trkpt>
      <trkpt lat="43.38731" lon="5.41295">
        <ele>502.91</ele>
        <time>2020-10-11T15:56:25Z</time>
      </trkpt>
      <trkpt lat="43.38728" lon="5.41294">
        <ele>502.43</ele>
        <time>2020-10-11T15:56:27Z</time>
      </trkpt>
      <trkpt lat="43.38726" lon="5.41291">
        <ele>501.95</ele>
        <time>2020-10-11T15:56:30Z</time>
      </trkpt>
      <trkpt lat="43.38724" lon="5.4129">
        <ele>501.95</ele>
        <time>2020-10-11T15:56:32Z</time>
      </trkpt>
      <trkpt lat="43.38715" lon="5.41285">
        <ele>502.43</ele>
        <time>2020-10-11T15:56:42Z</time>
      </trkpt>
      <trkpt lat="43.38703" lon="5.41278">
        <ele>501.46</ele>
        <time>2020-10-11T15:56:54Z</time>
      </trkpt>
      <trkpt lat="43.38701" lon="5.41277">
        <ele>501.46</ele>
        <time>2020-10-11T15:56:56Z</time>
      </trkpt>
      <trkpt lat="43.38687" lon="5.4127">
        <ele>500.98</ele>
        <time>2020-10-11T15:57:11Z</time>
      </trkpt>
      <trkpt lat="43.38679" lon="5.41266">
        <ele>500.5</ele>
        <time>2020-10-11T15:57:19Z</time>
      </trkpt>
      <trkpt lat="43.38675" lon="5.41264">
        <ele>500.98</ele>
        <time>2020-10-11T15:57:23Z</time>
      </trkpt>
      <trkpt lat="43.38672" lon="5.4126">
        <ele>500.5</ele>
        <time>2020-10-11T15:57:28Z</time>
      </trkpt>
      <trkpt lat="43.38667" lon="5.41251">
        <ele>497.62</ele>
        <time>2020-10-11T15:57:39Z</time>
      </trkpt>
      <trkpt lat="43.38664" lon="5.41244">
        <ele>495.7</ele>
        <time>2020-10-11T15:57:46Z</time>
      </trkpt>
      <trkpt lat="43.3866" lon="5.41237">
        <ele>496.66</ele>
        <time>2020-10-11T15:57:52Z</time>
      </trkpt>
      <trkpt lat="43.38659" lon="5.41232">
        <ele>497.62</ele>
        <time>2020-10-11T15:57:56Z</time>
      </trkpt>
      <trkpt lat="43.38659" lon="5.41222">
        <ele>497.14</ele>
        <time>2020-10-11T15:58:03Z</time>
      </trkpt>
      <trkpt lat="43.38658" lon="5.41219">
        <ele>497.14</ele>
        <time>2020-10-11T15:58:05Z</time>
      </trkpt>
      <trkpt lat="43.38657" lon="5.41213">
        <ele>497.62</ele>
        <time>2020-10-11T15:58:10Z</time>
      </trkpt>
      <trkpt lat="43.38655" lon="5.41195">
        <ele>498.58</ele>
        <time>2020-10-11T15:58:23Z</time>
      </trkpt>
      <trkpt lat="43.38656" lon="5.41188">
        <ele>498.58</ele>
        <time>2020-10-11T15:58:28Z</time>
      </trkpt>
      <trkpt lat="43.38656" lon="5.41183">
        <ele>498.58</ele>
        <time>2020-10-11T15:58:31Z</time>
      </trkpt>
      <trkpt lat="43.38655" lon="5.41181">
        <ele>498.58</ele>
        <time>2020-10-11T15:58:33Z</time>
      </trkpt>
      <trkpt lat="43.38656" lon="5.41176">
        <ele>498.58</ele>
        <time>2020-10-11T15:58:36Z</time>
      </trkpt>
      <trkpt lat="43.38655" lon="5.41173">
        <ele>498.58</ele>
        <time>2020-10-11T15:58:38Z</time>
      </trkpt>
      <trkpt lat="43.38651" lon="5.41153">
        <ele>497.62</ele>
        <time>2020-10-11T15:58:52Z</time>
      </trkpt>
      <trkpt lat="43.38649" lon="5.41145">
        <ele>497.14</ele>
        <time>2020-10-11T15:58:58Z</time>
      </trkpt>
      <trkpt lat="43.38649" lon="5.41142">
        <ele>497.14</ele>
        <time>2020-10-11T15:59:00Z</time>
      </trkpt>
      <trkpt lat="43.38642" lon="5.41122">
        <ele>497.14</ele>
        <time>2020-10-11T15:59:14Z</time>
      </trkpt>
      <trkpt lat="43.38641" lon="5.41119">
        <ele>496.66</ele>
        <time>2020-10-11T15:59:16Z</time>
      </trkpt>
      <trkpt lat="43.38636" lon="5.41113">
        <ele>497.62</ele>
        <time>2020-10-11T15:59:22Z</time>
      </trkpt>
      <trkpt lat="43.38629" lon="5.41104">
        <ele>495.7</ele>
        <time>2020-10-11T15:59:31Z</time>
      </trkpt>
      <trkpt lat="43.38622" lon="5.41099">
        <ele>496.18</ele>
        <time>2020-10-11T15:59:38Z</time>
      </trkpt>
      <trkpt lat="43.38614" lon="5.41092">
        <ele>496.66</ele>
        <time>2020-10-11T15:59:46Z</time>
      </trkpt>
      <trkpt lat="43.3861" lon="5.41089">
        <ele>496.66</ele>
        <time>2020-10-11T15:59:51Z</time>
      </trkpt>
      <trkpt lat="43.38597" lon="5.41083">
        <ele>496.18</ele>
        <time>2020-10-11T16:00:05Z</time>
      </trkpt>
      <trkpt lat="43.38593" lon="5.4108">
        <ele>495.7</ele>
        <time>2020-10-11T16:00:10Z</time>
      </trkpt>
      <trkpt lat="43.3859" lon="5.4108">
        <ele>495.7</ele>
        <time>2020-10-11T16:00:12Z</time>
      </trkpt>
      <trkpt lat="43.38583" lon="5.41077">
        <ele>496.66</ele>
        <time>2020-10-11T16:00:20Z</time>
      </trkpt>
      <trkpt lat="43.38577" lon="5.41075">
        <ele>496.66</ele>
        <time>2020-10-11T16:00:25Z</time>
      </trkpt>
      <trkpt lat="43.38563" lon="5.41074">
        <ele>496.66</ele>
        <time>2020-10-11T16:00:38Z</time>
      </trkpt>
      <trkpt lat="43.3856" lon="5.41073">
        <ele>496.18</ele>
        <time>2020-10-11T16:00:41Z</time>
      </trkpt>
      <trkpt lat="43.38557" lon="5.41072">
        <ele>496.18</ele>
        <time>2020-10-11T16:00:44Z</time>
      </trkpt>
      <trkpt lat="43.38545" lon="5.41071">
        <ele>496.66</ele>
        <time>2020-10-11T16:00:55Z</time>
      </trkpt>
      <trkpt lat="43.38532" lon="5.41072">
        <ele>497.14</ele>
        <time>2020-10-11T16:01:05Z</time>
      </trkpt>
      <trkpt lat="43.38513" lon="5.4107">
        <ele>498.58</ele>
        <time>2020-10-11T16:01:21Z</time>
      </trkpt>
      <trkpt lat="43.38512" lon="5.4107">
        <ele>498.58</ele>
        <time>2020-10-11T16:01:22Z</time>
      </trkpt>
      <trkpt lat="43.38509" lon="5.41069">
        <ele>498.58</ele>
        <time>2020-10-11T16:01:25Z</time>
      </trkpt>
      <trkpt lat="43.38502" lon="5.41068">
        <ele>497.62</ele>
        <time>2020-10-11T16:01:32Z</time>
      </trkpt>
      <trkpt lat="43.38487" lon="5.41067">
        <ele>495.7</ele>
        <time>2020-10-11T16:01:46Z</time>
      </trkpt>
      <trkpt lat="43.38481" lon="5.41066">
        <ele>495.7</ele>
        <time>2020-10-11T16:01:51Z</time>
      </trkpt>
      <trkpt lat="43.38475" lon="5.41063">
        <ele>494.74</ele>
        <time>2020-10-11T16:01:58Z</time>
      </trkpt>
      <trkpt lat="43.38467" lon="5.41063">
        <ele>494.74</ele>
        <time>2020-10-11T16:02:05Z</time>
      </trkpt>
      <trkpt lat="43.38458" lon="5.41061">
        <ele>495.22</ele>
        <time>2020-10-11T16:02:14Z</time>
      </trkpt>
      <trkpt lat="43.38447" lon="5.41059">
        <ele>496.18</ele>
        <time>2020-10-11T16:02:24Z</time>
      </trkpt>
      <trkpt lat="43.38444" lon="5.41058">
        <ele>496.66</ele>
        <time>2020-10-11T16:02:27Z</time>
      </trkpt>
      <trkpt lat="43.38438" lon="5.41057">
        <ele>496.66</ele>
        <time>2020-10-11T16:02:33Z</time>
      </trkpt>
      <trkpt lat="43.38435" lon="5.41054">
        <ele>496.18</ele>
        <time>2020-10-11T16:02:36Z</time>
      </trkpt>
      <trkpt lat="43.3843" lon="5.41051">
        <ele>496.18</ele>
        <time>2020-10-11T16:02:42Z</time>
      </trkpt>
      <trkpt lat="43.38428" lon="5.41046">
        <ele>496.18</ele>
        <time>2020-10-11T16:02:46Z</time>
      </trkpt>
      <trkpt lat="43.38427" lon="5.41042">
        <ele>494.74</ele>
        <time>2020-10-11T16:02:58Z</time>
      </trkpt>
      <trkpt lat="43.38427" lon="5.41042">
        <ele>492.33</ele>
        <time>2020-10-11T16:03:19Z</time>
      </trkpt>
      <trkpt lat="43.38426" lon="5.41042">
        <ele>491.85</ele>
        <time>2020-10-11T16:03:42Z</time>
      </trkpt>
      <trkpt lat="43.38425" lon="5.41039">
        <ele>492.81</ele>
        <time>2020-10-11T16:03:54Z</time>
      </trkpt>
      <trkpt lat="43.38423" lon="5.41039">
        <ele>493.77</ele>
        <time>2020-10-11T16:04:16Z</time>
      </trkpt>
      <trkpt lat="43.38422" lon="5.41039">
        <ele>494.74</ele>
        <time>2020-10-11T16:04:44Z</time>
      </trkpt>
      <trkpt lat="43.38423" lon="5.41038">
        <ele>494.26</ele>
        <time>2020-10-11T16:04:57Z</time>
      </trkpt>
      <trkpt lat="43.38425" lon="5.41035">
        <ele>494.26</ele>
        <time>2020-10-11T16:05:00Z</time>
      </trkpt>
      <trkpt lat="43.38428" lon="5.41027">
        <ele>493.29</ele>
        <time>2020-10-11T16:05:05Z</time>
      </trkpt>
      <trkpt lat="43.38433" lon="5.41017">
        <ele>492.81</ele>
        <time>2020-10-11T16:05:12Z</time>
      </trkpt>
      <trkpt lat="43.38434" lon="5.41014">
        <ele>492.81</ele>
        <time>2020-10-11T16:05:15Z</time>
      </trkpt>
      <trkpt lat="43.38444" lon="5.40995">
        <ele>491.85</ele>
        <time>2020-10-11T16:05:28Z</time>
      </trkpt>
      <trkpt lat="43.38448" lon="5.40986">
        <ele>491.85</ele>
        <time>2020-10-11T16:05:33Z</time>
      </trkpt>
      <trkpt lat="43.38459" lon="5.40957">
        <ele>490.89</ele>
        <time>2020-10-11T16:05:48Z</time>
      </trkpt>
      <trkpt lat="43.3846" lon="5.40955">
        <ele>491.37</ele>
        <time>2020-10-11T16:05:49Z</time>
      </trkpt>
      <trkpt lat="43.38467" lon="5.40926">
        <ele>491.37</ele>
        <time>2020-10-11T16:06:04Z</time>
      </trkpt>
      <trkpt lat="43.38473" lon="5.40903">
        <ele>492.33</ele>
        <time>2020-10-11T16:06:16Z</time>
      </trkpt>
      <trkpt lat="43.38473" lon="5.40902">
        <ele>492.33</ele>
        <time>2020-10-11T16:06:17Z</time>
      </trkpt>
      <trkpt lat="43.38479" lon="5.40891">
        <ele>491.37</ele>
        <time>2020-10-11T16:06:24Z</time>
      </trkpt>
      <trkpt lat="43.38481" lon="5.40887">
        <ele>490.89</ele>
        <time>2020-10-11T16:06:27Z</time>
      </trkpt>
      <trkpt lat="43.38485" lon="5.40883">
        <ele>490.41</ele>
        <time>2020-10-11T16:06:31Z</time>
      </trkpt>
      <trkpt lat="43.38494" lon="5.40879">
        <ele>489.45</ele>
        <time>2020-10-11T16:06:38Z</time>
      </trkpt>
      <trkpt lat="43.38506" lon="5.40881">
        <ele>488.97</ele>
        <time>2020-10-11T16:06:46Z</time>
      </trkpt>
      <trkpt lat="43.38522" lon="5.40878">
        <ele>488.97</ele>
        <time>2020-10-11T16:06:57Z</time>
      </trkpt>
      <trkpt lat="43.38528" lon="5.40878">
        <ele>488.97</ele>
        <time>2020-10-11T16:07:02Z</time>
      </trkpt>
      <trkpt lat="43.38543" lon="5.40873">
        <ele>488.01</ele>
        <time>2020-10-11T16:07:16Z</time>
      </trkpt>
      <trkpt lat="43.38551" lon="5.40872">
        <ele>488.01</ele>
        <time>2020-10-11T16:07:24Z</time>
      </trkpt>
      <trkpt lat="43.38552" lon="5.4087">
        <ele>488.01</ele>
        <time>2020-10-11T16:07:26Z</time>
      </trkpt>
      <trkpt lat="43.38559" lon="5.40867">
        <ele>488.49</ele>
        <time>2020-10-11T16:07:34Z</time>
      </trkpt>
      <trkpt lat="43.38561" lon="5.40865">
        <ele>488.97</ele>
        <time>2020-10-11T16:07:36Z</time>
      </trkpt>
      <trkpt lat="43.38573" lon="5.40859">
        <ele>489.45</ele>
        <time>2020-10-11T16:07:48Z</time>
      </trkpt>
      <trkpt lat="43.38582" lon="5.40851">
        <ele>490.89</ele>
        <time>2020-10-11T16:07:59Z</time>
      </trkpt>
      <trkpt lat="43.38596" lon="5.40843">
        <ele>491.37</ele>
        <time>2020-10-11T16:08:12Z</time>
      </trkpt>
      <trkpt lat="43.38609" lon="5.40834">
        <ele>490.41</ele>
        <time>2020-10-11T16:08:25Z</time>
      </trkpt>
      <trkpt lat="43.3861" lon="5.40833">
        <ele>490.41</ele>
        <time>2020-10-11T16:08:26Z</time>
      </trkpt>
      <trkpt lat="43.38621" lon="5.40822">
        <ele>489.93</ele>
        <time>2020-10-11T16:08:40Z</time>
      </trkpt>
      <trkpt lat="43.38625" lon="5.40819">
        <ele>489.93</ele>
        <time>2020-10-11T16:08:45Z</time>
      </trkpt>
      <trkpt lat="43.38631" lon="5.40815">
        <ele>488.49</ele>
        <time>2020-10-11T16:08:51Z</time>
      </trkpt>
      <trkpt lat="43.38633" lon="5.40813">
        <ele>488.01</ele>
        <time>2020-10-11T16:08:54Z</time>
      </trkpt>
      <trkpt lat="43.38643" lon="5.40808">
        <ele>486.56</ele>
        <time>2020-10-11T16:09:06Z</time>
      </trkpt>
      <trkpt lat="43.38656" lon="5.40812">
        <ele>486.08</ele>
        <time>2020-10-11T16:09:21Z</time>
      </trkpt>
      <trkpt lat="43.38659" lon="5.40814">
        <ele>485.6</ele>
        <time>2020-10-11T16:09:24Z</time>
      </trkpt>
      <trkpt lat="43.38663" lon="5.40818">
        <ele>485.12</ele>
        <time>2020-10-11T16:09:29Z</time>
      </trkpt>
      <trkpt lat="43.38669" lon="5.40826">
        <ele>485.6</ele>
        <time>2020-10-11T16:09:39Z</time>
      </trkpt>
      <trkpt lat="43.38672" lon="5.40831">
        <ele>485.6</ele>
        <time>2020-10-11T16:09:43Z</time>
      </trkpt>
      <trkpt lat="43.38681" lon="5.40845">
        <ele>486.56</ele>
        <time>2020-10-11T16:09:56Z</time>
      </trkpt>
      <trkpt lat="43.38689" lon="5.40859">
        <ele>486.08</ele>
        <time>2020-10-11T16:10:08Z</time>
      </trkpt>
      <trkpt lat="43.38698" lon="5.40872">
        <ele>485.12</ele>
        <time>2020-10-11T16:10:20Z</time>
      </trkpt>
      <trkpt lat="43.38707" lon="5.40884">
        <ele>484.16</ele>
        <time>2020-10-11T16:10:32Z</time>
      </trkpt>
      <trkpt lat="43.38712" lon="5.40889">
        <ele>483.68</ele>
        <time>2020-10-11T16:10:38Z</time>
      </trkpt>
      <trkpt lat="43.38714" lon="5.40893">
        <ele>483.68</ele>
        <time>2020-10-11T16:10:41Z</time>
      </trkpt>
      <trkpt lat="43.38716" lon="5.40895">
        <ele>483.2</ele>
        <time>2020-10-11T16:10:43Z</time>
      </trkpt>
      <trkpt lat="43.38718" lon="5.40899">
        <ele>482.72</ele>
        <time>2020-10-11T16:10:46Z</time>
      </trkpt>
      <trkpt lat="43.38719" lon="5.40901">
        <ele>482.24</ele>
        <time>2020-10-11T16:10:48Z</time>
      </trkpt>
      <trkpt lat="43.3873" lon="5.40916">
        <ele>479.84</ele>
        <time>2020-10-11T16:11:03Z</time>
      </trkpt>
      <trkpt lat="43.38732" lon="5.40919">
        <ele>479.35</ele>
        <time>2020-10-11T16:11:07Z</time>
      </trkpt>
      <trkpt lat="43.38741" lon="5.40932">
        <ele>480.32</ele>
        <time>2020-10-11T16:11:20Z</time>
      </trkpt>
      <trkpt lat="43.38751" lon="5.40944">
        <ele>479.84</ele>
        <time>2020-10-11T16:11:33Z</time>
      </trkpt>
      <trkpt lat="43.38757" lon="5.40953">
        <ele>478.87</ele>
        <time>2020-10-11T16:11:42Z</time>
      </trkpt>
      <trkpt lat="43.38759" lon="5.40956">
        <ele>478.87</ele>
        <time>2020-10-11T16:11:44Z</time>
      </trkpt>
      <trkpt lat="43.38762" lon="5.40959">
        <ele>478.87</ele>
        <time>2020-10-11T16:11:47Z</time>
      </trkpt>
      <trkpt lat="43.3877" lon="5.40973">
        <ele>478.39</ele>
        <time>2020-10-11T16:12:00Z</time>
      </trkpt>
      <trkpt lat="43.38783" lon="5.40986">
        <ele>479.35</ele>
        <time>2020-10-11T16:12:14Z</time>
      </trkpt>
      <trkpt lat="43.38793" lon="5.41002">
        <ele>478.87</ele>
        <time>2020-10-11T16:12:28Z</time>
      </trkpt>
      <trkpt lat="43.38803" lon="5.41012">
        <ele>480.32</ele>
        <time>2020-10-11T16:12:40Z</time>
      </trkpt>
      <trkpt lat="43.38816" lon="5.41019">
        <ele>480.32</ele>
        <time>2020-10-11T16:12:51Z</time>
      </trkpt>
      <trkpt lat="43.38837" lon="5.41017">
        <ele>478.87</ele>
        <time>2020-10-11T16:13:07Z</time>
      </trkpt>
      <trkpt lat="43.38843" lon="5.41015">
        <ele>478.39</ele>
        <time>2020-10-11T16:13:12Z</time>
      </trkpt>
      <trkpt lat="43.38844" lon="5.41013">
        <ele>478.39</ele>
        <time>2020-10-11T16:13:14Z</time>
      </trkpt>
      <trkpt lat="43.38847" lon="5.41005">
        <ele>478.39</ele>
        <time>2020-10-11T16:13:20Z</time>
      </trkpt>
      <trkpt lat="43.38849" lon="5.40994">
        <ele>478.39</ele>
        <time>2020-10-11T16:13:26Z</time>
      </trkpt>
      <trkpt lat="43.38849" lon="5.40989">
        <ele>477.43</ele>
        <time>2020-10-11T16:13:29Z</time>
      </trkpt>
      <trkpt lat="43.3885" lon="5.40986">
        <ele>477.43</ele>
        <time>2020-10-11T16:13:31Z</time>
      </trkpt>
      <trkpt lat="43.3885" lon="5.40973">
        <ele>476.47</ele>
        <time>2020-10-11T16:13:39Z</time>
      </trkpt>
      <trkpt lat="43.38851" lon="5.40969">
        <ele>475.99</ele>
        <time>2020-10-11T16:13:42Z</time>
      </trkpt>
      <trkpt lat="43.38851" lon="5.40966">
        <ele>475.99</ele>
        <time>2020-10-11T16:13:44Z</time>
      </trkpt>
      <trkpt lat="43.38852" lon="5.4095">
        <ele>475.51</ele>
        <time>2020-10-11T16:13:55Z</time>
      </trkpt>
      <trkpt lat="43.38853" lon="5.40942">
        <ele>475.51</ele>
        <time>2020-10-11T16:14:09Z</time>
      </trkpt>
      <trkpt lat="43.38853" lon="5.40942">
        <ele>475.51</ele>
        <time>2020-10-11T16:14:13Z</time>
      </trkpt>
      <trkpt lat="43.38854" lon="5.40934">
        <ele>475.99</ele>
        <time>2020-10-11T16:14:20Z</time>
      </trkpt>
      <trkpt lat="43.38855" lon="5.40926">
        <ele>475.03</ele>
        <time>2020-10-11T16:14:28Z</time>
      </trkpt>
      <trkpt lat="43.38855" lon="5.40922">
        <ele>475.03</ele>
        <time>2020-10-11T16:14:32Z</time>
      </trkpt>
      <trkpt lat="43.38858" lon="5.40911">
        <ele>475.51</ele>
        <time>2020-10-11T16:14:43Z</time>
      </trkpt>
      <trkpt lat="43.3886" lon="5.40906">
        <ele>475.03</ele>
        <time>2020-10-11T16:14:49Z</time>
      </trkpt>
      <trkpt lat="43.38864" lon="5.40894">
        <ele>474.07</ele>
        <time>2020-10-11T16:15:00Z</time>
      </trkpt>
      <trkpt lat="43.38872" lon="5.40883">
        <ele>473.11</ele>
        <time>2020-10-11T16:15:11Z</time>
      </trkpt>
      <trkpt lat="43.38881" lon="5.40879">
        <ele>471.66</ele>
        <time>2020-10-11T16:15:22Z</time>
      </trkpt>
      <trkpt lat="43.38891" lon="5.40874">
        <ele>469.74</ele>
        <time>2020-10-11T16:15:33Z</time>
      </trkpt>
      <trkpt lat="43.38903" lon="5.40874">
        <ele>468.78</ele>
        <time>2020-10-11T16:15:45Z</time>
      </trkpt>
      <trkpt lat="43.38912" lon="5.40871">
        <ele>467.34</ele>
        <time>2020-10-11T16:15:56Z</time>
      </trkpt>
      <trkpt lat="43.38915" lon="5.4087">
        <ele>466.86</ele>
        <time>2020-10-11T16:15:58Z</time>
      </trkpt>
      <trkpt lat="43.38923" lon="5.40858">
        <ele>466.38</ele>
        <time>2020-10-11T16:16:11Z</time>
      </trkpt>
      <trkpt lat="43.38926" lon="5.40843">
        <ele>464.45</ele>
        <time>2020-10-11T16:16:21Z</time>
      </trkpt>
      <trkpt lat="43.3893" lon="5.40826">
        <ele>461.09</ele>
        <time>2020-10-11T16:16:35Z</time>
      </trkpt>
      <trkpt lat="43.38932" lon="5.4082">
        <ele>460.61</ele>
        <time>2020-10-11T16:16:41Z</time>
      </trkpt>
      <trkpt lat="43.38935" lon="5.40811">
        <ele>459.65</ele>
        <time>2020-10-11T16:16:51Z</time>
      </trkpt>
      <trkpt lat="43.38934" lon="5.40802">
        <ele>459.17</ele>
        <time>2020-10-11T16:17:01Z</time>
      </trkpt>
      <trkpt lat="43.38935" lon="5.40787">
        <ele>457.72</ele>
        <time>2020-10-11T16:17:12Z</time>
      </trkpt>
      <trkpt lat="43.38935" lon="5.40778">
        <ele>457.24</ele>
        <time>2020-10-11T16:17:18Z</time>
      </trkpt>
      <trkpt lat="43.38934" lon="5.40775">
        <ele>457.24</ele>
        <time>2020-10-11T16:17:20Z</time>
      </trkpt>
      <trkpt lat="43.38934" lon="5.40756">
        <ele>454.36</ele>
        <time>2020-10-11T16:17:32Z</time>
      </trkpt>
      <trkpt lat="43.38934" lon="5.40755">
        <ele>454.36</ele>
        <time>2020-10-11T16:17:33Z</time>
      </trkpt>
      <trkpt lat="43.38933" lon="5.40753">
        <ele>453.88</ele>
        <time>2020-10-11T16:17:35Z</time>
      </trkpt>
      <trkpt lat="43.38931" lon="5.4075">
        <ele>454.84</ele>
        <time>2020-10-11T16:17:52Z</time>
      </trkpt>
      <trkpt lat="43.38929" lon="5.40741">
        <ele>454.84</ele>
        <time>2020-10-11T16:18:04Z</time>
      </trkpt>
      <trkpt lat="43.38929" lon="5.40738">
        <ele>454.84</ele>
        <time>2020-10-11T16:18:06Z</time>
      </trkpt>
      <trkpt lat="43.38928" lon="5.40731">
        <ele>454.84</ele>
        <time>2020-10-11T16:18:11Z</time>
      </trkpt>
      <trkpt lat="43.38928" lon="5.40727">
        <ele>454.84</ele>
        <time>2020-10-11T16:18:14Z</time>
      </trkpt>
      <trkpt lat="43.38927" lon="5.40724">
        <ele>454.84</ele>
        <time>2020-10-11T16:18:16Z</time>
      </trkpt>
      <trkpt lat="43.38927" lon="5.4072">
        <ele>454.36</ele>
        <time>2020-10-11T16:18:19Z</time>
      </trkpt>
      <trkpt lat="43.38926" lon="5.40717">
        <ele>454.36</ele>
        <time>2020-10-11T16:18:21Z</time>
      </trkpt>
      <trkpt lat="43.38924" lon="5.40709">
        <ele>453.88</ele>
        <time>2020-10-11T16:18:26Z</time>
      </trkpt>
      <trkpt lat="43.38924" lon="5.40704">
        <ele>452.92</ele>
        <time>2020-10-11T16:18:30Z</time>
      </trkpt>
      <trkpt lat="43.38923" lon="5.40701">
        <ele>452.92</ele>
        <time>2020-10-11T16:18:32Z</time>
      </trkpt>
      <trkpt lat="43.38922" lon="5.40696">
        <ele>451.96</ele>
        <time>2020-10-11T16:18:35Z</time>
      </trkpt>
      <trkpt lat="43.38921" lon="5.40693">
        <ele>451.48</ele>
        <time>2020-10-11T16:18:37Z</time>
      </trkpt>
      <trkpt lat="43.3892" lon="5.40686">
        <ele>450.03</ele>
        <time>2020-10-11T16:18:42Z</time>
      </trkpt>
      <trkpt lat="43.3892" lon="5.40674">
        <ele>449.55</ele>
        <time>2020-10-11T16:18:50Z</time>
      </trkpt>
      <trkpt lat="43.38919" lon="5.40671">
        <ele>449.55</ele>
        <time>2020-10-11T16:18:52Z</time>
      </trkpt>
      <trkpt lat="43.38919" lon="5.40666">
        <ele>449.07</ele>
        <time>2020-10-11T16:18:55Z</time>
      </trkpt>
      <trkpt lat="43.38918" lon="5.40663">
        <ele>449.07</ele>
        <time>2020-10-11T16:18:57Z</time>
      </trkpt>
      <trkpt lat="43.38918" lon="5.40654">
        <ele>448.59</ele>
        <time>2020-10-11T16:19:03Z</time>
      </trkpt>
      <trkpt lat="43.38918" lon="5.40648">
        <ele>447.63</ele>
        <time>2020-10-11T16:19:08Z</time>
      </trkpt>
      <trkpt lat="43.38918" lon="5.40637">
        <ele>445.71</ele>
        <time>2020-10-11T16:19:15Z</time>
      </trkpt>
      <trkpt lat="43.38918" lon="5.4063">
        <ele>444.27</ele>
        <time>2020-10-11T16:19:20Z</time>
      </trkpt>
      <trkpt lat="43.38918" lon="5.40622">
        <ele>443.31</ele>
        <time>2020-10-11T16:19:35Z</time>
      </trkpt>
      <trkpt lat="43.38917" lon="5.40613">
        <ele>444.27</ele>
        <time>2020-10-11T16:19:46Z</time>
      </trkpt>
      <trkpt lat="43.38917" lon="5.40606">
        <ele>443.79</ele>
        <time>2020-10-11T16:19:51Z</time>
      </trkpt>
      <trkpt lat="43.38917" lon="5.40602">
        <ele>443.31</ele>
        <time>2020-10-11T16:19:54Z</time>
      </trkpt>
      <trkpt lat="43.38917" lon="5.40599">
        <ele>442.82</ele>
        <time>2020-10-11T16:19:56Z</time>
      </trkpt>
      <trkpt lat="43.38917" lon="5.40594">
        <ele>441.86</ele>
        <time>2020-10-11T16:19:59Z</time>
      </trkpt>
      <trkpt lat="43.38917" lon="5.4058">
        <ele>440.9</ele>
        <time>2020-10-11T16:20:08Z</time>
      </trkpt>
      <trkpt lat="43.38915" lon="5.4057">
        <ele>439.94</ele>
        <time>2020-10-11T16:20:14Z</time>
      </trkpt>
      <trkpt lat="43.38915" lon="5.40567">
        <ele>439.46</ele>
        <time>2020-10-11T16:20:16Z</time>
      </trkpt>
      <trkpt lat="43.38912" lon="5.40564">
        <ele>438.98</ele>
        <time>2020-10-11T16:20:30Z</time>
      </trkpt>
      <trkpt lat="43.38915" lon="5.40562">
        <ele>438.98</ele>
        <time>2020-10-11T16:20:45Z</time>
      </trkpt>
      <trkpt lat="43.38913" lon="5.4056">
        <ele>439.46</ele>
        <time>2020-10-11T16:20:55Z</time>
      </trkpt>
      <trkpt lat="43.38914" lon="5.4056">
        <ele>440.42</ele>
        <time>2020-10-11T16:21:13Z</time>
      </trkpt>
      <trkpt lat="43.38913" lon="5.40559">
        <ele>439.46</ele>
        <time>2020-10-11T16:21:19Z</time>
      </trkpt>
      <trkpt lat="43.38912" lon="5.40554">
        <ele>438.98</ele>
        <time>2020-10-11T16:21:26Z</time>
      </trkpt>
      <trkpt lat="43.38912" lon="5.40549">
        <ele>438.5</ele>
        <time>2020-10-11T16:21:30Z</time>
      </trkpt>
      <trkpt lat="43.38911" lon="5.40543">
        <ele>438.02</ele>
        <time>2020-10-11T16:21:45Z</time>
      </trkpt>
      <trkpt lat="43.3891" lon="5.40542">
        <ele>438.02</ele>
        <time>2020-10-11T16:21:47Z</time>
      </trkpt>
      <trkpt lat="43.38909" lon="5.40538">
        <ele>437.54</ele>
        <time>2020-10-11T16:21:50Z</time>
      </trkpt>
      <trkpt lat="43.38908" lon="5.40535">
        <ele>437.54</ele>
        <time>2020-10-11T16:21:52Z</time>
      </trkpt>
      <trkpt lat="43.38908" lon="5.40532">
        <ele>437.54</ele>
        <time>2020-10-11T16:21:55Z</time>
      </trkpt>
      <trkpt lat="43.38907" lon="5.40529">
        <ele>437.06</ele>
        <time>2020-10-11T16:21:58Z</time>
      </trkpt>
      <trkpt lat="43.38905" lon="5.40524">
        <ele>437.54</ele>
        <time>2020-10-11T16:22:02Z</time>
      </trkpt>
      <trkpt lat="43.38904" lon="5.40521">
        <ele>437.54</ele>
        <time>2020-10-11T16:22:04Z</time>
      </trkpt>
      <trkpt lat="43.38902" lon="5.40515">
        <ele>437.54</ele>
        <time>2020-10-11T16:22:11Z</time>
      </trkpt>
      <trkpt lat="43.38901" lon="5.40509">
        <ele>438.02</ele>
        <time>2020-10-11T16:22:15Z</time>
      </trkpt>
      <trkpt lat="43.389" lon="5.40506">
        <ele>438.5</ele>
        <time>2020-10-11T16:22:17Z</time>
      </trkpt>
      <trkpt lat="43.38897" lon="5.40498">
        <ele>438.5</ele>
        <time>2020-10-11T16:22:24Z</time>
      </trkpt>
      <trkpt lat="43.38895" lon="5.40496">
        <ele>438.5</ele>
        <time>2020-10-11T16:22:26Z</time>
      </trkpt>
      <trkpt lat="43.38891" lon="5.40479">
        <ele>435.61</ele>
        <time>2020-10-11T16:22:39Z</time>
      </trkpt>
      <trkpt lat="43.38886" lon="5.40467">
        <ele>435.13</ele>
        <time>2020-10-11T16:22:51Z</time>
      </trkpt>
      <trkpt lat="43.3888" lon="5.40456">
        <ele>434.65</ele>
        <time>2020-10-11T16:23:01Z</time>
      </trkpt>
      <trkpt lat="43.38876" lon="5.40452">
        <ele>435.13</ele>
        <time>2020-10-11T16:23:06Z</time>
      </trkpt>
      <trkpt lat="43.38873" lon="5.40439">
        <ele>436.1</ele>
        <time>2020-10-11T16:23:14Z</time>
      </trkpt>
      <trkpt lat="43.38867" lon="5.40425">
        <ele>436.58</ele>
        <time>2020-10-11T16:23:25Z</time>
      </trkpt>
      <trkpt lat="43.38867" lon="5.40421">
        <ele>436.1</ele>
        <time>2020-10-11T16:23:28Z</time>
      </trkpt>
      <trkpt lat="43.38867" lon="5.40418">
        <ele>436.1</ele>
        <time>2020-10-11T16:23:30Z</time>
      </trkpt>
      <trkpt lat="43.38868" lon="5.40413">
        <ele>436.1</ele>
        <time>2020-10-11T16:23:35Z</time>
      </trkpt>
      <trkpt lat="43.38877" lon="5.40409">
        <ele>438.02</ele>
        <time>2020-10-11T16:23:48Z</time>
      </trkpt>
      <trkpt lat="43.38879" lon="5.40411">
        <ele>438.02</ele>
        <time>2020-10-11T16:23:52Z</time>
      </trkpt>
      <trkpt lat="43.38892" lon="5.40415">
        <ele>437.54</ele>
        <time>2020-10-11T16:24:06Z</time>
      </trkpt>
      <trkpt lat="43.38896" lon="5.40415">
        <ele>438.5</ele>
        <time>2020-10-11T16:24:11Z</time>
      </trkpt>
      <trkpt lat="43.389" lon="5.40415">
        <ele>438.98</ele>
        <time>2020-10-11T16:24:14Z</time>
      </trkpt>
      <trkpt lat="43.38913" lon="5.40414">
        <ele>440.42</ele>
        <time>2020-10-11T16:24:26Z</time>
      </trkpt>
      <trkpt lat="43.38917" lon="5.40414">
        <ele>440.9</ele>
        <time>2020-10-11T16:24:29Z</time>
      </trkpt>
      <trkpt lat="43.38921" lon="5.40411">
        <ele>440.42</ele>
        <time>2020-10-11T16:24:32Z</time>
      </trkpt>
      <trkpt lat="43.38934" lon="5.40401">
        <ele>438.02</ele>
        <time>2020-10-11T16:24:46Z</time>
      </trkpt>
      <trkpt lat="43.38938" lon="5.40397">
        <ele>438.5</ele>
        <time>2020-10-11T16:24:51Z</time>
      </trkpt>
      <trkpt lat="43.38941" lon="5.40395">
        <ele>438.98</ele>
        <time>2020-10-11T16:24:54Z</time>
      </trkpt>
      <trkpt lat="43.38951" lon="5.40383">
        <ele>441.38</ele>
        <time>2020-10-11T16:25:07Z</time>
      </trkpt>
      <trkpt lat="43.38962" lon="5.40374">
        <ele>442.82</ele>
        <time>2020-10-11T16:25:20Z</time>
      </trkpt>
      <trkpt lat="43.38963" lon="5.40373">
        <ele>442.82</ele>
        <time>2020-10-11T16:25:21Z</time>
      </trkpt>
      <trkpt lat="43.38968" lon="5.40367">
        <ele>439.94</ele>
        <time>2020-10-11T16:25:36Z</time>
      </trkpt>
      <trkpt lat="43.38971" lon="5.40365">
        <ele>438.02</ele>
        <time>2020-10-11T16:25:51Z</time>
      </trkpt>
      <trkpt lat="43.38977" lon="5.40359">
        <ele>436.1</ele>
        <time>2020-10-11T16:25:58Z</time>
      </trkpt>
      <trkpt lat="43.38986" lon="5.40348">
        <ele>433.69</ele>
        <time>2020-10-11T16:26:10Z</time>
      </trkpt>
      <trkpt lat="43.38994" lon="5.40336">
        <ele>430.33</ele>
        <time>2020-10-11T16:26:21Z</time>
      </trkpt>
      <trkpt lat="43.38996" lon="5.40334">
        <ele>429.85</ele>
        <time>2020-10-11T16:26:23Z</time>
      </trkpt>
      <trkpt lat="43.38998" lon="5.4033">
        <ele>429.37</ele>
        <time>2020-10-11T16:26:26Z</time>
      </trkpt>
      <trkpt lat="43.39005" lon="5.40317">
        <ele>426.48</ele>
        <time>2020-10-11T16:26:36Z</time>
      </trkpt>
      <trkpt lat="43.39008" lon="5.40313">
        <ele>426</ele>
        <time>2020-10-11T16:26:40Z</time>
      </trkpt>
      <trkpt lat="43.3901" lon="5.40311">
        <ele>426.48</ele>
        <time>2020-10-11T16:26:42Z</time>
      </trkpt>
      <trkpt lat="43.39012" lon="5.40308">
        <ele>426.48</ele>
        <time>2020-10-11T16:26:45Z</time>
      </trkpt>
      <trkpt lat="43.39014" lon="5.40305">
        <ele>426.48</ele>
        <time>2020-10-11T16:26:48Z</time>
      </trkpt>
      <trkpt lat="43.39026" lon="5.40293">
        <ele>426.48</ele>
        <time>2020-10-11T16:27:02Z</time>
      </trkpt>
      <trkpt lat="43.39031" lon="5.40293">
        <ele>426.48</ele>
        <time>2020-10-11T16:27:08Z</time>
      </trkpt>
      <trkpt lat="43.39034" lon="5.40294">
        <ele>426.48</ele>
        <time>2020-10-11T16:27:10Z</time>
      </trkpt>
      <trkpt lat="43.39037" lon="5.40293">
        <ele>426</ele>
        <time>2020-10-11T16:27:13Z</time>
      </trkpt>
      <trkpt lat="43.39039" lon="5.40294">
        <ele>425.04</ele>
        <time>2020-10-11T16:27:15Z</time>
      </trkpt>
      <trkpt lat="43.39048" lon="5.40299">
        <ele>424.08</ele>
        <time>2020-10-11T16:27:25Z</time>
      </trkpt>
      <trkpt lat="43.39051" lon="5.40301">
        <ele>424.56</ele>
        <time>2020-10-11T16:27:28Z</time>
      </trkpt>
      <trkpt lat="43.39059" lon="5.40307">
        <ele>424.56</ele>
        <time>2020-10-11T16:27:37Z</time>
      </trkpt>
      <trkpt lat="43.3907" lon="5.4032">
        <ele>423.6</ele>
        <time>2020-10-11T16:27:50Z</time>
      </trkpt>
      <trkpt lat="43.39077" lon="5.40328">
        <ele>424.08</ele>
        <time>2020-10-11T16:27:57Z</time>
      </trkpt>
      <trkpt lat="43.39079" lon="5.40329">
        <ele>424.08</ele>
        <time>2020-10-11T16:27:59Z</time>
      </trkpt>
      <trkpt lat="43.39091" lon="5.40342">
        <ele>424.56</ele>
        <time>2020-10-11T16:28:13Z</time>
      </trkpt>
      <trkpt lat="43.39093" lon="5.40344">
        <ele>424.08</ele>
        <time>2020-10-11T16:28:15Z</time>
      </trkpt>
      <trkpt lat="43.39097" lon="5.40349">
        <ele>423.12</ele>
        <time>2020-10-11T16:28:20Z</time>
      </trkpt>
      <trkpt lat="43.39107" lon="5.40357">
        <ele>421.19</ele>
        <time>2020-10-11T16:28:29Z</time>
      </trkpt>
      <trkpt lat="43.39109" lon="5.40358">
        <ele>421.19</ele>
        <time>2020-10-11T16:28:31Z</time>
      </trkpt>
      <trkpt lat="43.39112" lon="5.40361">
        <ele>420.23</ele>
        <time>2020-10-11T16:28:34Z</time>
      </trkpt>
      <trkpt lat="43.39127" lon="5.40369">
        <ele>419.75</ele>
        <time>2020-10-11T16:28:49Z</time>
      </trkpt>
      <trkpt lat="43.39134" lon="5.4037">
        <ele>420.23</ele>
        <time>2020-10-11T16:28:56Z</time>
      </trkpt>
      <trkpt lat="43.39143" lon="5.40375">
        <ele>421.68</ele>
        <time>2020-10-11T16:29:05Z</time>
      </trkpt>
      <trkpt lat="43.3915" lon="5.4038">
        <ele>421.68</ele>
        <time>2020-10-11T16:29:11Z</time>
      </trkpt>
      <trkpt lat="43.39161" lon="5.40393">
        <ele>420.71</ele>
        <time>2020-10-11T16:29:25Z</time>
      </trkpt>
      <trkpt lat="43.39165" lon="5.40399">
        <ele>420.23</ele>
        <time>2020-10-11T16:29:33Z</time>
      </trkpt>
      <trkpt lat="43.39171" lon="5.40407">
        <ele>419.27</ele>
        <time>2020-10-11T16:29:42Z</time>
      </trkpt>
      <trkpt lat="43.39182" lon="5.40412">
        <ele>417.83</ele>
        <time>2020-10-11T16:29:54Z</time>
      </trkpt>
      <trkpt lat="43.39197" lon="5.4041">
        <ele>418.79</ele>
        <time>2020-10-11T16:30:07Z</time>
      </trkpt>
      <trkpt lat="43.39204" lon="5.40404">
        <ele>414.95</ele>
        <time>2020-10-11T16:30:18Z</time>
      </trkpt>
      <trkpt lat="43.39208" lon="5.40406">
        <ele>413.5</ele>
        <time>2020-10-11T16:30:29Z</time>
      </trkpt>
      <trkpt lat="43.3921" lon="5.40407">
        <ele>413.02</ele>
        <time>2020-10-11T16:30:31Z</time>
      </trkpt>
      <trkpt lat="43.3922" lon="5.40419">
        <ele>410.62</ele>
        <time>2020-10-11T16:30:44Z</time>
      </trkpt>
      <trkpt lat="43.3923" lon="5.40426">
        <ele>410.62</ele>
        <time>2020-10-11T16:30:56Z</time>
      </trkpt>
      <trkpt lat="43.39237" lon="5.40429">
        <ele>411.58</ele>
        <time>2020-10-11T16:31:05Z</time>
      </trkpt>
      <trkpt lat="43.39252" lon="5.40431">
        <ele>410.14</ele>
        <time>2020-10-11T16:31:19Z</time>
      </trkpt>
      <trkpt lat="43.39261" lon="5.40431">
        <ele>412.54</ele>
        <time>2020-10-11T16:31:30Z</time>
      </trkpt>
      <trkpt lat="43.39265" lon="5.40429">
        <ele>413.02</ele>
        <time>2020-10-11T16:31:42Z</time>
      </trkpt>
      <trkpt lat="43.39267" lon="5.40427">
        <ele>412.54</ele>
        <time>2020-10-11T16:31:44Z</time>
      </trkpt>
      <trkpt lat="43.39273" lon="5.40424">
        <ele>411.1</ele>
        <time>2020-10-11T16:31:49Z</time>
      </trkpt>
      <trkpt lat="43.39277" lon="5.40423">
        <ele>410.14</ele>
        <time>2020-10-11T16:31:52Z</time>
      </trkpt>
      <trkpt lat="43.39287" lon="5.40416">
        <ele>408.22</ele>
        <time>2020-10-11T16:32:03Z</time>
      </trkpt>
      <trkpt lat="43.3929" lon="5.40414">
        <ele>408.22</ele>
        <time>2020-10-11T16:32:11Z</time>
      </trkpt>
      <trkpt lat="43.39302" lon="5.40409">
        <ele>405.81</ele>
        <time>2020-10-11T16:32:25Z</time>
      </trkpt>
      <trkpt lat="43.39311" lon="5.40407">
        <ele>404.85</ele>
        <time>2020-10-11T16:32:34Z</time>
      </trkpt>
      <trkpt lat="43.39315" lon="5.40406">
        <ele>404.37</ele>
        <time>2020-10-11T16:32:38Z</time>
      </trkpt>
      <trkpt lat="43.39319" lon="5.40405">
        <ele>404.37</ele>
        <time>2020-10-11T16:32:41Z</time>
      </trkpt>
      <trkpt lat="43.39329" lon="5.40402">
        <ele>402.45</ele>
        <time>2020-10-11T16:32:50Z</time>
      </trkpt>
      <trkpt lat="43.3933" lon="5.40402">
        <ele>402.45</ele>
        <time>2020-10-11T16:32:52Z</time>
      </trkpt>
      <trkpt lat="43.39343" lon="5.40395">
        <ele>399.57</ele>
        <time>2020-10-11T16:33:06Z</time>
      </trkpt>
      <trkpt lat="43.39353" lon="5.40388">
        <ele>399.08</ele>
        <time>2020-10-11T16:33:18Z</time>
      </trkpt>
      <trkpt lat="43.39365" lon="5.40378">
        <ele>400.53</ele>
        <time>2020-10-11T16:33:33Z</time>
      </trkpt>
      <trkpt lat="43.39379" lon="5.40368">
        <ele>401.97</ele>
        <time>2020-10-11T16:33:48Z</time>
      </trkpt>
      <trkpt lat="43.39384" lon="5.40359">
        <ele>399.57</ele>
        <time>2020-10-11T16:33:58Z</time>
      </trkpt>
      <trkpt lat="43.39388" lon="5.40353">
        <ele>395.72</ele>
        <time>2020-10-11T16:34:15Z</time>
      </trkpt>
      <trkpt lat="43.39395" lon="5.40345">
        <ele>394.28</ele>
        <time>2020-10-11T16:34:24Z</time>
      </trkpt>
      <trkpt lat="43.39403" lon="5.40329">
        <ele>391.87</ele>
        <time>2020-10-11T16:34:38Z</time>
      </trkpt>
      <trkpt lat="43.39408" lon="5.4032">
        <ele>391.39</ele>
        <time>2020-10-11T16:34:46Z</time>
      </trkpt>
      <trkpt lat="43.39409" lon="5.40316">
        <ele>390.43</ele>
        <time>2020-10-11T16:34:49Z</time>
      </trkpt>
      <trkpt lat="43.39415" lon="5.40298">
        <ele>387.55</ele>
        <time>2020-10-11T16:35:03Z</time>
      </trkpt>
      <trkpt lat="43.39415" lon="5.40274">
        <ele>386.11</ele>
        <time>2020-10-11T16:35:18Z</time>
      </trkpt>
      <trkpt lat="43.39412" lon="5.40262">
        <ele>385.15</ele>
        <time>2020-10-11T16:35:26Z</time>
      </trkpt>
      <trkpt lat="43.39411" lon="5.4026">
        <ele>385.15</ele>
        <time>2020-10-11T16:35:28Z</time>
      </trkpt>
      <trkpt lat="43.3941" lon="5.40257">
        <ele>385.15</ele>
        <time>2020-10-11T16:35:30Z</time>
      </trkpt>
      <trkpt lat="43.39397" lon="5.40251">
        <ele>383.22</ele>
        <time>2020-10-11T16:35:41Z</time>
      </trkpt>
      <trkpt lat="43.39394" lon="5.4025">
        <ele>382.74</ele>
        <time>2020-10-11T16:35:45Z</time>
      </trkpt>
      <trkpt lat="43.39383" lon="5.40252">
        <ele>381.78</ele>
        <time>2020-10-11T16:35:58Z</time>
      </trkpt>
      <trkpt lat="43.39373" lon="5.40259">
        <ele>381.78</ele>
        <time>2020-10-11T16:36:11Z</time>
      </trkpt>
      <trkpt lat="43.39369" lon="5.40265">
        <ele>380.82</ele>
        <time>2020-10-11T16:36:17Z</time>
      </trkpt>
      <trkpt lat="43.39368" lon="5.40266">
        <ele>380.34</ele>
        <time>2020-10-11T16:36:19Z</time>
      </trkpt>
      <trkpt lat="43.39366" lon="5.40268">
        <ele>379.86</ele>
        <time>2020-10-11T16:36:22Z</time>
      </trkpt>
      <trkpt lat="43.39365" lon="5.4027">
        <ele>379.38</ele>
        <time>2020-10-11T16:36:24Z</time>
      </trkpt>
      <trkpt lat="43.39361" lon="5.40273">
        <ele>378.42</ele>
        <time>2020-10-11T16:36:29Z</time>
      </trkpt>
      <trkpt lat="43.39358" lon="5.40274">
        <ele>378.9</ele>
        <time>2020-10-11T16:36:31Z</time>
      </trkpt>
      <trkpt lat="43.3935" lon="5.40267">
        <ele>377.94</ele>
        <time>2020-10-11T16:36:40Z</time>
      </trkpt>
      <trkpt lat="43.3935" lon="5.40258">
        <ele>378.9</ele>
        <time>2020-10-11T16:36:48Z</time>
      </trkpt>
      <trkpt lat="43.39348" lon="5.40248">
        <ele>380.82</ele>
        <time>2020-10-11T16:37:01Z</time>
      </trkpt>
      <trkpt lat="43.39348" lon="5.40245">
        <ele>381.3</ele>
        <time>2020-10-11T16:37:03Z</time>
      </trkpt>
      <trkpt lat="43.39355" lon="5.40229">
        <ele>378.9</ele>
        <time>2020-10-11T16:37:15Z</time>
      </trkpt>
      <trkpt lat="43.39361" lon="5.40218">
        <ele>376.97</ele>
        <time>2020-10-11T16:37:23Z</time>
      </trkpt>
      <trkpt lat="43.39364" lon="5.40209">
        <ele>376.01</ele>
        <time>2020-10-11T16:37:29Z</time>
      </trkpt>
      <trkpt lat="43.39364" lon="5.40206">
        <ele>375.53</ele>
        <time>2020-10-11T16:37:31Z</time>
      </trkpt>
      <trkpt lat="43.39366" lon="5.40201">
        <ele>374.57</ele>
        <time>2020-10-11T16:37:34Z</time>
      </trkpt>
      <trkpt lat="43.39363" lon="5.40191">
        <ele>372.17</ele>
        <time>2020-10-11T16:37:44Z</time>
      </trkpt>
      <trkpt lat="43.39362" lon="5.40188">
        <ele>372.17</ele>
        <time>2020-10-11T16:37:51Z</time>
      </trkpt>
      <trkpt lat="43.39355" lon="5.40187">
        <ele>372.65</ele>
        <time>2020-10-11T16:38:00Z</time>
      </trkpt>
      <trkpt lat="43.39342" lon="5.40192">
        <ele>370.24</ele>
        <time>2020-10-11T16:38:13Z</time>
      </trkpt>
      <trkpt lat="43.39332" lon="5.40197">
        <ele>370.24</ele>
        <time>2020-10-11T16:38:25Z</time>
      </trkpt>
      <trkpt lat="43.3933" lon="5.40199">
        <ele>370.24</ele>
        <time>2020-10-11T16:38:27Z</time>
      </trkpt>
      <trkpt lat="43.3932" lon="5.4021">
        <ele>369.76</ele>
        <time>2020-10-11T16:38:39Z</time>
      </trkpt>
      <trkpt lat="43.39319" lon="5.40213">
        <ele>369.76</ele>
        <time>2020-10-11T16:38:41Z</time>
      </trkpt>
      <trkpt lat="43.39305" lon="5.40226">
        <ele>368.32</ele>
        <time>2020-10-11T16:38:56Z</time>
      </trkpt>
      <trkpt lat="43.39302" lon="5.40228">
        <ele>368.32</ele>
        <time>2020-10-11T16:39:00Z</time>
      </trkpt>
      <trkpt lat="43.39295" lon="5.40229">
        <ele>367.84</ele>
        <time>2020-10-11T16:39:06Z</time>
      </trkpt>
      <trkpt lat="43.39286" lon="5.40231">
        <ele>367.36</ele>
        <time>2020-10-11T16:39:15Z</time>
      </trkpt>
      <trkpt lat="43.39281" lon="5.4023">
        <ele>368.32</ele>
        <time>2020-10-11T16:39:20Z</time>
      </trkpt>
      <trkpt lat="43.39277" lon="5.40228">
        <ele>368.8</ele>
        <time>2020-10-11T16:39:25Z</time>
      </trkpt>
      <trkpt lat="43.39275" lon="5.40222">
        <ele>370.24</ele>
        <time>2020-10-11T16:39:30Z</time>
      </trkpt>
      <trkpt lat="43.39271" lon="5.40206">
        <ele>371.69</ele>
        <time>2020-10-11T16:39:42Z</time>
      </trkpt>
      <trkpt lat="43.3927" lon="5.40201">
        <ele>371.69</ele>
        <time>2020-10-11T16:39:45Z</time>
      </trkpt>
      <trkpt lat="43.39269" lon="5.40193">
        <ele>371.21</ele>
        <time>2020-10-11T16:39:50Z</time>
      </trkpt>
      <trkpt lat="43.39266" lon="5.40181">
        <ele>369.28</ele>
        <time>2020-10-11T16:39:58Z</time>
      </trkpt>
      <trkpt lat="43.39261" lon="5.40172">
        <ele>367.36</ele>
        <time>2020-10-11T16:40:06Z</time>
      </trkpt>
      <trkpt lat="43.39246" lon="5.40165">
        <ele>367.36</ele>
        <time>2020-10-11T16:40:19Z</time>
      </trkpt>
      <trkpt lat="43.39243" lon="5.40164">
        <ele>367.36</ele>
        <time>2020-10-11T16:40:21Z</time>
      </trkpt>
      <trkpt lat="43.39237" lon="5.4016">
        <ele>367.36</ele>
        <time>2020-10-11T16:40:27Z</time>
      </trkpt>
      <trkpt lat="43.39235" lon="5.40156">
        <ele>367.84</ele>
        <time>2020-10-11T16:40:30Z</time>
      </trkpt>
      <trkpt lat="43.39233" lon="5.40154">
        <ele>367.84</ele>
        <time>2020-10-11T16:40:32Z</time>
      </trkpt>
      <trkpt lat="43.39222" lon="5.40141">
        <ele>368.8</ele>
        <time>2020-10-11T16:40:44Z</time>
      </trkpt>
      <trkpt lat="43.39218" lon="5.40138">
        <ele>369.28</ele>
        <time>2020-10-11T16:40:47Z</time>
      </trkpt>
      <trkpt lat="43.39216" lon="5.40134">
        <ele>369.28</ele>
        <time>2020-10-11T16:40:51Z</time>
      </trkpt>
      <trkpt lat="43.3921" lon="5.40126">
        <ele>368.32</ele>
        <time>2020-10-11T16:40:59Z</time>
      </trkpt>
      <trkpt lat="43.39199" lon="5.40121">
        <ele>365.92</ele>
        <time>2020-10-11T16:41:12Z</time>
      </trkpt>
      <trkpt lat="43.39197" lon="5.40121">
        <ele>365.44</ele>
        <time>2020-10-11T16:41:14Z</time>
      </trkpt>
      <trkpt lat="43.39194" lon="5.40122">
        <ele>364.96</ele>
        <time>2020-10-11T16:41:17Z</time>
      </trkpt>
      <trkpt lat="43.39191" lon="5.40125">
        <ele>364.96</ele>
        <time>2020-10-11T16:41:20Z</time>
      </trkpt>
      <trkpt lat="43.39184" lon="5.40139">
        <ele>366.88</ele>
        <time>2020-10-11T16:41:32Z</time>
      </trkpt>
      <trkpt lat="43.39181" lon="5.40146">
        <ele>366.88</ele>
        <time>2020-10-11T16:41:38Z</time>
      </trkpt>
      <trkpt lat="43.39174" lon="5.40156">
        <ele>365.92</ele>
        <time>2020-10-11T16:41:47Z</time>
      </trkpt>
      <trkpt lat="43.39166" lon="5.4016">
        <ele>365.44</ele>
        <time>2020-10-11T16:41:56Z</time>
      </trkpt>
      <trkpt lat="43.39161" lon="5.4016">
        <ele>365.92</ele>
        <time>2020-10-11T16:42:01Z</time>
      </trkpt>
      <trkpt lat="43.3915" lon="5.4015">
        <ele>366.4</ele>
        <time>2020-10-11T16:42:14Z</time>
      </trkpt>
      <trkpt lat="43.39144" lon="5.40142">
        <ele>366.88</ele>
        <time>2020-10-11T16:42:21Z</time>
      </trkpt>
      <trkpt lat="43.39135" lon="5.40133">
        <ele>367.84</ele>
        <time>2020-10-11T16:42:31Z</time>
      </trkpt>
      <trkpt lat="43.39132" lon="5.40126">
        <ele>367.36</ele>
        <time>2020-10-11T16:42:36Z</time>
      </trkpt>
      <trkpt lat="43.39125" lon="5.40111">
        <ele>366.4</ele>
        <time>2020-10-11T16:42:47Z</time>
      </trkpt>
      <trkpt lat="43.39122" lon="5.40101">
        <ele>366.88</ele>
        <time>2020-10-11T16:42:54Z</time>
      </trkpt>
      <trkpt lat="43.39121" lon="5.40096">
        <ele>367.36</ele>
        <time>2020-10-11T16:42:57Z</time>
      </trkpt>
      <trkpt lat="43.39119" lon="5.40083">
        <ele>367.84</ele>
        <time>2020-10-11T16:43:06Z</time>
      </trkpt>
      <trkpt lat="43.39113" lon="5.4006">
        <ele>365.44</ele>
        <time>2020-10-11T16:43:20Z</time>
      </trkpt>
      <trkpt lat="43.39113" lon="5.40057">
        <ele>365.44</ele>
        <time>2020-10-11T16:43:22Z</time>
      </trkpt>
      <trkpt lat="43.39111" lon="5.40054">
        <ele>365.44</ele>
        <time>2020-10-11T16:43:24Z</time>
      </trkpt>
      <trkpt lat="43.3911" lon="5.40046">
        <ele>364.48</ele>
        <time>2020-10-11T16:43:31Z</time>
      </trkpt>
      <trkpt lat="43.39111" lon="5.40023">
        <ele>363.52</ele>
        <time>2020-10-11T16:43:45Z</time>
      </trkpt>
      <trkpt lat="43.3911" lon="5.40018">
        <ele>363.52</ele>
        <time>2020-10-11T16:43:48Z</time>
      </trkpt>
      <trkpt lat="43.39111" lon="5.40015">
        <ele>363.52</ele>
        <time>2020-10-11T16:43:50Z</time>
      </trkpt>
      <trkpt lat="43.39112" lon="5.39999">
        <ele>363.04</ele>
        <time>2020-10-11T16:44:00Z</time>
      </trkpt>
      <trkpt lat="43.39112" lon="5.39994">
        <ele>363.04</ele>
        <time>2020-10-11T16:44:03Z</time>
      </trkpt>
      <trkpt lat="43.39113" lon="5.39979">
        <ele>363.04</ele>
        <time>2020-10-11T16:44:13Z</time>
      </trkpt>
      <trkpt lat="43.39112" lon="5.39967">
        <ele>361.59</ele>
        <time>2020-10-11T16:44:20Z</time>
      </trkpt>
      <trkpt lat="43.39111" lon="5.39961">
        <ele>360.63</ele>
        <time>2020-10-11T16:44:24Z</time>
      </trkpt>
      <trkpt lat="43.39111" lon="5.39958">
        <ele>360.15</ele>
        <time>2020-10-11T16:44:26Z</time>
      </trkpt>
      <trkpt lat="43.39108" lon="5.3995">
        <ele>359.67</ele>
        <time>2020-10-11T16:44:37Z</time>
      </trkpt>
      <trkpt lat="43.39107" lon="5.3995">
        <ele>359.67</ele>
        <time>2020-10-11T16:44:41Z</time>
      </trkpt>
      <trkpt lat="43.39109" lon="5.39936">
        <ele>358.71</ele>
        <time>2020-10-11T16:44:51Z</time>
      </trkpt>
      <trkpt lat="43.39109" lon="5.39924">
        <ele>358.23</ele>
        <time>2020-10-11T16:44:58Z</time>
      </trkpt>
      <trkpt lat="43.3911" lon="5.39914">
        <ele>357.27</ele>
        <time>2020-10-11T16:45:04Z</time>
      </trkpt>
      <trkpt lat="43.39111" lon="5.39911">
        <ele>357.27</ele>
        <time>2020-10-11T16:45:06Z</time>
      </trkpt>
      <trkpt lat="43.39111" lon="5.39901">
        <ele>356.79</ele>
        <time>2020-10-11T16:45:12Z</time>
      </trkpt>
      <trkpt lat="43.39111" lon="5.39892">
        <ele>356.31</ele>
        <time>2020-10-11T16:45:18Z</time>
      </trkpt>
      <trkpt lat="43.3911" lon="5.39882">
        <ele>356.31</ele>
        <time>2020-10-11T16:45:24Z</time>
      </trkpt>
      <trkpt lat="43.39111" lon="5.39876">
        <ele>355.34</ele>
        <time>2020-10-11T16:45:28Z</time>
      </trkpt>
      <trkpt lat="43.3911" lon="5.39874">
        <ele>354.86</ele>
        <time>2020-10-11T16:45:30Z</time>
      </trkpt>
      <trkpt lat="43.39111" lon="5.39862">
        <ele>353.42</ele>
        <time>2020-10-11T16:45:37Z</time>
      </trkpt>
      <trkpt lat="43.39111" lon="5.39848">
        <ele>353.9</ele>
        <time>2020-10-11T16:45:46Z</time>
      </trkpt>
      <trkpt lat="43.3911" lon="5.39843">
        <ele>353.9</ele>
        <time>2020-10-11T16:45:49Z</time>
      </trkpt>
      <trkpt lat="43.3911" lon="5.39841">
        <ele>353.9</ele>
        <time>2020-10-11T16:45:51Z</time>
      </trkpt>
      <trkpt lat="43.39106" lon="5.39824">
        <ele>352.94</ele>
        <time>2020-10-11T16:46:03Z</time>
      </trkpt>
      <trkpt lat="43.391" lon="5.3981">
        <ele>352.46</ele>
        <time>2020-10-11T16:46:14Z</time>
      </trkpt>
      <trkpt lat="43.39097" lon="5.39803">
        <ele>352.46</ele>
        <time>2020-10-11T16:46:21Z</time>
      </trkpt>
      <trkpt lat="43.39095" lon="5.39801">
        <ele>352.46</ele>
        <time>2020-10-11T16:46:23Z</time>
      </trkpt>
      <trkpt lat="43.39091" lon="5.39793">
        <ele>351.5</ele>
        <time>2020-10-11T16:46:30Z</time>
      </trkpt>
      <trkpt lat="43.3909" lon="5.3979">
        <ele>351.5</ele>
        <time>2020-10-11T16:46:32Z</time>
      </trkpt>
      <trkpt lat="43.39088" lon="5.39786">
        <ele>350.54</ele>
        <time>2020-10-11T16:46:35Z</time>
      </trkpt>
      <trkpt lat="43.39086" lon="5.39783">
        <ele>350.06</ele>
        <time>2020-10-11T16:46:38Z</time>
      </trkpt>
      <trkpt lat="43.39075" lon="5.39774">
        <ele>348.62</ele>
        <time>2020-10-11T16:46:51Z</time>
      </trkpt>
      <trkpt lat="43.39072" lon="5.39773">
        <ele>348.62</ele>
        <time>2020-10-11T16:46:56Z</time>
      </trkpt>
      <trkpt lat="43.39061" lon="5.39774">
        <ele>347.65</ele>
        <time>2020-10-11T16:47:06Z</time>
      </trkpt>
      <trkpt lat="43.39056" lon="5.39776">
        <ele>348.13</ele>
        <time>2020-10-11T16:47:11Z</time>
      </trkpt>
      <trkpt lat="43.39049" lon="5.39781">
        <ele>347.17</ele>
        <time>2020-10-11T16:47:17Z</time>
      </trkpt>
      <trkpt lat="43.39046" lon="5.39784">
        <ele>346.69</ele>
        <time>2020-10-11T16:47:21Z</time>
      </trkpt>
      <trkpt lat="43.39038" lon="5.39788">
        <ele>346.21</ele>
        <time>2020-10-11T16:47:30Z</time>
      </trkpt>
      <trkpt lat="43.39028" lon="5.39787">
        <ele>345.73</ele>
        <time>2020-10-11T16:47:41Z</time>
      </trkpt>
      <trkpt lat="43.39015" lon="5.39774">
        <ele>345.25</ele>
        <time>2020-10-11T16:47:55Z</time>
      </trkpt>
      <trkpt lat="43.39013" lon="5.39772">
        <ele>345.25</ele>
        <time>2020-10-11T16:47:58Z</time>
      </trkpt>
      <trkpt lat="43.39009" lon="5.39767">
        <ele>345.73</ele>
        <time>2020-10-11T16:48:03Z</time>
      </trkpt>
      <trkpt lat="43.38999" lon="5.39751">
        <ele>345.73</ele>
        <time>2020-10-11T16:48:18Z</time>
      </trkpt>
      <trkpt lat="43.3899" lon="5.39739">
        <ele>344.29</ele>
        <time>2020-10-11T16:48:31Z</time>
      </trkpt>
      <trkpt lat="43.38985" lon="5.39727">
        <ele>344.29</ele>
        <time>2020-10-11T16:48:43Z</time>
      </trkpt>
      <trkpt lat="43.38979" lon="5.39711">
        <ele>342.37</ele>
        <time>2020-10-11T16:48:56Z</time>
      </trkpt>
      <trkpt lat="43.38974" lon="5.39692">
        <ele>339.96</ele>
        <time>2020-10-11T16:49:10Z</time>
      </trkpt>
      <trkpt lat="43.38974" lon="5.39688">
        <ele>339</ele>
        <time>2020-10-11T16:49:13Z</time>
      </trkpt>
      <trkpt lat="43.38972" lon="5.39681">
        <ele>337.08</ele>
        <time>2020-10-11T16:49:18Z</time>
      </trkpt>
      <trkpt lat="43.38971" lon="5.39674">
        <ele>336.12</ele>
        <time>2020-10-11T16:49:23Z</time>
      </trkpt>
      <trkpt lat="43.3897" lon="5.39672">
        <ele>335.64</ele>
        <time>2020-10-11T16:49:25Z</time>
      </trkpt>
      <trkpt lat="43.38967" lon="5.39656">
        <ele>334.68</ele>
        <time>2020-10-11T16:49:37Z</time>
      </trkpt>
      <trkpt lat="43.38965" lon="5.39648">
        <ele>333.23</ele>
        <time>2020-10-11T16:49:43Z</time>
      </trkpt>
      <trkpt lat="43.38963" lon="5.39638">
        <ele>331.31</ele>
        <time>2020-10-11T16:49:51Z</time>
      </trkpt>
      <trkpt lat="43.38958" lon="5.39619">
        <ele>331.79</ele>
        <time>2020-10-11T16:50:07Z</time>
      </trkpt>
      <trkpt lat="43.38956" lon="5.3961">
        <ele>331.79</ele>
        <time>2020-10-11T16:50:13Z</time>
      </trkpt>
      <trkpt lat="43.38954" lon="5.39607">
        <ele>331.79</ele>
        <time>2020-10-11T16:50:15Z</time>
      </trkpt>
      <trkpt lat="43.38953" lon="5.39598">
        <ele>331.31</ele>
        <time>2020-10-11T16:50:22Z</time>
      </trkpt>
      <trkpt lat="43.38948" lon="5.39577">
        <ele>329.39</ele>
        <time>2020-10-11T16:50:37Z</time>
      </trkpt>
      <trkpt lat="43.38944" lon="5.39558">
        <ele>327.47</ele>
        <time>2020-10-11T16:50:50Z</time>
      </trkpt>
      <trkpt lat="43.38943" lon="5.39548">
        <ele>326.99</ele>
        <time>2020-10-11T16:50:57Z</time>
      </trkpt>
      <trkpt lat="43.38943" lon="5.39545">
        <ele>326.99</ele>
        <time>2020-10-11T16:50:59Z</time>
      </trkpt>
      <trkpt lat="43.38941" lon="5.39531">
        <ele>326.5</ele>
        <time>2020-10-11T16:51:09Z</time>
      </trkpt>
      <trkpt lat="43.3894" lon="5.39528">
        <ele>326.99</ele>
        <time>2020-10-11T16:51:11Z</time>
      </trkpt>
      <trkpt lat="43.38939" lon="5.39518">
        <ele>326.5</ele>
        <time>2020-10-11T16:51:18Z</time>
      </trkpt>
      <trkpt lat="43.38939" lon="5.39516">
        <ele>326.5</ele>
        <time>2020-10-11T16:51:20Z</time>
      </trkpt>
      <trkpt lat="43.38937" lon="5.39504">
        <ele>325.06</ele>
        <time>2020-10-11T16:51:29Z</time>
      </trkpt>
      <trkpt lat="43.38936" lon="5.39492">
        <ele>324.58</ele>
        <time>2020-10-11T16:51:38Z</time>
      </trkpt>
      <trkpt lat="43.38935" lon="5.39482">
        <ele>323.62</ele>
        <time>2020-10-11T16:51:45Z</time>
      </trkpt>
      <trkpt lat="43.38933" lon="5.39465">
        <ele>324.58</ele>
        <time>2020-10-11T16:51:58Z</time>
      </trkpt>
      <trkpt lat="43.38929" lon="5.3945">
        <ele>323.62</ele>
        <time>2020-10-11T16:52:09Z</time>
      </trkpt>
      <trkpt lat="43.38928" lon="5.39445">
        <ele>323.62</ele>
        <time>2020-10-11T16:52:13Z</time>
      </trkpt>
      <trkpt lat="43.38927" lon="5.39439">
        <ele>323.14</ele>
        <time>2020-10-11T16:52:17Z</time>
      </trkpt>
      <trkpt lat="43.38925" lon="5.39429">
        <ele>323.14</ele>
        <time>2020-10-11T16:52:23Z</time>
      </trkpt>
      <trkpt lat="43.38923" lon="5.39416">
        <ele>323.14</ele>
        <time>2020-10-11T16:52:32Z</time>
      </trkpt>
      <trkpt lat="43.38923" lon="5.39412">
        <ele>323.14</ele>
        <time>2020-10-11T16:52:35Z</time>
      </trkpt>
      <trkpt lat="43.38922" lon="5.39409">
        <ele>322.66</ele>
        <time>2020-10-11T16:52:37Z</time>
      </trkpt>
      <trkpt lat="43.38921" lon="5.39401">
        <ele>321.7</ele>
        <time>2020-10-11T16:52:42Z</time>
      </trkpt>
      <trkpt lat="43.38921" lon="5.3939">
        <ele>321.22</ele>
        <time>2020-10-11T16:52:47Z</time>
      </trkpt>
      <trkpt lat="43.38917" lon="5.3936">
        <ele>320.26</ele>
        <time>2020-10-11T16:53:02Z</time>
      </trkpt>
      <trkpt lat="43.38916" lon="5.39359">
        <ele>318.81</ele>
        <time>2020-10-11T16:53:13Z</time>
      </trkpt>
      <trkpt lat="43.38915" lon="5.39356">
        <ele>317.85</ele>
        <time>2020-10-11T16:53:15Z</time>
      </trkpt>
      <trkpt lat="43.38912" lon="5.39344">
        <ele>315.45</ele>
        <time>2020-10-11T16:53:23Z</time>
      </trkpt>
      <trkpt lat="43.38912" lon="5.3934">
        <ele>314.97</ele>
        <time>2020-10-11T16:53:26Z</time>
      </trkpt>
      <trkpt lat="43.38911" lon="5.39337">
        <ele>314.97</ele>
        <time>2020-10-11T16:53:28Z</time>
      </trkpt>
      <trkpt lat="43.38911" lon="5.39333">
        <ele>314.97</ele>
        <time>2020-10-11T16:53:31Z</time>
      </trkpt>
      <trkpt lat="43.3891" lon="5.39331">
        <ele>314.97</ele>
        <time>2020-10-11T16:53:33Z</time>
      </trkpt>
      <trkpt lat="43.38909" lon="5.39318">
        <ele>315.45</ele>
        <time>2020-10-11T16:53:42Z</time>
      </trkpt>
      <trkpt lat="43.38906" lon="5.39312">
        <ele>316.41</ele>
        <time>2020-10-11T16:53:59Z</time>
      </trkpt>
      <trkpt lat="43.38905" lon="5.39305">
        <ele>318.81</ele>
        <time>2020-10-11T16:54:23Z</time>
      </trkpt>
      <trkpt lat="43.38902" lon="5.39285">
        <ele>319.3</ele>
        <time>2020-10-11T16:54:36Z</time>
      </trkpt>
      <trkpt lat="43.38901" lon="5.3928">
        <ele>319.78</ele>
        <time>2020-10-11T16:54:39Z</time>
      </trkpt>
      <trkpt lat="43.38898" lon="5.39264">
        <ele>317.85</ele>
        <time>2020-10-11T16:54:50Z</time>
      </trkpt>
      <trkpt lat="43.38895" lon="5.39247">
        <ele>315.93</ele>
        <time>2020-10-11T16:55:01Z</time>
      </trkpt>
      <trkpt lat="43.38894" lon="5.39242">
        <ele>316.41</ele>
        <time>2020-10-11T16:55:05Z</time>
      </trkpt>
      <trkpt lat="43.38893" lon="5.39237">
        <ele>315.93</ele>
        <time>2020-10-11T16:55:08Z</time>
      </trkpt>
      <trkpt lat="43.38893" lon="5.39232">
        <ele>315.93</ele>
        <time>2020-10-11T16:55:11Z</time>
      </trkpt>
      <trkpt lat="43.38886" lon="5.39214">
        <ele>314.97</ele>
        <time>2020-10-11T16:55:25Z</time>
      </trkpt>
      <trkpt lat="43.38884" lon="5.39207">
        <ele>314.49</ele>
        <time>2020-10-11T16:55:30Z</time>
      </trkpt>
      <trkpt lat="43.38883" lon="5.39198">
        <ele>314.49</ele>
        <time>2020-10-11T16:55:36Z</time>
      </trkpt>
      <trkpt lat="43.38881" lon="5.39189">
        <ele>314.01</ele>
        <time>2020-10-11T16:55:43Z</time>
      </trkpt>
      <trkpt lat="43.38879" lon="5.39185">
        <ele>313.53</ele>
        <time>2020-10-11T16:55:46Z</time>
      </trkpt>
      <trkpt lat="43.38879" lon="5.39182">
        <ele>313.53</ele>
        <time>2020-10-11T16:55:48Z</time>
      </trkpt>
      <trkpt lat="43.38877" lon="5.39176">
        <ele>313.05</ele>
        <time>2020-10-11T16:55:53Z</time>
      </trkpt>
      <trkpt lat="43.38876" lon="5.39171">
        <ele>312.57</ele>
        <time>2020-10-11T16:55:56Z</time>
      </trkpt>
      <trkpt lat="43.38873" lon="5.39157">
        <ele>312.09</ele>
        <time>2020-10-11T16:56:06Z</time>
      </trkpt>
      <trkpt lat="43.38872" lon="5.3915">
        <ele>311.6</ele>
        <time>2020-10-11T16:56:11Z</time>
      </trkpt>
      <trkpt lat="43.38869" lon="5.39129">
        <ele>310.64</ele>
        <time>2020-10-11T16:56:24Z</time>
      </trkpt>
      <trkpt lat="43.38867" lon="5.39121">
        <ele>311.12</ele>
        <time>2020-10-11T16:56:30Z</time>
      </trkpt>
      <trkpt lat="43.38863" lon="5.391">
        <ele>310.64</ele>
        <time>2020-10-11T16:56:44Z</time>
      </trkpt>
      <trkpt lat="43.38856" lon="5.39092">
        <ele>309.2</ele>
        <time>2020-10-11T16:56:53Z</time>
      </trkpt>
      <trkpt lat="43.38852" lon="5.39084">
        <ele>307.28</ele>
        <time>2020-10-11T16:57:01Z</time>
      </trkpt>
      <trkpt lat="43.38848" lon="5.39083">
        <ele>307.28</ele>
        <time>2020-10-11T16:57:05Z</time>
      </trkpt>
      <trkpt lat="43.38846" lon="5.39078">
        <ele>307.28</ele>
        <time>2020-10-11T16:57:09Z</time>
      </trkpt>
      <trkpt lat="43.3885" lon="5.39065">
        <ele>306.32</ele>
        <time>2020-10-11T16:57:21Z</time>
      </trkpt>
      <trkpt lat="43.38851" lon="5.39063">
        <ele>306.32</ele>
        <time>2020-10-11T16:57:23Z</time>
      </trkpt>
      <trkpt lat="43.38854" lon="5.39054">
        <ele>306.32</ele>
        <time>2020-10-11T16:57:29Z</time>
      </trkpt>
      <trkpt lat="43.38855" lon="5.39034">
        <ele>306.32</ele>
        <time>2020-10-11T16:57:42Z</time>
      </trkpt>
      <trkpt lat="43.38854" lon="5.39016">
        <ele>305.84</ele>
        <time>2020-10-11T16:57:54Z</time>
      </trkpt>
      <trkpt lat="43.38853" lon="5.38998">
        <ele>306.8</ele>
        <time>2020-10-11T16:58:08Z</time>
      </trkpt>
      <trkpt lat="43.38852" lon="5.38993">
        <ele>306.8</ele>
        <time>2020-10-11T16:58:12Z</time>
      </trkpt>
      <trkpt lat="43.38847" lon="5.38985">
        <ele>307.76</ele>
        <time>2020-10-11T16:58:20Z</time>
      </trkpt>
      <trkpt lat="43.38842" lon="5.38963">
        <ele>306.32</ele>
        <time>2020-10-11T16:58:35Z</time>
      </trkpt>
      <trkpt lat="43.38841" lon="5.38955">
        <ele>305.84</ele>
        <time>2020-10-11T16:58:40Z</time>
      </trkpt>
      <trkpt lat="43.3884" lon="5.38939">
        <ele>305.84</ele>
        <time>2020-10-11T16:58:54Z</time>
      </trkpt>
      <trkpt lat="43.38838" lon="5.3894">
        <ele>305.84</ele>
        <time>2020-10-11T16:59:13Z</time>
      </trkpt>
    </trkseg>
  </trk>
</gpx>